<?xml version="1.0" encoding="UTF-8" ?>
<gpx version="1.1" xmlns:xsi="http://www.w3.org/2001/XMLSchema-instance" 
    xmlns="http://www.topografix.com/GPX/1/1" 
    xsi:schemaLocation="http://www.topografix.com/GPX/1/1 http://www.topografix.com/GPX/1/1/gpx.xsd" 
    creator="Openrunner - https://www.openrunner.com" >	<trk>
						<name>Dame Blanche- 80 Km-19107520</name>
						<trkseg>
					<trkpt lat="48.884490" lon="2.269060">
						<ele>42</ele>
						<time>2024-05-30T11:54:14Z</time>
					</trkpt>
					<trkpt lat="48.884430" lon="2.269020">
						<ele>41</ele>
						<time>2024-05-30T11:54:15Z</time>
					</trkpt>
					<trkpt lat="48.884460" lon="2.268920">
						<ele>42</ele>
						<time>2024-05-30T11:54:16Z</time>
					</trkpt>
					<trkpt lat="48.884520" lon="2.268920">
						<ele>42</ele>
						<time>2024-05-30T11:54:18Z</time>
					</trkpt>
					<trkpt lat="48.884690" lon="2.268180">
						<ele>44</ele>
						<time>2024-05-30T11:54:27Z</time>
					</trkpt>
					<trkpt lat="48.884660" lon="2.268040">
						<ele>45</ele>
						<time>2024-05-30T11:54:28Z</time>
					</trkpt>
					<trkpt lat="48.884790" lon="2.267460">
						<ele>49</ele>
						<time>2024-05-30T11:54:36Z</time>
					</trkpt>
					<trkpt lat="48.884860" lon="2.267410">
						<ele>49</ele>
						<time>2024-05-30T11:54:37Z</time>
					</trkpt>
					<trkpt lat="48.885640" lon="2.264040">
						<ele>44</ele>
						<time>2024-05-30T11:55:19Z</time>
					</trkpt>
					<trkpt lat="48.885600" lon="2.263930">
						<ele>43</ele>
						<time>2024-05-30T11:55:20Z</time>
					</trkpt>
					<trkpt lat="48.885660" lon="2.263680">
						<ele>43</ele>
						<time>2024-05-30T11:55:23Z</time>
					</trkpt>
					<trkpt lat="48.885720" lon="2.263670">
						<ele>43</ele>
						<time>2024-05-30T11:55:24Z</time>
					</trkpt>
					<trkpt lat="48.885950" lon="2.262730">
						<ele>39</ele>
						<time>2024-05-30T11:55:36Z</time>
					</trkpt>
					<trkpt lat="48.885920" lon="2.262630">
						<ele>39</ele>
						<time>2024-05-30T11:55:37Z</time>
					</trkpt>
					<trkpt lat="48.886080" lon="2.262260">
						<ele>39</ele>
						<time>2024-05-30T11:55:43Z</time>
					</trkpt>
					<trkpt lat="48.886170" lon="2.262090">
						<ele>39</ele>
						<time>2024-05-30T11:55:45Z</time>
					</trkpt>
					<trkpt lat="48.886290" lon="2.261950">
						<ele>39</ele>
						<time>2024-05-30T11:55:48Z</time>
					</trkpt>
					<trkpt lat="48.886340" lon="2.261850">
						<ele>39</ele>
						<time>2024-05-30T11:55:49Z</time>
					</trkpt>
					<trkpt lat="48.886380" lon="2.261730">
						<ele>39</ele>
						<time>2024-05-30T11:55:51Z</time>
					</trkpt>
					<trkpt lat="48.886410" lon="2.261720">
						<ele>39</ele>
						<time>2024-05-30T11:55:51Z</time>
					</trkpt>
					<trkpt lat="48.886570" lon="2.262010">
						<ele>40</ele>
						<time>2024-05-30T11:55:56Z</time>
					</trkpt>
					<trkpt lat="48.886910" lon="2.262600">
						<ele>41</ele>
						<time>2024-05-30T11:56:05Z</time>
					</trkpt>
					<trkpt lat="48.887630" lon="2.263770">
						<ele>38</ele>
						<time>2024-05-30T11:56:24Z</time>
					</trkpt>
					<trkpt lat="48.888200" lon="2.264640">
						<ele>37</ele>
						<time>2024-05-30T11:56:38Z</time>
					</trkpt>
					<trkpt lat="48.889870" lon="2.268560">
						<ele>34</ele>
						<time>2024-05-30T11:57:33Z</time>
					</trkpt>
					<trkpt lat="48.890390" lon="2.269740">
						<ele>34</ele>
						<time>2024-05-30T11:57:49Z</time>
					</trkpt>
					<trkpt lat="48.890740" lon="2.270550">
						<ele>32</ele>
						<time>2024-05-30T11:58:01Z</time>
					</trkpt>
					<trkpt lat="48.891090" lon="2.270270">
						<ele>33</ele>
						<time>2024-05-30T11:58:08Z</time>
					</trkpt>
					<trkpt lat="48.891460" lon="2.269900">
						<ele>34</ele>
						<time>2024-05-30T11:58:16Z</time>
					</trkpt>
					<trkpt lat="48.892160" lon="2.269180">
						<ele>33</ele>
						<time>2024-05-30T11:58:31Z</time>
					</trkpt>
					<trkpt lat="48.892290" lon="2.269020">
						<ele>34</ele>
						<time>2024-05-30T11:58:34Z</time>
					</trkpt>
					<trkpt lat="48.892330" lon="2.268920">
						<ele>34</ele>
						<time>2024-05-30T11:58:35Z</time>
					</trkpt>
					<trkpt lat="48.893260" lon="2.267970">
						<ele>34</ele>
						<time>2024-05-30T11:58:55Z</time>
					</trkpt>
					<trkpt lat="48.893450" lon="2.267850">
						<ele>33</ele>
						<time>2024-05-30T11:58:59Z</time>
					</trkpt>
					<trkpt lat="48.893580" lon="2.267710">
						<ele>32</ele>
						<time>2024-05-30T11:59:02Z</time>
					</trkpt>
					<trkpt lat="48.893700" lon="2.267580">
						<ele>32</ele>
						<time>2024-05-30T11:59:04Z</time>
					</trkpt>
					<trkpt lat="48.893810" lon="2.267490">
						<ele>31</ele>
						<time>2024-05-30T11:59:06Z</time>
					</trkpt>
					<trkpt lat="48.894160" lon="2.267130">
						<ele>32</ele>
						<time>2024-05-30T11:59:14Z</time>
					</trkpt>
					<trkpt lat="48.894230" lon="2.267030">
						<ele>33</ele>
						<time>2024-05-30T11:59:16Z</time>
					</trkpt>
					<trkpt lat="48.894880" lon="2.266350">
						<ele>38</ele>
						<time>2024-05-30T11:59:30Z</time>
					</trkpt>
					<trkpt lat="48.895260" lon="2.265990">
						<ele>36</ele>
						<time>2024-05-30T11:59:38Z</time>
					</trkpt>
					<trkpt lat="48.895430" lon="2.265860">
						<ele>35</ele>
						<time>2024-05-30T11:59:41Z</time>
					</trkpt>
					<trkpt lat="48.896300" lon="2.264950">
						<ele>34</ele>
						<time>2024-05-30T12:00:00Z</time>
					</trkpt>
					<trkpt lat="48.896370" lon="2.264910">
						<ele>34</ele>
						<time>2024-05-30T12:00:01Z</time>
					</trkpt>
					<trkpt lat="48.896590" lon="2.264710">
						<ele>34</ele>
						<time>2024-05-30T12:00:06Z</time>
					</trkpt>
					<trkpt lat="48.896930" lon="2.264370">
						<ele>37</ele>
						<time>2024-05-30T12:00:13Z</time>
					</trkpt>
					<trkpt lat="48.897410" lon="2.263820">
						<ele>43</ele>
						<time>2024-05-30T12:00:24Z</time>
					</trkpt>
					<trkpt lat="48.897540" lon="2.263630">
						<ele>45</ele>
						<time>2024-05-30T12:00:27Z</time>
					</trkpt>
					<trkpt lat="48.900160" lon="2.261000">
						<ele>47</ele>
						<time>2024-05-30T12:01:23Z</time>
					</trkpt>
					<trkpt lat="48.900410" lon="2.260770">
						<ele>46</ele>
						<time>2024-05-30T12:01:28Z</time>
					</trkpt>
					<trkpt lat="48.900490" lon="2.260770">
						<ele>46</ele>
						<time>2024-05-30T12:01:29Z</time>
					</trkpt>
					<trkpt lat="48.900560" lon="2.260740">
						<ele>46</ele>
						<time>2024-05-30T12:01:31Z</time>
					</trkpt>
					<trkpt lat="48.901860" lon="2.259420">
						<ele>43</ele>
						<time>2024-05-30T12:01:58Z</time>
					</trkpt>
					<trkpt lat="48.902300" lon="2.259030">
						<ele>43</ele>
						<time>2024-05-30T12:02:07Z</time>
					</trkpt>
					<trkpt lat="48.902330" lon="2.258860">
						<ele>43</ele>
						<time>2024-05-30T12:02:09Z</time>
					</trkpt>
					<trkpt lat="48.904600" lon="2.256660">
						<ele>45</ele>
						<time>2024-05-30T12:02:57Z</time>
					</trkpt>
					<trkpt lat="48.904770" lon="2.256590">
						<ele>45</ele>
						<time>2024-05-30T12:03:01Z</time>
					</trkpt>
					<trkpt lat="48.905160" lon="2.256230">
						<ele>45</ele>
						<time>2024-05-30T12:03:09Z</time>
					</trkpt>
					<trkpt lat="48.905280" lon="2.256170">
						<ele>45</ele>
						<time>2024-05-30T12:03:11Z</time>
					</trkpt>
					<trkpt lat="48.905360" lon="2.256230">
						<ele>45</ele>
						<time>2024-05-30T12:03:12Z</time>
					</trkpt>
					<trkpt lat="48.905420" lon="2.256230">
						<ele>45</ele>
						<time>2024-05-30T12:03:14Z</time>
					</trkpt>
					<trkpt lat="48.905510" lon="2.256170">
						<ele>45</ele>
						<time>2024-05-30T12:03:15Z</time>
					</trkpt>
					<trkpt lat="48.905570" lon="2.256050">
						<ele>46</ele>
						<time>2024-05-30T12:03:17Z</time>
					</trkpt>
					<trkpt lat="48.905580" lon="2.255900">
						<ele>46</ele>
						<time>2024-05-30T12:03:19Z</time>
					</trkpt>
					<trkpt lat="48.905680" lon="2.255820">
						<ele>46</ele>
						<time>2024-05-30T12:03:21Z</time>
					</trkpt>
					<trkpt lat="48.905860" lon="2.255750">
						<ele>46</ele>
						<time>2024-05-30T12:03:24Z</time>
					</trkpt>
					<trkpt lat="48.906050" lon="2.255750">
						<ele>46</ele>
						<time>2024-05-30T12:03:27Z</time>
					</trkpt>
					<trkpt lat="48.907870" lon="2.255540">
						<ele>46</ele>
						<time>2024-05-30T12:04:00Z</time>
					</trkpt>
					<trkpt lat="48.908120" lon="2.255490">
						<ele>46</ele>
						<time>2024-05-30T12:04:04Z</time>
					</trkpt>
					<trkpt lat="48.911170" lon="2.254630">
						<ele>45</ele>
						<time>2024-05-30T12:05:00Z</time>
					</trkpt>
					<trkpt lat="48.911730" lon="2.254330">
						<ele>43</ele>
						<time>2024-05-30T12:05:10Z</time>
					</trkpt>
					<trkpt lat="48.913310" lon="2.253320">
						<ele>40</ele>
						<time>2024-05-30T12:05:41Z</time>
					</trkpt>
					<trkpt lat="48.913390" lon="2.253320">
						<ele>40</ele>
						<time>2024-05-30T12:05:42Z</time>
					</trkpt>
					<trkpt lat="48.913650" lon="2.253160">
						<ele>41</ele>
						<time>2024-05-30T12:05:47Z</time>
					</trkpt>
					<trkpt lat="48.913770" lon="2.253120">
						<ele>41</ele>
						<time>2024-05-30T12:05:49Z</time>
					</trkpt>
					<trkpt lat="48.913880" lon="2.253030">
						<ele>41</ele>
						<time>2024-05-30T12:05:52Z</time>
					</trkpt>
					<trkpt lat="48.914180" lon="2.252950">
						<ele>42</ele>
						<time>2024-05-30T12:05:57Z</time>
					</trkpt>
					<trkpt lat="48.914510" lon="2.252890">
						<ele>42</ele>
						<time>2024-05-30T12:06:03Z</time>
					</trkpt>
					<trkpt lat="48.915270" lon="2.252830">
						<ele>41</ele>
						<time>2024-05-30T12:06:16Z</time>
					</trkpt>
					<trkpt lat="48.915490" lon="2.252780">
						<ele>41</ele>
						<time>2024-05-30T12:06:20Z</time>
					</trkpt>
					<trkpt lat="48.915710" lon="2.252760">
						<ele>41</ele>
						<time>2024-05-30T12:06:24Z</time>
					</trkpt>
					<trkpt lat="48.915960" lon="2.252770">
						<ele>41</ele>
						<time>2024-05-30T12:06:29Z</time>
					</trkpt>
					<trkpt lat="48.918980" lon="2.252650">
						<ele>43</ele>
						<time>2024-05-30T12:07:22Z</time>
					</trkpt>
					<trkpt lat="48.919930" lon="2.252650">
						<ele>45</ele>
						<time>2024-05-30T12:07:39Z</time>
					</trkpt>
					<trkpt lat="48.920180" lon="2.252660">
						<ele>45</ele>
						<time>2024-05-30T12:07:44Z</time>
					</trkpt>
					<trkpt lat="48.920410" lon="2.252760">
						<ele>45</ele>
						<time>2024-05-30T12:07:48Z</time>
					</trkpt>
					<trkpt lat="48.920510" lon="2.252780">
						<ele>45</ele>
						<time>2024-05-30T12:07:50Z</time>
					</trkpt>
					<trkpt lat="48.920840" lon="2.252790">
						<ele>46</ele>
						<time>2024-05-30T12:07:56Z</time>
					</trkpt>
					<trkpt lat="48.920940" lon="2.252770">
						<ele>46</ele>
						<time>2024-05-30T12:07:58Z</time>
					</trkpt>
					<trkpt lat="48.921230" lon="2.252640">
						<ele>45</ele>
						<time>2024-05-30T12:08:03Z</time>
					</trkpt>
					<trkpt lat="48.922050" lon="2.252620">
						<ele>44</ele>
						<time>2024-05-30T12:08:18Z</time>
					</trkpt>
					<trkpt lat="48.922330" lon="2.252610">
						<ele>43</ele>
						<time>2024-05-30T12:08:23Z</time>
					</trkpt>
					<trkpt lat="48.922800" lon="2.252640">
						<ele>43</ele>
						<time>2024-05-30T12:08:31Z</time>
					</trkpt>
					<trkpt lat="48.922870" lon="2.252540">
						<ele>43</ele>
						<time>2024-05-30T12:08:33Z</time>
					</trkpt>
					<trkpt lat="48.923180" lon="2.252400">
						<ele>43</ele>
						<time>2024-05-30T12:08:38Z</time>
					</trkpt>
					<trkpt lat="48.923330" lon="2.252460">
						<ele>42</ele>
						<time>2024-05-30T12:08:41Z</time>
					</trkpt>
					<trkpt lat="48.923910" lon="2.252610">
						<ele>37</ele>
						<time>2024-05-30T12:08:52Z</time>
					</trkpt>
					<trkpt lat="48.924020" lon="2.252600">
						<ele>36</ele>
						<time>2024-05-30T12:08:54Z</time>
					</trkpt>
					<trkpt lat="48.924070" lon="2.252660">
						<ele>36</ele>
						<time>2024-05-30T12:08:55Z</time>
					</trkpt>
					<trkpt lat="48.924170" lon="2.252680">
						<ele>35</ele>
						<time>2024-05-30T12:08:56Z</time>
					</trkpt>
					<trkpt lat="48.924270" lon="2.252660">
						<ele>35</ele>
						<time>2024-05-30T12:08:58Z</time>
					</trkpt>
					<trkpt lat="48.924760" lon="2.252720">
						<ele>32</ele>
						<time>2024-05-30T12:09:07Z</time>
					</trkpt>
					<trkpt lat="48.925990" lon="2.252940">
						<ele>30</ele>
						<time>2024-05-30T12:09:29Z</time>
					</trkpt>
					<trkpt lat="48.927070" lon="2.253450">
						<ele>32</ele>
						<time>2024-05-30T12:09:49Z</time>
					</trkpt>
					<trkpt lat="48.927630" lon="2.253720">
						<ele>32</ele>
						<time>2024-05-30T12:10:00Z</time>
					</trkpt>
					<trkpt lat="48.929840" lon="2.254940">
						<ele>26</ele>
						<time>2024-05-30T12:10:41Z</time>
					</trkpt>
					<trkpt lat="48.930270" lon="2.255080">
						<ele>27</ele>
						<time>2024-05-30T12:10:49Z</time>
					</trkpt>
					<trkpt lat="48.930710" lon="2.255150">
						<ele>28</ele>
						<time>2024-05-30T12:10:57Z</time>
					</trkpt>
					<trkpt lat="48.932280" lon="2.255310">
						<ele>29</ele>
						<time>2024-05-30T12:11:25Z</time>
					</trkpt>
					<trkpt lat="48.932720" lon="2.255440">
						<ele>29</ele>
						<time>2024-05-30T12:11:33Z</time>
					</trkpt>
					<trkpt lat="48.933270" lon="2.255550">
						<ele>31</ele>
						<time>2024-05-30T12:11:43Z</time>
					</trkpt>
					<trkpt lat="48.933660" lon="2.255660">
						<ele>30</ele>
						<time>2024-05-30T12:11:50Z</time>
					</trkpt>
					<trkpt lat="48.933910" lon="2.255790">
						<ele>30</ele>
						<time>2024-05-30T12:11:55Z</time>
					</trkpt>
					<trkpt lat="48.934400" lon="2.256090">
						<ele>29</ele>
						<time>2024-05-30T12:12:04Z</time>
					</trkpt>
					<trkpt lat="48.934940" lon="2.256310">
						<ele>29</ele>
						<time>2024-05-30T12:12:14Z</time>
					</trkpt>
					<trkpt lat="48.935100" lon="2.256400">
						<ele>29</ele>
						<time>2024-05-30T12:12:17Z</time>
					</trkpt>
					<trkpt lat="48.935310" lon="2.256530">
						<ele>29</ele>
						<time>2024-05-30T12:12:21Z</time>
					</trkpt>
					<trkpt lat="48.936190" lon="2.257170">
						<ele>31</ele>
						<time>2024-05-30T12:12:38Z</time>
					</trkpt>
					<trkpt lat="48.936630" lon="2.257490">
						<ele>30</ele>
						<time>2024-05-30T12:12:47Z</time>
					</trkpt>
					<trkpt lat="48.937280" lon="2.257970">
						<ele>30</ele>
						<time>2024-05-30T12:13:00Z</time>
					</trkpt>
					<trkpt lat="48.937420" lon="2.258190">
						<ele>29</ele>
						<time>2024-05-30T12:13:04Z</time>
					</trkpt>
					<trkpt lat="48.937590" lon="2.258180">
						<ele>29</ele>
						<time>2024-05-30T12:13:07Z</time>
					</trkpt>
					<trkpt lat="48.939220" lon="2.256220">
						<ele>29</ele>
						<time>2024-05-30T12:13:44Z</time>
					</trkpt>
					<trkpt lat="48.939230" lon="2.256250">
						<ele>29</ele>
						<time>2024-05-30T12:13:44Z</time>
					</trkpt>
					<trkpt lat="48.939240" lon="2.256280">
						<ele>29</ele>
						<time>2024-05-30T12:13:44Z</time>
					</trkpt>
					<trkpt lat="48.939340" lon="2.256180">
						<ele>28</ele>
						<time>2024-05-30T12:13:47Z</time>
					</trkpt>
					<trkpt lat="48.940080" lon="2.255370">
						<ele>22</ele>
						<time>2024-05-30T12:14:03Z</time>
					</trkpt>
					<trkpt lat="48.941250" lon="2.254150">
						<ele>27</ele>
						<time>2024-05-30T12:14:28Z</time>
					</trkpt>
					<trkpt lat="48.941710" lon="2.253660">
						<ele>28</ele>
						<time>2024-05-30T12:14:38Z</time>
					</trkpt>
					<trkpt lat="48.941830" lon="2.253580">
						<ele>28</ele>
						<time>2024-05-30T12:14:40Z</time>
					</trkpt>
					<trkpt lat="48.941970" lon="2.253540">
						<ele>29</ele>
						<time>2024-05-30T12:14:43Z</time>
					</trkpt>
					<trkpt lat="48.942080" lon="2.253550">
						<ele>29</ele>
						<time>2024-05-30T12:14:45Z</time>
					</trkpt>
					<trkpt lat="48.942090" lon="2.253480">
						<ele>29</ele>
						<time>2024-05-30T12:14:46Z</time>
					</trkpt>
					<trkpt lat="48.942300" lon="2.253590">
						<ele>30</ele>
						<time>2024-05-30T12:14:50Z</time>
					</trkpt>
					<trkpt lat="48.943160" lon="2.255350">
						<ele>26</ele>
						<time>2024-05-30T12:15:15Z</time>
					</trkpt>
					<trkpt lat="48.943150" lon="2.255450">
						<ele>26</ele>
						<time>2024-05-30T12:15:16Z</time>
					</trkpt>
					<trkpt lat="48.943170" lon="2.255560">
						<ele>26</ele>
						<time>2024-05-30T12:15:18Z</time>
					</trkpt>
					<trkpt lat="48.943200" lon="2.255650">
						<ele>26</ele>
						<time>2024-05-30T12:15:19Z</time>
					</trkpt>
					<trkpt lat="48.943250" lon="2.255720">
						<ele>26</ele>
						<time>2024-05-30T12:15:20Z</time>
					</trkpt>
					<trkpt lat="48.943310" lon="2.255770">
						<ele>26</ele>
						<time>2024-05-30T12:15:21Z</time>
					</trkpt>
					<trkpt lat="48.943420" lon="2.255760">
						<ele>26</ele>
						<time>2024-05-30T12:15:23Z</time>
					</trkpt>
					<trkpt lat="48.943470" lon="2.255730">
						<ele>26</ele>
						<time>2024-05-30T12:15:24Z</time>
					</trkpt>
					<trkpt lat="48.943530" lon="2.255650">
						<ele>27</ele>
						<time>2024-05-30T12:15:26Z</time>
					</trkpt>
					<trkpt lat="48.943570" lon="2.255550">
						<ele>27</ele>
						<time>2024-05-30T12:15:27Z</time>
					</trkpt>
					<trkpt lat="48.943820" lon="2.255320">
						<ele>27</ele>
						<time>2024-05-30T12:15:32Z</time>
					</trkpt>
					<trkpt lat="48.944020" lon="2.255100">
						<ele>26</ele>
						<time>2024-05-30T12:15:37Z</time>
					</trkpt>
					<trkpt lat="48.944200" lon="2.254970">
						<ele>26</ele>
						<time>2024-05-30T12:15:40Z</time>
					</trkpt>
					<trkpt lat="48.944640" lon="2.254790">
						<ele>28</ele>
						<time>2024-05-30T12:15:48Z</time>
					</trkpt>
					<trkpt lat="48.945680" lon="2.254450">
						<ele>31</ele>
						<time>2024-05-30T12:16:07Z</time>
					</trkpt>
					<trkpt lat="48.946330" lon="2.254230">
						<ele>32</ele>
						<time>2024-05-30T12:16:19Z</time>
					</trkpt>
					<trkpt lat="48.946760" lon="2.254880">
						<ele>33</ele>
						<time>2024-05-30T12:16:30Z</time>
					</trkpt>
					<trkpt lat="48.947240" lon="2.255550">
						<ele>35</ele>
						<time>2024-05-30T12:16:41Z</time>
					</trkpt>
					<trkpt lat="48.947440" lon="2.255800">
						<ele>36</ele>
						<time>2024-05-30T12:16:46Z</time>
					</trkpt>
					<trkpt lat="48.947610" lon="2.255910">
						<ele>37</ele>
						<time>2024-05-30T12:16:49Z</time>
					</trkpt>
					<trkpt lat="48.947680" lon="2.255930">
						<ele>37</ele>
						<time>2024-05-30T12:16:51Z</time>
					</trkpt>
					<trkpt lat="48.947790" lon="2.255870">
						<ele>37</ele>
						<time>2024-05-30T12:16:53Z</time>
					</trkpt>
					<trkpt lat="48.948890" lon="2.253340">
						<ele>36</ele>
						<time>2024-05-30T12:17:28Z</time>
					</trkpt>
					<trkpt lat="48.948980" lon="2.253500">
						<ele>36</ele>
						<time>2024-05-30T12:17:31Z</time>
					</trkpt>
					<trkpt lat="48.949080" lon="2.253530">
						<ele>36</ele>
						<time>2024-05-30T12:17:32Z</time>
					</trkpt>
					<trkpt lat="48.949560" lon="2.253560">
						<ele>37</ele>
						<time>2024-05-30T12:17:41Z</time>
					</trkpt>
					<trkpt lat="48.952080" lon="2.253830">
						<ele>41</ele>
						<time>2024-05-30T12:18:26Z</time>
					</trkpt>
					<trkpt lat="48.952640" lon="2.253960">
						<ele>41</ele>
						<time>2024-05-30T12:18:36Z</time>
					</trkpt>
					<trkpt lat="48.952870" lon="2.254030">
						<ele>42</ele>
						<time>2024-05-30T12:18:40Z</time>
					</trkpt>
					<trkpt lat="48.953180" lon="2.254170">
						<ele>42</ele>
						<time>2024-05-30T12:18:46Z</time>
					</trkpt>
					<trkpt lat="48.953490" lon="2.254310">
						<ele>44</ele>
						<time>2024-05-30T12:18:52Z</time>
					</trkpt>
					<trkpt lat="48.953760" lon="2.254370">
						<ele>44</ele>
						<time>2024-05-30T12:18:56Z</time>
					</trkpt>
					<trkpt lat="48.958490" lon="2.257300">
						<ele>54</ele>
						<time>2024-05-30T12:20:27Z</time>
					</trkpt>
					<trkpt lat="48.958600" lon="2.257350">
						<ele>54</ele>
						<time>2024-05-30T12:20:29Z</time>
					</trkpt>
					<trkpt lat="48.959520" lon="2.257950">
						<ele>57</ele>
						<time>2024-05-30T12:20:47Z</time>
					</trkpt>
					<trkpt lat="48.959660" lon="2.258040">
						<ele>57</ele>
						<time>2024-05-30T12:20:50Z</time>
					</trkpt>
					<trkpt lat="48.959840" lon="2.258220">
						<ele>58</ele>
						<time>2024-05-30T12:20:54Z</time>
					</trkpt>
					<trkpt lat="48.960000" lon="2.258450">
						<ele>58</ele>
						<time>2024-05-30T12:20:58Z</time>
					</trkpt>
					<trkpt lat="48.960010" lon="2.258550">
						<ele>57</ele>
						<time>2024-05-30T12:20:59Z</time>
					</trkpt>
					<trkpt lat="48.960030" lon="2.258630">
						<ele>57</ele>
						<time>2024-05-30T12:21:00Z</time>
					</trkpt>
					<trkpt lat="48.960080" lon="2.258690">
						<ele>57</ele>
						<time>2024-05-30T12:21:01Z</time>
					</trkpt>
					<trkpt lat="48.960190" lon="2.258730">
						<ele>57</ele>
						<time>2024-05-30T12:21:03Z</time>
					</trkpt>
					<trkpt lat="48.960270" lon="2.258690">
						<ele>57</ele>
						<time>2024-05-30T12:21:04Z</time>
					</trkpt>
					<trkpt lat="48.960320" lon="2.258610">
						<ele>57</ele>
						<time>2024-05-30T12:21:06Z</time>
					</trkpt>
					<trkpt lat="48.960410" lon="2.258630">
						<ele>57</ele>
						<time>2024-05-30T12:21:07Z</time>
					</trkpt>
					<trkpt lat="48.960510" lon="2.258690">
						<ele>57</ele>
						<time>2024-05-30T12:21:09Z</time>
					</trkpt>
					<trkpt lat="48.960810" lon="2.258980">
						<ele>57</ele>
						<time>2024-05-30T12:21:16Z</time>
					</trkpt>
					<trkpt lat="48.961520" lon="2.259440">
						<ele>59</ele>
						<time>2024-05-30T12:21:29Z</time>
					</trkpt>
					<trkpt lat="48.962220" lon="2.259790">
						<ele>61</ele>
						<time>2024-05-30T12:21:42Z</time>
					</trkpt>
					<trkpt lat="48.963680" lon="2.260670">
						<ele>61</ele>
						<time>2024-05-30T12:22:10Z</time>
					</trkpt>
					<trkpt lat="48.963760" lon="2.260750">
						<ele>61</ele>
						<time>2024-05-30T12:22:12Z</time>
					</trkpt>
					<trkpt lat="48.964170" lon="2.261000">
						<ele>61</ele>
						<time>2024-05-30T12:22:20Z</time>
					</trkpt>
					<trkpt lat="48.964240" lon="2.261020">
						<ele>61</ele>
						<time>2024-05-30T12:22:21Z</time>
					</trkpt>
					<trkpt lat="48.965160" lon="2.261500">
						<ele>62</ele>
						<time>2024-05-30T12:22:39Z</time>
					</trkpt>
					<trkpt lat="48.965380" lon="2.261590">
						<ele>61</ele>
						<time>2024-05-30T12:22:43Z</time>
					</trkpt>
					<trkpt lat="48.965410" lon="2.261650">
						<ele>61</ele>
						<time>2024-05-30T12:22:43Z</time>
					</trkpt>
					<trkpt lat="48.965430" lon="2.261660">
						<ele>61</ele>
						<time>2024-05-30T12:22:44Z</time>
					</trkpt>
					<trkpt lat="48.965460" lon="2.261670">
						<ele>61</ele>
						<time>2024-05-30T12:22:44Z</time>
					</trkpt>
					<trkpt lat="48.965500" lon="2.261640">
						<ele>61</ele>
						<time>2024-05-30T12:22:45Z</time>
					</trkpt>
					<trkpt lat="48.965600" lon="2.261650">
						<ele>61</ele>
						<time>2024-05-30T12:22:47Z</time>
					</trkpt>
					<trkpt lat="48.966100" lon="2.261830">
						<ele>60</ele>
						<time>2024-05-30T12:22:56Z</time>
					</trkpt>
					<trkpt lat="48.966200" lon="2.261830">
						<ele>60</ele>
						<time>2024-05-30T12:22:58Z</time>
					</trkpt>
					<trkpt lat="48.966350" lon="2.261900">
						<ele>60</ele>
						<time>2024-05-30T12:23:01Z</time>
					</trkpt>
					<trkpt lat="48.966170" lon="2.262940">
						<ele>58</ele>
						<time>2024-05-30T12:23:13Z</time>
					</trkpt>
					<trkpt lat="48.966100" lon="2.263210">
						<ele>57</ele>
						<time>2024-05-30T12:23:17Z</time>
					</trkpt>
					<trkpt lat="48.966030" lon="2.263570">
						<ele>57</ele>
						<time>2024-05-30T12:23:21Z</time>
					</trkpt>
					<trkpt lat="48.966030" lon="2.264000">
						<ele>56</ele>
						<time>2024-05-30T12:23:26Z</time>
					</trkpt>
					<trkpt lat="48.966050" lon="2.264170">
						<ele>56</ele>
						<time>2024-05-30T12:23:28Z</time>
					</trkpt>
					<trkpt lat="48.966100" lon="2.264320">
						<ele>55</ele>
						<time>2024-05-30T12:23:30Z</time>
					</trkpt>
					<trkpt lat="48.966110" lon="2.264460">
						<ele>55</ele>
						<time>2024-05-30T12:23:32Z</time>
					</trkpt>
					<trkpt lat="48.966170" lon="2.264540">
						<ele>55</ele>
						<time>2024-05-30T12:23:33Z</time>
					</trkpt>
					<trkpt lat="48.966210" lon="2.264550">
						<ele>55</ele>
						<time>2024-05-30T12:23:34Z</time>
					</trkpt>
					<trkpt lat="48.966270" lon="2.264520">
						<ele>55</ele>
						<time>2024-05-30T12:23:35Z</time>
					</trkpt>
					<trkpt lat="48.966310" lon="2.264450">
						<ele>55</ele>
						<time>2024-05-30T12:23:36Z</time>
					</trkpt>
					<trkpt lat="48.966430" lon="2.264380">
						<ele>55</ele>
						<time>2024-05-30T12:23:38Z</time>
					</trkpt>
					<trkpt lat="48.966810" lon="2.264290">
						<ele>55</ele>
						<time>2024-05-30T12:23:45Z</time>
					</trkpt>
					<trkpt lat="48.966990" lon="2.264290">
						<ele>55</ele>
						<time>2024-05-30T12:23:48Z</time>
					</trkpt>
					<trkpt lat="48.967100" lon="2.264310">
						<ele>54</ele>
						<time>2024-05-30T12:23:50Z</time>
					</trkpt>
					<trkpt lat="48.967440" lon="2.264390">
						<ele>54</ele>
						<time>2024-05-30T12:23:56Z</time>
					</trkpt>
					<trkpt lat="48.967710" lon="2.264400">
						<ele>54</ele>
						<time>2024-05-30T12:24:01Z</time>
					</trkpt>
					<trkpt lat="48.967880" lon="2.264470">
						<ele>54</ele>
						<time>2024-05-30T12:24:04Z</time>
					</trkpt>
					<trkpt lat="48.968620" lon="2.264610">
						<ele>54</ele>
						<time>2024-05-30T12:24:18Z</time>
					</trkpt>
					<trkpt lat="48.968840" lon="2.264620">
						<ele>54</ele>
						<time>2024-05-30T12:24:22Z</time>
					</trkpt>
					<trkpt lat="48.969130" lon="2.264590">
						<ele>54</ele>
						<time>2024-05-30T12:24:27Z</time>
					</trkpt>
					<trkpt lat="48.969240" lon="2.264650">
						<ele>54</ele>
						<time>2024-05-30T12:24:29Z</time>
					</trkpt>
					<trkpt lat="48.969260" lon="2.264600">
						<ele>54</ele>
						<time>2024-05-30T12:24:29Z</time>
					</trkpt>
					<trkpt lat="48.969380" lon="2.264510">
						<ele>54</ele>
						<time>2024-05-30T12:24:32Z</time>
					</trkpt>
					<trkpt lat="48.971650" lon="2.264030">
						<ele>54</ele>
						<time>2024-05-30T12:25:13Z</time>
					</trkpt>
					<trkpt lat="48.971760" lon="2.264020">
						<ele>54</ele>
						<time>2024-05-30T12:25:15Z</time>
					</trkpt>
					<trkpt lat="48.971860" lon="2.264050">
						<ele>53</ele>
						<time>2024-05-30T12:25:16Z</time>
					</trkpt>
					<trkpt lat="48.972170" lon="2.264220">
						<ele>52</ele>
						<time>2024-05-30T12:25:22Z</time>
					</trkpt>
					<trkpt lat="48.973050" lon="2.264710">
						<ele>50</ele>
						<time>2024-05-30T12:25:39Z</time>
					</trkpt>
					<trkpt lat="48.975210" lon="2.265920">
						<ele>48</ele>
						<time>2024-05-30T12:26:20Z</time>
					</trkpt>
					<trkpt lat="48.975900" lon="2.266410">
						<ele>48</ele>
						<time>2024-05-30T12:26:33Z</time>
					</trkpt>
					<trkpt lat="48.976640" lon="2.266980">
						<ele>47</ele>
						<time>2024-05-30T12:26:48Z</time>
					</trkpt>
					<trkpt lat="48.976680" lon="2.267220">
						<ele>47</ele>
						<time>2024-05-30T12:26:51Z</time>
					</trkpt>
					<trkpt lat="48.976660" lon="2.267330">
						<ele>47</ele>
						<time>2024-05-30T12:26:52Z</time>
					</trkpt>
					<trkpt lat="48.976670" lon="2.267380">
						<ele>47</ele>
						<time>2024-05-30T12:26:53Z</time>
					</trkpt>
					<trkpt lat="48.976730" lon="2.267460">
						<ele>47</ele>
						<time>2024-05-30T12:26:54Z</time>
					</trkpt>
					<trkpt lat="48.976750" lon="2.267810">
						<ele>47</ele>
						<time>2024-05-30T12:26:59Z</time>
					</trkpt>
					<trkpt lat="48.976810" lon="2.268130">
						<ele>48</ele>
						<time>2024-05-30T12:27:02Z</time>
					</trkpt>
					<trkpt lat="48.976860" lon="2.268330">
						<ele>48</ele>
						<time>2024-05-30T12:27:05Z</time>
					</trkpt>
					<trkpt lat="48.976930" lon="2.268740">
						<ele>48</ele>
						<time>2024-05-30T12:27:10Z</time>
					</trkpt>
					<trkpt lat="48.976940" lon="2.268960">
						<ele>47</ele>
						<time>2024-05-30T12:27:12Z</time>
					</trkpt>
					<trkpt lat="48.977040" lon="2.269390">
						<ele>47</ele>
						<time>2024-05-30T12:27:18Z</time>
					</trkpt>
					<trkpt lat="48.977160" lon="2.270290">
						<ele>46</ele>
						<time>2024-05-30T12:27:28Z</time>
					</trkpt>
					<trkpt lat="48.977260" lon="2.270770">
						<ele>45</ele>
						<time>2024-05-30T12:27:34Z</time>
					</trkpt>
					<trkpt lat="48.977250" lon="2.270900">
						<ele>45</ele>
						<time>2024-05-30T12:27:36Z</time>
					</trkpt>
					<trkpt lat="48.977210" lon="2.271090">
						<ele>45</ele>
						<time>2024-05-30T12:27:38Z</time>
					</trkpt>
					<trkpt lat="48.977150" lon="2.271180">
						<ele>45</ele>
						<time>2024-05-30T12:27:40Z</time>
					</trkpt>
					<trkpt lat="48.977150" lon="2.271310">
						<ele>45</ele>
						<time>2024-05-30T12:27:41Z</time>
					</trkpt>
					<trkpt lat="48.977190" lon="2.271380">
						<ele>45</ele>
						<time>2024-05-30T12:27:42Z</time>
					</trkpt>
					<trkpt lat="48.977260" lon="2.271400">
						<ele>45</ele>
						<time>2024-05-30T12:27:44Z</time>
					</trkpt>
					<trkpt lat="48.977310" lon="2.271370">
						<ele>45</ele>
						<time>2024-05-30T12:27:45Z</time>
					</trkpt>
					<trkpt lat="48.977480" lon="2.271380">
						<ele>45</ele>
						<time>2024-05-30T12:27:48Z</time>
					</trkpt>
					<trkpt lat="48.977620" lon="2.271350">
						<ele>45</ele>
						<time>2024-05-30T12:27:50Z</time>
					</trkpt>
					<trkpt lat="48.978430" lon="2.270980">
						<ele>46</ele>
						<time>2024-05-30T12:28:05Z</time>
					</trkpt>
					<trkpt lat="48.978900" lon="2.270810">
						<ele>45</ele>
						<time>2024-05-30T12:28:14Z</time>
					</trkpt>
					<trkpt lat="48.979650" lon="2.270410">
						<ele>46</ele>
						<time>2024-05-30T12:28:28Z</time>
					</trkpt>
					<trkpt lat="48.979880" lon="2.270390">
						<ele>46</ele>
						<time>2024-05-30T12:28:32Z</time>
					</trkpt>
					<trkpt lat="48.979880" lon="2.270430">
						<ele>46</ele>
						<time>2024-05-30T12:28:32Z</time>
					</trkpt>
					<trkpt lat="48.979930" lon="2.270500">
						<ele>45</ele>
						<time>2024-05-30T12:28:34Z</time>
					</trkpt>
					<trkpt lat="48.980130" lon="2.270520">
						<ele>46</ele>
						<time>2024-05-30T12:28:37Z</time>
					</trkpt>
					<trkpt lat="48.980170" lon="2.270500">
						<ele>46</ele>
						<time>2024-05-30T12:28:38Z</time>
					</trkpt>
					<trkpt lat="48.980190" lon="2.270460">
						<ele>46</ele>
						<time>2024-05-30T12:28:39Z</time>
					</trkpt>
					<trkpt lat="48.980270" lon="2.270450">
						<ele>46</ele>
						<time>2024-05-30T12:28:40Z</time>
					</trkpt>
					<trkpt lat="48.980560" lon="2.270470">
						<ele>46</ele>
						<time>2024-05-30T12:28:45Z</time>
					</trkpt>
					<trkpt lat="48.980990" lon="2.270610">
						<ele>47</ele>
						<time>2024-05-30T12:28:53Z</time>
					</trkpt>
					<trkpt lat="48.981350" lon="2.270830">
						<ele>48</ele>
						<time>2024-05-30T12:29:00Z</time>
					</trkpt>
					<trkpt lat="48.981700" lon="2.271020">
						<ele>49</ele>
						<time>2024-05-30T12:29:06Z</time>
					</trkpt>
					<trkpt lat="48.982330" lon="2.271450">
						<ele>52</ele>
						<time>2024-05-30T12:29:19Z</time>
					</trkpt>
					<trkpt lat="48.982870" lon="2.271760">
						<ele>54</ele>
						<time>2024-05-30T12:29:29Z</time>
					</trkpt>
					<trkpt lat="48.984230" lon="2.272280">
						<ele>58</ele>
						<time>2024-05-30T12:29:54Z</time>
					</trkpt>
					<trkpt lat="48.984660" lon="2.272410">
						<ele>58</ele>
						<time>2024-05-30T12:30:02Z</time>
					</trkpt>
					<trkpt lat="48.990240" lon="2.274840">
						<ele>53</ele>
						<time>2024-05-30T12:31:45Z</time>
					</trkpt>
					<trkpt lat="48.990840" lon="2.275030">
						<ele>53</ele>
						<time>2024-05-30T12:31:56Z</time>
					</trkpt>
					<trkpt lat="48.991030" lon="2.275030">
						<ele>53</ele>
						<time>2024-05-30T12:31:59Z</time>
					</trkpt>
					<trkpt lat="48.991340" lon="2.274920">
						<ele>53</ele>
						<time>2024-05-30T12:32:05Z</time>
					</trkpt>
					<trkpt lat="48.991380" lon="2.275050">
						<ele>53</ele>
						<time>2024-05-30T12:32:07Z</time>
					</trkpt>
					<trkpt lat="48.991450" lon="2.275120">
						<ele>53</ele>
						<time>2024-05-30T12:32:08Z</time>
					</trkpt>
					<trkpt lat="48.991540" lon="2.275130">
						<ele>53</ele>
						<time>2024-05-30T12:32:10Z</time>
					</trkpt>
					<trkpt lat="48.991600" lon="2.275080">
						<ele>53</ele>
						<time>2024-05-30T12:32:11Z</time>
					</trkpt>
					<trkpt lat="48.991650" lon="2.274950">
						<ele>53</ele>
						<time>2024-05-30T12:32:13Z</time>
					</trkpt>
					<trkpt lat="48.991650" lon="2.274880">
						<ele>53</ele>
						<time>2024-05-30T12:32:14Z</time>
					</trkpt>
					<trkpt lat="48.991890" lon="2.274750">
						<ele>53</ele>
						<time>2024-05-30T12:32:18Z</time>
					</trkpt>
					<trkpt lat="48.993150" lon="2.274680">
						<ele>49</ele>
						<time>2024-05-30T12:32:41Z</time>
					</trkpt>
					<trkpt lat="48.993470" lon="2.274700">
						<ele>49</ele>
						<time>2024-05-30T12:32:46Z</time>
					</trkpt>
					<trkpt lat="48.993510" lon="2.274770">
						<ele>49</ele>
						<time>2024-05-30T12:32:47Z</time>
					</trkpt>
					<trkpt lat="48.993560" lon="2.274800">
						<ele>49</ele>
						<time>2024-05-30T12:32:48Z</time>
					</trkpt>
					<trkpt lat="48.993620" lon="2.274790">
						<ele>49</ele>
						<time>2024-05-30T12:32:49Z</time>
					</trkpt>
					<trkpt lat="48.993670" lon="2.274730">
						<ele>50</ele>
						<time>2024-05-30T12:32:50Z</time>
					</trkpt>
					<trkpt lat="48.993870" lon="2.274800">
						<ele>50</ele>
						<time>2024-05-30T12:32:54Z</time>
					</trkpt>
					<trkpt lat="48.994500" lon="2.275250">
						<ele>53</ele>
						<time>2024-05-30T12:33:07Z</time>
					</trkpt>
					<trkpt lat="48.994670" lon="2.275420">
						<ele>54</ele>
						<time>2024-05-30T12:33:10Z</time>
					</trkpt>
					<trkpt lat="48.994670" lon="2.275530">
						<ele>54</ele>
						<time>2024-05-30T12:33:11Z</time>
					</trkpt>
					<trkpt lat="48.994690" lon="2.275600">
						<ele>54</ele>
						<time>2024-05-30T12:33:12Z</time>
					</trkpt>
					<trkpt lat="48.994740" lon="2.275660">
						<ele>55</ele>
						<time>2024-05-30T12:33:13Z</time>
					</trkpt>
					<trkpt lat="48.994960" lon="2.275800">
						<ele>56</ele>
						<time>2024-05-30T12:33:18Z</time>
					</trkpt>
					<trkpt lat="48.995060" lon="2.275750">
						<ele>56</ele>
						<time>2024-05-30T12:33:20Z</time>
					</trkpt>
					<trkpt lat="48.995160" lon="2.275780">
						<ele>57</ele>
						<time>2024-05-30T12:33:21Z</time>
					</trkpt>
					<trkpt lat="48.995190" lon="2.275760">
						<ele>57</ele>
						<time>2024-05-30T12:33:22Z</time>
					</trkpt>
					<trkpt lat="48.995630" lon="2.276110">
						<ele>58</ele>
						<time>2024-05-30T12:33:31Z</time>
					</trkpt>
					<trkpt lat="48.996080" lon="2.276380">
						<ele>59</ele>
						<time>2024-05-30T12:33:39Z</time>
					</trkpt>
					<trkpt lat="48.997320" lon="2.276960">
						<ele>59</ele>
						<time>2024-05-30T12:34:02Z</time>
					</trkpt>
					<trkpt lat="48.997540" lon="2.277050">
						<ele>59</ele>
						<time>2024-05-30T12:34:07Z</time>
					</trkpt>
					<trkpt lat="48.998300" lon="2.277230">
						<ele>60</ele>
						<time>2024-05-30T12:34:20Z</time>
					</trkpt>
					<trkpt lat="48.999350" lon="2.277610">
						<ele>58</ele>
						<time>2024-05-30T12:34:39Z</time>
					</trkpt>
					<trkpt lat="48.999820" lon="2.277850">
						<ele>58</ele>
						<time>2024-05-30T12:34:48Z</time>
					</trkpt>
					<trkpt lat="49.000030" lon="2.278000">
						<ele>58</ele>
						<time>2024-05-30T12:34:52Z</time>
					</trkpt>
					<trkpt lat="49.000540" lon="2.278510">
						<ele>59</ele>
						<time>2024-05-30T12:35:03Z</time>
					</trkpt>
					<trkpt lat="49.001050" lon="2.279050">
						<ele>61</ele>
						<time>2024-05-30T12:35:14Z</time>
					</trkpt>
					<trkpt lat="49.002900" lon="2.280600">
						<ele>67</ele>
						<time>2024-05-30T12:35:52Z</time>
					</trkpt>
					<trkpt lat="49.003230" lon="2.280920">
						<ele>65</ele>
						<time>2024-05-30T12:35:59Z</time>
					</trkpt>
					<trkpt lat="49.003340" lon="2.281080">
						<ele>64</ele>
						<time>2024-05-30T12:36:01Z</time>
					</trkpt>
					<trkpt lat="49.003380" lon="2.281230">
						<ele>64</ele>
						<time>2024-05-30T12:36:03Z</time>
					</trkpt>
					<trkpt lat="49.003380" lon="2.281340">
						<ele>64</ele>
						<time>2024-05-30T12:36:05Z</time>
					</trkpt>
					<trkpt lat="49.003420" lon="2.281430">
						<ele>64</ele>
						<time>2024-05-30T12:36:06Z</time>
					</trkpt>
					<trkpt lat="49.003480" lon="2.281480">
						<ele>64</ele>
						<time>2024-05-30T12:36:07Z</time>
					</trkpt>
					<trkpt lat="49.003550" lon="2.281480">
						<ele>64</ele>
						<time>2024-05-30T12:36:08Z</time>
					</trkpt>
					<trkpt lat="49.003600" lon="2.281430">
						<ele>64</ele>
						<time>2024-05-30T12:36:09Z</time>
					</trkpt>
					<trkpt lat="49.003710" lon="2.281410">
						<ele>65</ele>
						<time>2024-05-30T12:36:11Z</time>
					</trkpt>
					<trkpt lat="49.003830" lon="2.281440">
						<ele>65</ele>
						<time>2024-05-30T12:36:14Z</time>
					</trkpt>
					<trkpt lat="49.004200" lon="2.281680">
						<ele>66</ele>
						<time>2024-05-30T12:36:21Z</time>
					</trkpt>
					<trkpt lat="49.004300" lon="2.281790">
						<ele>66</ele>
						<time>2024-05-30T12:36:23Z</time>
					</trkpt>
					<trkpt lat="49.005300" lon="2.282530">
						<ele>67</ele>
						<time>2024-05-30T12:36:43Z</time>
					</trkpt>
					<trkpt lat="49.005930" lon="2.282950">
						<ele>68</ele>
						<time>2024-05-30T12:36:55Z</time>
					</trkpt>
					<trkpt lat="49.006200" lon="2.283160">
						<ele>68</ele>
						<time>2024-05-30T12:37:00Z</time>
					</trkpt>
					<trkpt lat="49.006310" lon="2.283330">
						<ele>68</ele>
						<time>2024-05-30T12:37:03Z</time>
					</trkpt>
					<trkpt lat="49.006560" lon="2.284120">
						<ele>68</ele>
						<time>2024-05-30T12:37:13Z</time>
					</trkpt>
					<trkpt lat="49.006620" lon="2.284240">
						<ele>68</ele>
						<time>2024-05-30T12:37:15Z</time>
					</trkpt>
					<trkpt lat="49.006670" lon="2.284290">
						<ele>68</ele>
						<time>2024-05-30T12:37:16Z</time>
					</trkpt>
					<trkpt lat="49.007770" lon="2.284610">
						<ele>71</ele>
						<time>2024-05-30T12:37:36Z</time>
					</trkpt>
					<trkpt lat="49.008000" lon="2.284660">
						<ele>71</ele>
						<time>2024-05-30T12:37:40Z</time>
					</trkpt>
					<trkpt lat="49.008530" lon="2.284660">
						<ele>72</ele>
						<time>2024-05-30T12:37:50Z</time>
					</trkpt>
					<trkpt lat="49.008930" lon="2.284720">
						<ele>73</ele>
						<time>2024-05-30T12:37:57Z</time>
					</trkpt>
					<trkpt lat="49.009000" lon="2.284750">
						<ele>73</ele>
						<time>2024-05-30T12:37:58Z</time>
					</trkpt>
					<trkpt lat="49.010240" lon="2.285150">
						<ele>78</ele>
						<time>2024-05-30T12:38:21Z</time>
					</trkpt>
					<trkpt lat="49.010590" lon="2.285220">
						<ele>78</ele>
						<time>2024-05-30T12:38:27Z</time>
					</trkpt>
					<trkpt lat="49.010870" lon="2.285390">
						<ele>78</ele>
						<time>2024-05-30T12:38:32Z</time>
					</trkpt>
					<trkpt lat="49.011260" lon="2.285560">
						<ele>79</ele>
						<time>2024-05-30T12:38:40Z</time>
					</trkpt>
					<trkpt lat="49.011650" lon="2.285700">
						<ele>80</ele>
						<time>2024-05-30T12:38:47Z</time>
					</trkpt>
					<trkpt lat="49.012210" lon="2.285850">
						<ele>81</ele>
						<time>2024-05-30T12:38:57Z</time>
					</trkpt>
					<trkpt lat="49.012790" lon="2.286130">
						<ele>81</ele>
						<time>2024-05-30T12:39:08Z</time>
					</trkpt>
					<trkpt lat="49.013310" lon="2.286300">
						<ele>80</ele>
						<time>2024-05-30T12:39:17Z</time>
					</trkpt>
					<trkpt lat="49.013690" lon="2.286370">
						<ele>80</ele>
						<time>2024-05-30T12:39:24Z</time>
					</trkpt>
					<trkpt lat="49.013860" lon="2.286430">
						<ele>80</ele>
						<time>2024-05-30T12:39:27Z</time>
					</trkpt>
					<trkpt lat="49.014000" lon="2.286520">
						<ele>80</ele>
						<time>2024-05-30T12:39:30Z</time>
					</trkpt>
					<trkpt lat="49.014110" lon="2.286620">
						<ele>79</ele>
						<time>2024-05-30T12:39:32Z</time>
					</trkpt>
					<trkpt lat="49.014110" lon="2.286740">
						<ele>79</ele>
						<time>2024-05-30T12:39:33Z</time>
					</trkpt>
					<trkpt lat="49.014140" lon="2.286790">
						<ele>79</ele>
						<time>2024-05-30T12:39:34Z</time>
					</trkpt>
					<trkpt lat="49.014200" lon="2.286820">
						<ele>79</ele>
						<time>2024-05-30T12:39:35Z</time>
					</trkpt>
					<trkpt lat="49.014360" lon="2.286990">
						<ele>80</ele>
						<time>2024-05-30T12:39:39Z</time>
					</trkpt>
					<trkpt lat="49.015120" lon="2.287930">
						<ele>82</ele>
						<time>2024-05-30T12:39:56Z</time>
					</trkpt>
					<trkpt lat="49.015430" lon="2.288210">
						<ele>84</ele>
						<time>2024-05-30T12:40:03Z</time>
					</trkpt>
					<trkpt lat="49.016420" lon="2.288900">
						<ele>86</ele>
						<time>2024-05-30T12:40:22Z</time>
					</trkpt>
					<trkpt lat="49.016850" lon="2.289110">
						<ele>86</ele>
						<time>2024-05-30T12:40:30Z</time>
					</trkpt>
					<trkpt lat="49.017440" lon="2.289350">
						<ele>87</ele>
						<time>2024-05-30T12:40:41Z</time>
					</trkpt>
					<trkpt lat="49.017570" lon="2.289430">
						<ele>87</ele>
						<time>2024-05-30T12:40:43Z</time>
					</trkpt>
					<trkpt lat="49.017730" lon="2.289600">
						<ele>87</ele>
						<time>2024-05-30T12:40:47Z</time>
					</trkpt>
					<trkpt lat="49.018180" lon="2.290360">
						<ele>89</ele>
						<time>2024-05-30T12:40:59Z</time>
					</trkpt>
					<trkpt lat="49.018520" lon="2.290820">
						<ele>91</ele>
						<time>2024-05-30T12:41:07Z</time>
					</trkpt>
					<trkpt lat="49.018790" lon="2.291080">
						<ele>94</ele>
						<time>2024-05-30T12:41:13Z</time>
					</trkpt>
					<trkpt lat="49.019110" lon="2.291340">
						<ele>95</ele>
						<time>2024-05-30T12:41:19Z</time>
					</trkpt>
					<trkpt lat="49.019950" lon="2.291800">
						<ele>97</ele>
						<time>2024-05-30T12:41:35Z</time>
					</trkpt>
					<trkpt lat="49.020510" lon="2.291950">
						<ele>99</ele>
						<time>2024-05-30T12:41:45Z</time>
					</trkpt>
					<trkpt lat="49.020720" lon="2.292060">
						<ele>99</ele>
						<time>2024-05-30T12:41:49Z</time>
					</trkpt>
					<trkpt lat="49.020890" lon="2.292250">
						<ele>100</ele>
						<time>2024-05-30T12:41:53Z</time>
					</trkpt>
					<trkpt lat="49.021070" lon="2.292550">
						<ele>100</ele>
						<time>2024-05-30T12:41:57Z</time>
					</trkpt>
					<trkpt lat="49.021140" lon="2.292740">
						<ele>100</ele>
						<time>2024-05-30T12:42:00Z</time>
					</trkpt>
					<trkpt lat="49.021390" lon="2.293550">
						<ele>100</ele>
						<time>2024-05-30T12:42:10Z</time>
					</trkpt>
					<trkpt lat="49.021500" lon="2.293800">
						<ele>101</ele>
						<time>2024-05-30T12:42:14Z</time>
					</trkpt>
					<trkpt lat="49.021640" lon="2.294000">
						<ele>101</ele>
						<time>2024-05-30T12:42:17Z</time>
					</trkpt>
					<trkpt lat="49.022020" lon="2.294420">
						<ele>102</ele>
						<time>2024-05-30T12:42:26Z</time>
					</trkpt>
					<trkpt lat="49.022620" lon="2.295060">
						<ele>103</ele>
						<time>2024-05-30T12:42:39Z</time>
					</trkpt>
					<trkpt lat="49.024360" lon="2.296550">
						<ele>101</ele>
						<time>2024-05-30T12:43:14Z</time>
					</trkpt>
					<trkpt lat="49.024580" lon="2.296790">
						<ele>102</ele>
						<time>2024-05-30T12:43:19Z</time>
					</trkpt>
					<trkpt lat="49.024850" lon="2.297170">
						<ele>103</ele>
						<time>2024-05-30T12:43:26Z</time>
					</trkpt>
					<trkpt lat="49.025030" lon="2.297510">
						<ele>103</ele>
						<time>2024-05-30T12:43:31Z</time>
					</trkpt>
					<trkpt lat="49.025260" lon="2.298190">
						<ele>106</ele>
						<time>2024-05-30T12:43:40Z</time>
					</trkpt>
					<trkpt lat="49.025390" lon="2.298800">
						<ele>107</ele>
						<time>2024-05-30T12:43:47Z</time>
					</trkpt>
					<trkpt lat="49.025410" lon="2.299180">
						<ele>107</ele>
						<time>2024-05-30T12:43:52Z</time>
					</trkpt>
					<trkpt lat="49.025400" lon="2.299710">
						<ele>108</ele>
						<time>2024-05-30T12:43:58Z</time>
					</trkpt>
					<trkpt lat="49.025130" lon="2.303380">
						<ele>122</ele>
						<time>2024-05-30T12:44:41Z</time>
					</trkpt>
					<trkpt lat="49.025150" lon="2.303710">
						<ele>123</ele>
						<time>2024-05-30T12:44:45Z</time>
					</trkpt>
					<trkpt lat="49.025860" lon="2.310030">
						<ele>143</ele>
						<time>2024-05-30T12:45:59Z</time>
					</trkpt>
					<trkpt lat="49.025910" lon="2.310630">
						<ele>144</ele>
						<time>2024-05-30T12:46:07Z</time>
					</trkpt>
					<trkpt lat="49.025960" lon="2.310900">
						<ele>145</ele>
						<time>2024-05-30T12:46:10Z</time>
					</trkpt>
					<trkpt lat="49.026010" lon="2.311060">
						<ele>146</ele>
						<time>2024-05-30T12:46:12Z</time>
					</trkpt>
					<trkpt lat="49.026180" lon="2.311460">
						<ele>148</ele>
						<time>2024-05-30T12:46:17Z</time>
					</trkpt>
					<trkpt lat="49.026310" lon="2.311620">
						<ele>149</ele>
						<time>2024-05-30T12:46:20Z</time>
					</trkpt>
					<trkpt lat="49.026440" lon="2.311750">
						<ele>150</ele>
						<time>2024-05-30T12:46:23Z</time>
					</trkpt>
					<trkpt lat="49.026610" lon="2.311860">
						<ele>151</ele>
						<time>2024-05-30T12:46:26Z</time>
					</trkpt>
					<trkpt lat="49.026860" lon="2.311950">
						<ele>152</ele>
						<time>2024-05-30T12:46:31Z</time>
					</trkpt>
					<trkpt lat="49.027140" lon="2.311990">
						<ele>153</ele>
						<time>2024-05-30T12:46:36Z</time>
					</trkpt>
					<trkpt lat="49.027380" lon="2.311980">
						<ele>153</ele>
						<time>2024-05-30T12:46:40Z</time>
					</trkpt>
					<trkpt lat="49.027520" lon="2.311940">
						<ele>154</ele>
						<time>2024-05-30T12:46:43Z</time>
					</trkpt>
					<trkpt lat="49.027730" lon="2.311820">
						<ele>154</ele>
						<time>2024-05-30T12:46:47Z</time>
					</trkpt>
					<trkpt lat="49.027870" lon="2.311710">
						<ele>154</ele>
						<time>2024-05-30T12:46:50Z</time>
					</trkpt>
					<trkpt lat="49.028100" lon="2.311420">
						<ele>156</ele>
						<time>2024-05-30T12:46:55Z</time>
					</trkpt>
					<trkpt lat="49.028200" lon="2.311230">
						<ele>156</ele>
						<time>2024-05-30T12:46:58Z</time>
					</trkpt>
					<trkpt lat="49.028480" lon="2.310550">
						<ele>157</ele>
						<time>2024-05-30T12:47:07Z</time>
					</trkpt>
					<trkpt lat="49.028640" lon="2.310300">
						<ele>158</ele>
						<time>2024-05-30T12:47:11Z</time>
					</trkpt>
					<trkpt lat="49.028820" lon="2.310130">
						<ele>158</ele>
						<time>2024-05-30T12:47:15Z</time>
					</trkpt>
					<trkpt lat="49.029170" lon="2.309830">
						<ele>158</ele>
						<time>2024-05-30T12:47:22Z</time>
					</trkpt>
					<trkpt lat="49.029580" lon="2.309300">
						<ele>159</ele>
						<time>2024-05-30T12:47:32Z</time>
					</trkpt>
					<trkpt lat="49.030530" lon="2.308270">
						<ele>156</ele>
						<time>2024-05-30T12:47:52Z</time>
					</trkpt>
					<trkpt lat="49.030680" lon="2.308190">
						<ele>156</ele>
						<time>2024-05-30T12:47:55Z</time>
					</trkpt>
					<trkpt lat="49.030870" lon="2.308160">
						<ele>155</ele>
						<time>2024-05-30T12:47:59Z</time>
					</trkpt>
					<trkpt lat="49.031070" lon="2.308170">
						<ele>155</ele>
						<time>2024-05-30T12:48:02Z</time>
					</trkpt>
					<trkpt lat="49.031200" lon="2.308220">
						<ele>154</ele>
						<time>2024-05-30T12:48:05Z</time>
					</trkpt>
					<trkpt lat="49.031360" lon="2.308330">
						<ele>153</ele>
						<time>2024-05-30T12:48:08Z</time>
					</trkpt>
					<trkpt lat="49.031520" lon="2.308470">
						<ele>153</ele>
						<time>2024-05-30T12:48:11Z</time>
					</trkpt>
					<trkpt lat="49.032450" lon="2.309900">
						<ele>146</ele>
						<time>2024-05-30T12:48:34Z</time>
					</trkpt>
					<trkpt lat="49.032710" lon="2.310200">
						<ele>143</ele>
						<time>2024-05-30T12:48:40Z</time>
					</trkpt>
					<trkpt lat="49.033090" lon="2.310580">
						<ele>138</ele>
						<time>2024-05-30T12:48:48Z</time>
					</trkpt>
					<trkpt lat="49.033220" lon="2.310670">
						<ele>136</ele>
						<time>2024-05-30T12:48:51Z</time>
					</trkpt>
					<trkpt lat="49.033670" lon="2.310930">
						<ele>131</ele>
						<time>2024-05-30T12:48:59Z</time>
					</trkpt>
					<trkpt lat="49.036890" lon="2.311960">
						<ele>116</ele>
						<time>2024-05-30T12:49:58Z</time>
					</trkpt>
					<trkpt lat="49.037150" lon="2.312060">
						<ele>115</ele>
						<time>2024-05-30T12:50:03Z</time>
					</trkpt>
					<trkpt lat="49.037420" lon="2.312230">
						<ele>114</ele>
						<time>2024-05-30T12:50:08Z</time>
					</trkpt>
					<trkpt lat="49.038510" lon="2.313920">
						<ele>110</ele>
						<time>2024-05-30T12:50:36Z</time>
					</trkpt>
					<trkpt lat="49.038530" lon="2.314000">
						<ele>110</ele>
						<time>2024-05-30T12:50:37Z</time>
					</trkpt>
					<trkpt lat="49.040490" lon="2.317130">
						<ele>109</ele>
						<time>2024-05-30T12:51:27Z</time>
					</trkpt>
					<trkpt lat="49.040580" lon="2.317290">
						<ele>109</ele>
						<time>2024-05-30T12:51:30Z</time>
					</trkpt>
					<trkpt lat="49.040680" lon="2.317550">
						<ele>108</ele>
						<time>2024-05-30T12:51:33Z</time>
					</trkpt>
					<trkpt lat="49.041070" lon="2.318760">
						<ele>106</ele>
						<time>2024-05-30T12:51:49Z</time>
					</trkpt>
					<trkpt lat="49.041210" lon="2.319080">
						<ele>105</ele>
						<time>2024-05-30T12:51:53Z</time>
					</trkpt>
					<trkpt lat="49.041340" lon="2.319310">
						<ele>105</ele>
						<time>2024-05-30T12:51:57Z</time>
					</trkpt>
					<trkpt lat="49.041530" lon="2.319580">
						<ele>104</ele>
						<time>2024-05-30T12:52:01Z</time>
					</trkpt>
					<trkpt lat="49.041880" lon="2.320000">
						<ele>103</ele>
						<time>2024-05-30T12:52:09Z</time>
					</trkpt>
					<trkpt lat="49.042030" lon="2.320080">
						<ele>103</ele>
						<time>2024-05-30T12:52:12Z</time>
					</trkpt>
					<trkpt lat="49.042200" lon="2.320300">
						<ele>102</ele>
						<time>2024-05-30T12:52:16Z</time>
					</trkpt>
					<trkpt lat="49.042890" lon="2.321230">
						<ele>101</ele>
						<time>2024-05-30T12:52:33Z</time>
					</trkpt>
					<trkpt lat="49.043030" lon="2.321460">
						<ele>101</ele>
						<time>2024-05-30T12:52:36Z</time>
					</trkpt>
					<trkpt lat="49.043450" lon="2.322480">
						<ele>99</ele>
						<time>2024-05-30T12:52:50Z</time>
					</trkpt>
					<trkpt lat="49.043820" lon="2.323670">
						<ele>99</ele>
						<time>2024-05-30T12:53:06Z</time>
					</trkpt>
					<trkpt lat="49.044000" lon="2.324040">
						<ele>98</ele>
						<time>2024-05-30T12:53:11Z</time>
					</trkpt>
					<trkpt lat="49.044180" lon="2.324460">
						<ele>97</ele>
						<time>2024-05-30T12:53:17Z</time>
					</trkpt>
					<trkpt lat="49.044400" lon="2.325020">
						<ele>97</ele>
						<time>2024-05-30T12:53:24Z</time>
					</trkpt>
					<trkpt lat="49.045220" lon="2.327620">
						<ele>94</ele>
						<time>2024-05-30T12:53:58Z</time>
					</trkpt>
					<trkpt lat="49.045670" lon="2.328780">
						<ele>93</ele>
						<time>2024-05-30T12:54:14Z</time>
					</trkpt>
					<trkpt lat="49.045760" lon="2.329050">
						<ele>92</ele>
						<time>2024-05-30T12:54:17Z</time>
					</trkpt>
					<trkpt lat="49.045870" lon="2.329300">
						<ele>91</ele>
						<time>2024-05-30T12:54:21Z</time>
					</trkpt>
					<trkpt lat="49.045990" lon="2.329470">
						<ele>92</ele>
						<time>2024-05-30T12:54:24Z</time>
					</trkpt>
					<trkpt lat="49.046350" lon="2.330320">
						<ele>92</ele>
						<time>2024-05-30T12:54:36Z</time>
					</trkpt>
					<trkpt lat="49.046460" lon="2.330570">
						<ele>92</ele>
						<time>2024-05-30T12:54:39Z</time>
					</trkpt>
					<trkpt lat="49.047150" lon="2.331570">
						<ele>90</ele>
						<time>2024-05-30T12:54:56Z</time>
					</trkpt>
					<trkpt lat="49.047220" lon="2.331710">
						<ele>90</ele>
						<time>2024-05-30T12:54:58Z</time>
					</trkpt>
					<trkpt lat="49.047240" lon="2.331810">
						<ele>90</ele>
						<time>2024-05-30T12:54:59Z</time>
					</trkpt>
					<trkpt lat="49.047240" lon="2.331920">
						<ele>90</ele>
						<time>2024-05-30T12:55:01Z</time>
					</trkpt>
					<trkpt lat="49.047390" lon="2.332040">
						<ele>89</ele>
						<time>2024-05-30T12:55:04Z</time>
					</trkpt>
					<trkpt lat="49.047440" lon="2.332040">
						<ele>89</ele>
						<time>2024-05-30T12:55:05Z</time>
					</trkpt>
					<trkpt lat="49.047610" lon="2.332130">
						<ele>88</ele>
						<time>2024-05-30T12:55:08Z</time>
					</trkpt>
					<trkpt lat="49.047760" lon="2.332270">
						<ele>88</ele>
						<time>2024-05-30T12:55:11Z</time>
					</trkpt>
					<trkpt lat="49.048310" lon="2.333110">
						<ele>85</ele>
						<time>2024-05-30T12:55:25Z</time>
					</trkpt>
					<trkpt lat="49.048430" lon="2.333240">
						<ele>85</ele>
						<time>2024-05-30T12:55:27Z</time>
					</trkpt>
					<trkpt lat="49.048460" lon="2.333350">
						<ele>85</ele>
						<time>2024-05-30T12:55:29Z</time>
					</trkpt>
					<trkpt lat="49.048530" lon="2.333400">
						<ele>85</ele>
						<time>2024-05-30T12:55:30Z</time>
					</trkpt>
					<trkpt lat="49.048840" lon="2.333780">
						<ele>86</ele>
						<time>2024-05-30T12:55:37Z</time>
					</trkpt>
					<trkpt lat="49.049260" lon="2.334240">
						<ele>86</ele>
						<time>2024-05-30T12:55:46Z</time>
					</trkpt>
					<trkpt lat="49.048370" lon="2.335470">
						<ele>85</ele>
						<time>2024-05-30T12:56:08Z</time>
					</trkpt>
					<trkpt lat="49.048260" lon="2.335670">
						<ele>85</ele>
						<time>2024-05-30T12:56:11Z</time>
					</trkpt>
					<trkpt lat="49.048110" lon="2.336220">
						<ele>86</ele>
						<time>2024-05-30T12:56:18Z</time>
					</trkpt>
					<trkpt lat="49.048090" lon="2.336350">
						<ele>86</ele>
						<time>2024-05-30T12:56:19Z</time>
					</trkpt>
					<trkpt lat="49.048110" lon="2.336460">
						<ele>86</ele>
						<time>2024-05-30T12:56:21Z</time>
					</trkpt>
					<trkpt lat="49.049730" lon="2.335660">
						<ele>92</ele>
						<time>2024-05-30T12:56:51Z</time>
					</trkpt>
					<trkpt lat="49.050210" lon="2.335510">
						<ele>94</ele>
						<time>2024-05-30T12:57:00Z</time>
					</trkpt>
					<trkpt lat="49.050270" lon="2.335650">
						<ele>95</ele>
						<time>2024-05-30T12:57:02Z</time>
					</trkpt>
					<trkpt lat="49.050410" lon="2.336370">
						<ele>96</ele>
						<time>2024-05-30T12:57:10Z</time>
					</trkpt>
					<trkpt lat="49.050530" lon="2.336860">
						<ele>97</ele>
						<time>2024-05-30T12:57:16Z</time>
					</trkpt>
					<trkpt lat="49.051030" lon="2.337860">
						<ele>98</ele>
						<time>2024-05-30T12:57:31Z</time>
					</trkpt>
					<trkpt lat="49.051590" lon="2.338860">
						<ele>99</ele>
						<time>2024-05-30T12:57:46Z</time>
					</trkpt>
					<trkpt lat="49.051680" lon="2.338990">
						<ele>99</ele>
						<time>2024-05-30T12:57:49Z</time>
					</trkpt>
					<trkpt lat="49.054730" lon="2.341960">
						<ele>98</ele>
						<time>2024-05-30T12:58:53Z</time>
					</trkpt>
					<trkpt lat="49.054930" lon="2.342160">
						<ele>97</ele>
						<time>2024-05-30T12:58:57Z</time>
					</trkpt>
					<trkpt lat="49.055300" lon="2.342450">
						<ele>98</ele>
						<time>2024-05-30T12:59:05Z</time>
					</trkpt>
					<trkpt lat="49.055450" lon="2.342560">
						<ele>98</ele>
						<time>2024-05-30T12:59:08Z</time>
					</trkpt>
					<trkpt lat="49.056280" lon="2.343070">
						<ele>97</ele>
						<time>2024-05-30T12:59:24Z</time>
					</trkpt>
					<trkpt lat="49.056340" lon="2.343160">
						<ele>97</ele>
						<time>2024-05-30T12:59:25Z</time>
					</trkpt>
					<trkpt lat="49.056410" lon="2.343300">
						<ele>97</ele>
						<time>2024-05-30T12:59:27Z</time>
					</trkpt>
					<trkpt lat="49.056790" lon="2.344850">
						<ele>96</ele>
						<time>2024-05-30T12:59:46Z</time>
					</trkpt>
					<trkpt lat="49.056880" lon="2.345010">
						<ele>97</ele>
						<time>2024-05-30T12:59:49Z</time>
					</trkpt>
					<trkpt lat="49.056980" lon="2.345080">
						<ele>96</ele>
						<time>2024-05-30T12:59:51Z</time>
					</trkpt>
					<trkpt lat="49.057320" lon="2.345610">
						<ele>97</ele>
						<time>2024-05-30T12:59:59Z</time>
					</trkpt>
					<trkpt lat="49.057450" lon="2.345900">
						<ele>98</ele>
						<time>2024-05-30T13:00:04Z</time>
					</trkpt>
					<trkpt lat="49.057500" lon="2.346150">
						<ele>100</ele>
						<time>2024-05-30T13:00:07Z</time>
					</trkpt>
					<trkpt lat="49.057550" lon="2.346270">
						<ele>100</ele>
						<time>2024-05-30T13:00:08Z</time>
					</trkpt>
					<trkpt lat="49.057710" lon="2.346530">
						<ele>102</ele>
						<time>2024-05-30T13:00:12Z</time>
					</trkpt>
					<trkpt lat="49.058020" lon="2.346940">
						<ele>104</ele>
						<time>2024-05-30T13:00:20Z</time>
					</trkpt>
					<trkpt lat="49.058180" lon="2.347670">
						<ele>108</ele>
						<time>2024-05-30T13:00:29Z</time>
					</trkpt>
					<trkpt lat="49.058240" lon="2.348100">
						<ele>108</ele>
						<time>2024-05-30T13:00:34Z</time>
					</trkpt>
					<trkpt lat="49.058280" lon="2.349300">
						<ele>108</ele>
						<time>2024-05-30T13:00:48Z</time>
					</trkpt>
					<trkpt lat="49.058380" lon="2.350250">
						<ele>108</ele>
						<time>2024-05-30T13:00:59Z</time>
					</trkpt>
					<trkpt lat="49.058810" lon="2.351820">
						<ele>107</ele>
						<time>2024-05-30T13:01:19Z</time>
					</trkpt>
					<trkpt lat="49.059110" lon="2.352740">
						<ele>108</ele>
						<time>2024-05-30T13:01:31Z</time>
					</trkpt>
					<trkpt lat="49.059040" lon="2.352920">
						<ele>108</ele>
						<time>2024-05-30T13:01:33Z</time>
					</trkpt>
					<trkpt lat="49.059010" lon="2.353080">
						<ele>108</ele>
						<time>2024-05-30T13:01:35Z</time>
					</trkpt>
					<trkpt lat="49.059120" lon="2.355800">
						<ele>111</ele>
						<time>2024-05-30T13:02:07Z</time>
					</trkpt>
					<trkpt lat="49.059160" lon="2.357150">
						<ele>113</ele>
						<time>2024-05-30T13:02:23Z</time>
					</trkpt>
					<trkpt lat="49.059120" lon="2.358700">
						<ele>113</ele>
						<time>2024-05-30T13:02:41Z</time>
					</trkpt>
					<trkpt lat="49.059180" lon="2.360720">
						<ele>113</ele>
						<time>2024-05-30T13:03:04Z</time>
					</trkpt>
					<trkpt lat="49.059190" lon="2.362320">
						<ele>111</ele>
						<time>2024-05-30T13:03:23Z</time>
					</trkpt>
					<trkpt lat="49.059660" lon="2.365370">
						<ele>108</ele>
						<time>2024-05-30T13:04:00Z</time>
					</trkpt>
					<trkpt lat="49.059810" lon="2.366300">
						<ele>109</ele>
						<time>2024-05-30T13:04:11Z</time>
					</trkpt>
					<trkpt lat="49.060240" lon="2.368510">
						<ele>108</ele>
						<time>2024-05-30T13:04:38Z</time>
					</trkpt>
					<trkpt lat="49.060310" lon="2.368900">
						<ele>108</ele>
						<time>2024-05-30T13:04:42Z</time>
					</trkpt>
					<trkpt lat="49.060350" lon="2.369710">
						<ele>109</ele>
						<time>2024-05-30T13:04:52Z</time>
					</trkpt>
					<trkpt lat="49.060310" lon="2.370640">
						<ele>113</ele>
						<time>2024-05-30T13:05:03Z</time>
					</trkpt>
					<trkpt lat="49.060340" lon="2.373910">
						<ele>117</ele>
						<time>2024-05-30T13:05:41Z</time>
					</trkpt>
					<trkpt lat="49.060370" lon="2.374910">
						<ele>117</ele>
						<time>2024-05-30T13:05:53Z</time>
					</trkpt>
					<trkpt lat="49.060810" lon="2.377280">
						<ele>117</ele>
						<time>2024-05-30T13:06:21Z</time>
					</trkpt>
					<trkpt lat="49.061090" lon="2.378640">
						<ele>118</ele>
						<time>2024-05-30T13:06:38Z</time>
					</trkpt>
					<trkpt lat="49.061110" lon="2.379340">
						<ele>118</ele>
						<time>2024-05-30T13:06:46Z</time>
					</trkpt>
					<trkpt lat="49.061040" lon="2.380970">
						<ele>118</ele>
						<time>2024-05-30T13:07:05Z</time>
					</trkpt>
					<trkpt lat="49.060800" lon="2.382570">
						<ele>118</ele>
						<time>2024-05-30T13:07:24Z</time>
					</trkpt>
					<trkpt lat="49.060670" lon="2.383670">
						<ele>117</ele>
						<time>2024-05-30T13:07:37Z</time>
					</trkpt>
					<trkpt lat="49.062630" lon="2.384490">
						<ele>120</ele>
						<time>2024-05-30T13:08:13Z</time>
					</trkpt>
					<trkpt lat="49.063850" lon="2.385000">
						<ele>121</ele>
						<time>2024-05-30T13:08:36Z</time>
					</trkpt>
					<trkpt lat="49.065730" lon="2.385550">
						<ele>119</ele>
						<time>2024-05-30T13:09:10Z</time>
					</trkpt>
					<trkpt lat="49.066820" lon="2.385930">
						<ele>121</ele>
						<time>2024-05-30T13:09:30Z</time>
					</trkpt>
					<trkpt lat="49.067250" lon="2.386250">
						<ele>121</ele>
						<time>2024-05-30T13:09:38Z</time>
					</trkpt>
					<trkpt lat="49.067670" lon="2.386410">
						<ele>122</ele>
						<time>2024-05-30T13:09:46Z</time>
					</trkpt>
					<trkpt lat="49.068820" lon="2.386340">
						<ele>126</ele>
						<time>2024-05-30T13:10:07Z</time>
					</trkpt>
					<trkpt lat="49.069060" lon="2.386380">
						<ele>126</ele>
						<time>2024-05-30T13:10:11Z</time>
					</trkpt>
					<trkpt lat="49.069490" lon="2.386590">
						<ele>127</ele>
						<time>2024-05-30T13:10:19Z</time>
					</trkpt>
					<trkpt lat="49.069590" lon="2.386660">
						<ele>127</ele>
						<time>2024-05-30T13:10:21Z</time>
					</trkpt>
					<trkpt lat="49.069680" lon="2.386830">
						<ele>127</ele>
						<time>2024-05-30T13:10:23Z</time>
					</trkpt>
					<trkpt lat="49.070010" lon="2.387740">
						<ele>127</ele>
						<time>2024-05-30T13:10:36Z</time>
					</trkpt>
					<trkpt lat="49.070160" lon="2.388100">
						<ele>127</ele>
						<time>2024-05-30T13:10:41Z</time>
					</trkpt>
					<trkpt lat="49.070280" lon="2.388230">
						<ele>127</ele>
						<time>2024-05-30T13:10:43Z</time>
					</trkpt>
					<trkpt lat="49.070460" lon="2.388200">
						<ele>128</ele>
						<time>2024-05-30T13:10:46Z</time>
					</trkpt>
					<trkpt lat="49.070510" lon="2.388590">
						<ele>128</ele>
						<time>2024-05-30T13:10:51Z</time>
					</trkpt>
					<trkpt lat="49.070550" lon="2.388810">
						<ele>128</ele>
						<time>2024-05-30T13:10:54Z</time>
					</trkpt>
					<trkpt lat="49.070620" lon="2.389040">
						<ele>129</ele>
						<time>2024-05-30T13:10:57Z</time>
					</trkpt>
					<trkpt lat="49.071270" lon="2.390810">
						<ele>128</ele>
						<time>2024-05-30T13:11:20Z</time>
					</trkpt>
					<trkpt lat="49.071530" lon="2.391730">
						<ele>129</ele>
						<time>2024-05-30T13:11:32Z</time>
					</trkpt>
					<trkpt lat="49.071640" lon="2.392260">
						<ele>129</ele>
						<time>2024-05-30T13:11:38Z</time>
					</trkpt>
					<trkpt lat="49.071750" lon="2.392950">
						<ele>130</ele>
						<time>2024-05-30T13:11:47Z</time>
					</trkpt>
					<trkpt lat="49.071780" lon="2.393210">
						<ele>130</ele>
						<time>2024-05-30T13:11:50Z</time>
					</trkpt>
					<trkpt lat="49.071840" lon="2.394040">
						<ele>128</ele>
						<time>2024-05-30T13:11:59Z</time>
					</trkpt>
					<trkpt lat="49.071840" lon="2.394800">
						<ele>127</ele>
						<time>2024-05-30T13:12:08Z</time>
					</trkpt>
					<trkpt lat="49.071810" lon="2.395380">
						<ele>127</ele>
						<time>2024-05-30T13:12:15Z</time>
					</trkpt>
					<trkpt lat="49.071750" lon="2.396100">
						<ele>127</ele>
						<time>2024-05-30T13:12:24Z</time>
					</trkpt>
					<trkpt lat="49.070920" lon="2.402880">
						<ele>129</ele>
						<time>2024-05-30T13:13:44Z</time>
					</trkpt>
					<trkpt lat="49.070890" lon="2.403340">
						<ele>128</ele>
						<time>2024-05-30T13:13:49Z</time>
					</trkpt>
					<trkpt lat="49.070890" lon="2.403620">
						<ele>128</ele>
						<time>2024-05-30T13:13:53Z</time>
					</trkpt>
					<trkpt lat="49.070930" lon="2.404170">
						<ele>129</ele>
						<time>2024-05-30T13:13:59Z</time>
					</trkpt>
					<trkpt lat="49.071090" lon="2.405650">
						<ele>128</ele>
						<time>2024-05-30T13:14:17Z</time>
					</trkpt>
					<trkpt lat="49.071100" lon="2.406050">
						<ele>128</ele>
						<time>2024-05-30T13:14:21Z</time>
					</trkpt>
					<trkpt lat="49.071080" lon="2.406460">
						<ele>127</ele>
						<time>2024-05-30T13:14:26Z</time>
					</trkpt>
					<trkpt lat="49.071020" lon="2.406890">
						<ele>127</ele>
						<time>2024-05-30T13:14:31Z</time>
					</trkpt>
					<trkpt lat="49.070930" lon="2.407260">
						<ele>127</ele>
						<time>2024-05-30T13:14:36Z</time>
					</trkpt>
					<trkpt lat="49.070300" lon="2.409100">
						<ele>126</ele>
						<time>2024-05-30T13:15:00Z</time>
					</trkpt>
					<trkpt lat="49.070210" lon="2.409390">
						<ele>126</ele>
						<time>2024-05-30T13:15:04Z</time>
					</trkpt>
					<trkpt lat="49.070140" lon="2.409750">
						<ele>126</ele>
						<time>2024-05-30T13:15:08Z</time>
					</trkpt>
					<trkpt lat="49.070070" lon="2.410250">
						<ele>126</ele>
						<time>2024-05-30T13:15:14Z</time>
					</trkpt>
					<trkpt lat="49.069790" lon="2.412840">
						<ele>130</ele>
						<time>2024-05-30T13:15:45Z</time>
					</trkpt>
					<trkpt lat="49.069670" lon="2.413850">
						<ele>130</ele>
						<time>2024-05-30T13:15:57Z</time>
					</trkpt>
					<trkpt lat="49.069430" lon="2.415550">
						<ele>132</ele>
						<time>2024-05-30T13:16:17Z</time>
					</trkpt>
					<trkpt lat="49.069350" lon="2.415930">
						<ele>132</ele>
						<time>2024-05-30T13:16:22Z</time>
					</trkpt>
					<trkpt lat="49.069240" lon="2.416300">
						<ele>132</ele>
						<time>2024-05-30T13:16:26Z</time>
					</trkpt>
					<trkpt lat="49.069140" lon="2.416560">
						<ele>131</ele>
						<time>2024-05-30T13:16:30Z</time>
					</trkpt>
					<trkpt lat="49.068920" lon="2.417060">
						<ele>131</ele>
						<time>2024-05-30T13:16:37Z</time>
					</trkpt>
					<trkpt lat="49.068550" lon="2.417770">
						<ele>132</ele>
						<time>2024-05-30T13:16:47Z</time>
					</trkpt>
					<trkpt lat="49.068160" lon="2.418430">
						<ele>133</ele>
						<time>2024-05-30T13:16:58Z</time>
					</trkpt>
					<trkpt lat="49.067990" lon="2.418800">
						<ele>134</ele>
						<time>2024-05-30T13:17:03Z</time>
					</trkpt>
					<trkpt lat="49.067860" lon="2.419130">
						<ele>135</ele>
						<time>2024-05-30T13:17:07Z</time>
					</trkpt>
					<trkpt lat="49.067720" lon="2.419590">
						<ele>136</ele>
						<time>2024-05-30T13:17:13Z</time>
					</trkpt>
					<trkpt lat="49.067620" lon="2.420050">
						<ele>138</ele>
						<time>2024-05-30T13:17:19Z</time>
					</trkpt>
					<trkpt lat="49.066950" lon="2.424280">
						<ele>138</ele>
						<time>2024-05-30T13:18:10Z</time>
					</trkpt>
					<trkpt lat="49.066920" lon="2.424600">
						<ele>138</ele>
						<time>2024-05-30T13:18:14Z</time>
					</trkpt>
					<trkpt lat="49.066920" lon="2.425400">
						<ele>139</ele>
						<time>2024-05-30T13:18:23Z</time>
					</trkpt>
					<trkpt lat="49.066880" lon="2.425880">
						<ele>139</ele>
						<time>2024-05-30T13:18:29Z</time>
					</trkpt>
					<trkpt lat="49.066310" lon="2.428880">
						<ele>136</ele>
						<time>2024-05-30T13:19:05Z</time>
					</trkpt>
					<trkpt lat="49.066080" lon="2.429900">
						<ele>133</ele>
						<time>2024-05-30T13:19:18Z</time>
					</trkpt>
					<trkpt lat="49.066040" lon="2.430200">
						<ele>132</ele>
						<time>2024-05-30T13:19:21Z</time>
					</trkpt>
					<trkpt lat="49.065760" lon="2.431090">
						<ele>131</ele>
						<time>2024-05-30T13:19:33Z</time>
					</trkpt>
					<trkpt lat="49.065770" lon="2.431140">
						<ele>131</ele>
						<time>2024-05-30T13:19:33Z</time>
					</trkpt>
					<trkpt lat="49.065890" lon="2.431330">
						<ele>131</ele>
						<time>2024-05-30T13:19:36Z</time>
					</trkpt>
					<trkpt lat="49.066240" lon="2.431720">
						<ele>131</ele>
						<time>2024-05-30T13:19:44Z</time>
					</trkpt>
					<trkpt lat="49.068550" lon="2.434730">
						<ele>132</ele>
						<time>2024-05-30T13:20:38Z</time>
					</trkpt>
					<trkpt lat="49.068610" lon="2.434820">
						<ele>131</ele>
						<time>2024-05-30T13:20:40Z</time>
					</trkpt>
					<trkpt lat="49.068630" lon="2.434890">
						<ele>131</ele>
						<time>2024-05-30T13:20:40Z</time>
					</trkpt>
					<trkpt lat="49.068680" lon="2.434910">
						<ele>131</ele>
						<time>2024-05-30T13:20:41Z</time>
					</trkpt>
					<trkpt lat="49.070470" lon="2.436910">
						<ele>127</ele>
						<time>2024-05-30T13:21:21Z</time>
					</trkpt>
					<trkpt lat="49.070730" lon="2.437280">
						<ele>126</ele>
						<time>2024-05-30T13:21:27Z</time>
					</trkpt>
					<trkpt lat="49.072240" lon="2.439700">
						<ele>129</ele>
						<time>2024-05-30T13:22:06Z</time>
					</trkpt>
					<trkpt lat="49.072390" lon="2.439900">
						<ele>129</ele>
						<time>2024-05-30T13:22:10Z</time>
					</trkpt>
					<trkpt lat="49.072520" lon="2.440000">
						<ele>129</ele>
						<time>2024-05-30T13:22:12Z</time>
					</trkpt>
					<trkpt lat="49.072700" lon="2.440070">
						<ele>129</ele>
						<time>2024-05-30T13:22:16Z</time>
					</trkpt>
					<trkpt lat="49.073120" lon="2.440160">
						<ele>130</ele>
						<time>2024-05-30T13:22:23Z</time>
					</trkpt>
					<trkpt lat="49.073260" lon="2.440150">
						<ele>130</ele>
						<time>2024-05-30T13:22:26Z</time>
					</trkpt>
					<trkpt lat="49.073430" lon="2.440100">
						<ele>131</ele>
						<time>2024-05-30T13:22:29Z</time>
					</trkpt>
					<trkpt lat="49.075010" lon="2.439450">
						<ele>139</ele>
						<time>2024-05-30T13:22:58Z</time>
					</trkpt>
					<trkpt lat="49.075200" lon="2.439390">
						<ele>140</ele>
						<time>2024-05-30T13:23:01Z</time>
					</trkpt>
					<trkpt lat="49.075290" lon="2.439400">
						<ele>140</ele>
						<time>2024-05-30T13:23:03Z</time>
					</trkpt>
					<trkpt lat="49.075350" lon="2.439500">
						<ele>140</ele>
						<time>2024-05-30T13:23:04Z</time>
					</trkpt>
					<trkpt lat="49.075430" lon="2.440480">
						<ele>139</ele>
						<time>2024-05-30T13:23:16Z</time>
					</trkpt>
					<trkpt lat="49.075430" lon="2.440900">
						<ele>138</ele>
						<time>2024-05-30T13:23:21Z</time>
					</trkpt>
					<trkpt lat="49.075450" lon="2.440980">
						<ele>138</ele>
						<time>2024-05-30T13:23:22Z</time>
					</trkpt>
					<trkpt lat="49.075470" lon="2.441020">
						<ele>138</ele>
						<time>2024-05-30T13:23:22Z</time>
					</trkpt>
					<trkpt lat="49.075710" lon="2.441100">
						<ele>139</ele>
						<time>2024-05-30T13:23:27Z</time>
					</trkpt>
					<trkpt lat="49.075870" lon="2.441250">
						<ele>138</ele>
						<time>2024-05-30T13:23:30Z</time>
					</trkpt>
					<trkpt lat="49.077580" lon="2.442930">
						<ele>132</ele>
						<time>2024-05-30T13:24:06Z</time>
					</trkpt>
					<trkpt lat="49.077890" lon="2.443120">
						<ele>132</ele>
						<time>2024-05-30T13:24:12Z</time>
					</trkpt>
					<trkpt lat="49.078240" lon="2.443290">
						<ele>130</ele>
						<time>2024-05-30T13:24:19Z</time>
					</trkpt>
					<trkpt lat="49.078330" lon="2.443280">
						<ele>130</ele>
						<time>2024-05-30T13:24:20Z</time>
					</trkpt>
					<trkpt lat="49.078830" lon="2.443130">
						<ele>128</ele>
						<time>2024-05-30T13:24:29Z</time>
					</trkpt>
					<trkpt lat="49.078940" lon="2.443060">
						<ele>127</ele>
						<time>2024-05-30T13:24:32Z</time>
					</trkpt>
					<trkpt lat="49.079030" lon="2.443050">
						<ele>127</ele>
						<time>2024-05-30T13:24:33Z</time>
					</trkpt>
					<trkpt lat="49.079120" lon="2.443100">
						<ele>127</ele>
						<time>2024-05-30T13:24:35Z</time>
					</trkpt>
					<trkpt lat="49.079510" lon="2.443460">
						<ele>126</ele>
						<time>2024-05-30T13:24:43Z</time>
					</trkpt>
					<trkpt lat="49.079640" lon="2.443620">
						<ele>125</ele>
						<time>2024-05-30T13:24:46Z</time>
					</trkpt>
					<trkpt lat="49.080120" lon="2.444820">
						<ele>121</ele>
						<time>2024-05-30T13:25:02Z</time>
					</trkpt>
					<trkpt lat="49.080640" lon="2.445900">
						<ele>118</ele>
						<time>2024-05-30T13:25:18Z</time>
					</trkpt>
					<trkpt lat="49.080820" lon="2.446160">
						<ele>116</ele>
						<time>2024-05-30T13:25:22Z</time>
					</trkpt>
					<trkpt lat="49.081580" lon="2.447140">
						<ele>108</ele>
						<time>2024-05-30T13:25:40Z</time>
					</trkpt>
					<trkpt lat="49.082100" lon="2.447980">
						<ele>101</ele>
						<time>2024-05-30T13:25:54Z</time>
					</trkpt>
					<trkpt lat="49.082220" lon="2.448240">
						<ele>100</ele>
						<time>2024-05-30T13:25:57Z</time>
					</trkpt>
					<trkpt lat="49.082420" lon="2.448780">
						<ele>101</ele>
						<time>2024-05-30T13:26:04Z</time>
					</trkpt>
					<trkpt lat="49.082500" lon="2.448950">
						<ele>102</ele>
						<time>2024-05-30T13:26:07Z</time>
					</trkpt>
					<trkpt lat="49.082590" lon="2.449090">
						<ele>102</ele>
						<time>2024-05-30T13:26:09Z</time>
					</trkpt>
					<trkpt lat="49.083240" lon="2.449560">
						<ele>102</ele>
						<time>2024-05-30T13:26:22Z</time>
					</trkpt>
					<trkpt lat="49.083430" lon="2.449650">
						<ele>102</ele>
						<time>2024-05-30T13:26:26Z</time>
					</trkpt>
					<trkpt lat="49.083680" lon="2.449710">
						<ele>101</ele>
						<time>2024-05-30T13:26:30Z</time>
					</trkpt>
					<trkpt lat="49.084530" lon="2.449860">
						<ele>99</ele>
						<time>2024-05-30T13:26:45Z</time>
					</trkpt>
					<trkpt lat="49.084960" lon="2.449900">
						<ele>98</ele>
						<time>2024-05-30T13:26:53Z</time>
					</trkpt>
					<trkpt lat="49.086300" lon="2.449940">
						<ele>91</ele>
						<time>2024-05-30T13:27:17Z</time>
					</trkpt>
					<trkpt lat="49.086760" lon="2.449930">
						<ele>90</ele>
						<time>2024-05-30T13:27:25Z</time>
					</trkpt>
					<trkpt lat="49.087020" lon="2.449850">
						<ele>90</ele>
						<time>2024-05-30T13:27:30Z</time>
					</trkpt>
					<trkpt lat="49.087590" lon="2.449540">
						<ele>88</ele>
						<time>2024-05-30T13:27:40Z</time>
					</trkpt>
					<trkpt lat="49.088140" lon="2.449070">
						<ele>84</ele>
						<time>2024-05-30T13:27:52Z</time>
					</trkpt>
					<trkpt lat="49.088300" lon="2.448960">
						<ele>84</ele>
						<time>2024-05-30T13:27:55Z</time>
					</trkpt>
					<trkpt lat="49.088710" lon="2.448780">
						<ele>84</ele>
						<time>2024-05-30T13:28:02Z</time>
					</trkpt>
					<trkpt lat="49.089150" lon="2.448640">
						<ele>83</ele>
						<time>2024-05-30T13:28:10Z</time>
					</trkpt>
					<trkpt lat="49.089540" lon="2.448550">
						<ele>81</ele>
						<time>2024-05-30T13:28:17Z</time>
					</trkpt>
					<trkpt lat="49.089970" lon="2.448510">
						<ele>79</ele>
						<time>2024-05-30T13:28:25Z</time>
					</trkpt>
					<trkpt lat="49.091390" lon="2.448630">
						<ele>77</ele>
						<time>2024-05-30T13:28:50Z</time>
					</trkpt>
					<trkpt lat="49.092000" lon="2.448760">
						<ele>76</ele>
						<time>2024-05-30T13:29:01Z</time>
					</trkpt>
					<trkpt lat="49.092850" lon="2.449120">
						<ele>72</ele>
						<time>2024-05-30T13:29:17Z</time>
					</trkpt>
					<trkpt lat="49.093050" lon="2.449170">
						<ele>70</ele>
						<time>2024-05-30T13:29:21Z</time>
					</trkpt>
					<trkpt lat="49.093300" lon="2.449090">
						<ele>67</ele>
						<time>2024-05-30T13:29:25Z</time>
					</trkpt>
					<trkpt lat="49.097130" lon="2.447230">
						<ele>60</ele>
						<time>2024-05-30T13:30:37Z</time>
					</trkpt>
					<trkpt lat="49.097190" lon="2.447180">
						<ele>59</ele>
						<time>2024-05-30T13:30:38Z</time>
					</trkpt>
					<trkpt lat="49.097220" lon="2.447110">
						<ele>59</ele>
						<time>2024-05-30T13:30:39Z</time>
					</trkpt>
					<trkpt lat="49.097310" lon="2.446610">
						<ele>60</ele>
						<time>2024-05-30T13:30:45Z</time>
					</trkpt>
					<trkpt lat="49.097330" lon="2.446560">
						<ele>59</ele>
						<time>2024-05-30T13:30:46Z</time>
					</trkpt>
					<trkpt lat="49.097360" lon="2.446540">
						<ele>59</ele>
						<time>2024-05-30T13:30:46Z</time>
					</trkpt>
					<trkpt lat="49.098610" lon="2.446560">
						<ele>56</ele>
						<time>2024-05-30T13:31:08Z</time>
					</trkpt>
					<trkpt lat="49.098730" lon="2.446600">
						<ele>57</ele>
						<time>2024-05-30T13:31:11Z</time>
					</trkpt>
					<trkpt lat="49.098810" lon="2.446680">
						<ele>57</ele>
						<time>2024-05-30T13:31:12Z</time>
					</trkpt>
					<trkpt lat="49.098870" lon="2.446760">
						<ele>57</ele>
						<time>2024-05-30T13:31:14Z</time>
					</trkpt>
					<trkpt lat="49.099580" lon="2.447860">
						<ele>61</ele>
						<time>2024-05-30T13:31:32Z</time>
					</trkpt>
					<trkpt lat="49.099700" lon="2.448100">
						<ele>62</ele>
						<time>2024-05-30T13:31:35Z</time>
					</trkpt>
					<trkpt lat="49.099700" lon="2.448220">
						<ele>62</ele>
						<time>2024-05-30T13:31:37Z</time>
					</trkpt>
					<trkpt lat="49.099730" lon="2.448300">
						<ele>62</ele>
						<time>2024-05-30T13:31:38Z</time>
					</trkpt>
					<trkpt lat="49.099800" lon="2.448320">
						<ele>63</ele>
						<time>2024-05-30T13:31:39Z</time>
					</trkpt>
					<trkpt lat="49.099840" lon="2.448260">
						<ele>63</ele>
						<time>2024-05-30T13:31:40Z</time>
					</trkpt>
					<trkpt lat="49.099860" lon="2.448200">
						<ele>63</ele>
						<time>2024-05-30T13:31:41Z</time>
					</trkpt>
					<trkpt lat="49.099850" lon="2.448040">
						<ele>63</ele>
						<time>2024-05-30T13:31:43Z</time>
					</trkpt>
					<trkpt lat="49.099810" lon="2.447900">
						<ele>63</ele>
						<time>2024-05-30T13:31:44Z</time>
					</trkpt>
					<trkpt lat="49.099800" lon="2.447710">
						<ele>63</ele>
						<time>2024-05-30T13:31:47Z</time>
					</trkpt>
					<trkpt lat="49.099810" lon="2.447520">
						<ele>63</ele>
						<time>2024-05-30T13:31:49Z</time>
					</trkpt>
					<trkpt lat="49.100040" lon="2.446750">
						<ele>64</ele>
						<time>2024-05-30T13:31:59Z</time>
					</trkpt>
					<trkpt lat="49.100340" lon="2.445960">
						<ele>65</ele>
						<time>2024-05-30T13:32:09Z</time>
					</trkpt>
					<trkpt lat="49.100590" lon="2.445430">
						<ele>66</ele>
						<time>2024-05-30T13:32:17Z</time>
					</trkpt>
					<trkpt lat="49.101010" lon="2.444720">
						<ele>67</ele>
						<time>2024-05-30T13:32:28Z</time>
					</trkpt>
					<trkpt lat="49.101910" lon="2.443420">
						<ele>65</ele>
						<time>2024-05-30T13:32:50Z</time>
					</trkpt>
					<trkpt lat="49.102710" lon="2.442410">
						<ele>59</ele>
						<time>2024-05-30T13:33:09Z</time>
					</trkpt>
					<trkpt lat="49.102850" lon="2.442260">
						<ele>59</ele>
						<time>2024-05-30T13:33:12Z</time>
					</trkpt>
					<trkpt lat="49.102980" lon="2.442150">
						<ele>58</ele>
						<time>2024-05-30T13:33:14Z</time>
					</trkpt>
					<trkpt lat="49.103450" lon="2.441930">
						<ele>57</ele>
						<time>2024-05-30T13:33:23Z</time>
					</trkpt>
					<trkpt lat="49.104060" lon="2.441680">
						<ele>54</ele>
						<time>2024-05-30T13:33:34Z</time>
					</trkpt>
					<trkpt lat="49.106070" lon="2.440980">
						<ele>54</ele>
						<time>2024-05-30T13:34:11Z</time>
					</trkpt>
					<trkpt lat="49.106650" lon="2.440810">
						<ele>55</ele>
						<time>2024-05-30T13:34:21Z</time>
					</trkpt>
					<trkpt lat="49.107050" lon="2.440750">
						<ele>55</ele>
						<time>2024-05-30T13:34:29Z</time>
					</trkpt>
					<trkpt lat="49.107340" lon="2.440750">
						<ele>56</ele>
						<time>2024-05-30T13:34:34Z</time>
					</trkpt>
					<trkpt lat="49.107550" lon="2.440690">
						<ele>56</ele>
						<time>2024-05-30T13:34:38Z</time>
					</trkpt>
					<trkpt lat="49.107680" lon="2.440630">
						<ele>56</ele>
						<time>2024-05-30T13:34:40Z</time>
					</trkpt>
					<trkpt lat="49.107790" lon="2.440550">
						<ele>57</ele>
						<time>2024-05-30T13:34:42Z</time>
					</trkpt>
					<trkpt lat="49.107890" lon="2.440430">
						<ele>58</ele>
						<time>2024-05-30T13:34:44Z</time>
					</trkpt>
					<trkpt lat="49.107970" lon="2.440250">
						<ele>59</ele>
						<time>2024-05-30T13:34:47Z</time>
					</trkpt>
					<trkpt lat="49.108050" lon="2.439890">
						<ele>61</ele>
						<time>2024-05-30T13:34:51Z</time>
					</trkpt>
					<trkpt lat="49.108070" lon="2.439560">
						<ele>62</ele>
						<time>2024-05-30T13:34:55Z</time>
					</trkpt>
					<trkpt lat="49.108550" lon="2.435760">
						<ele>69</ele>
						<time>2024-05-30T13:35:40Z</time>
					</trkpt>
					<trkpt lat="49.108680" lon="2.435260">
						<ele>69</ele>
						<time>2024-05-30T13:35:47Z</time>
					</trkpt>
					<trkpt lat="49.110360" lon="2.431340">
						<ele>71</ele>
						<time>2024-05-30T13:36:41Z</time>
					</trkpt>
					<trkpt lat="49.110560" lon="2.430970">
						<ele>71</ele>
						<time>2024-05-30T13:36:47Z</time>
					</trkpt>
					<trkpt lat="49.110670" lon="2.430860">
						<ele>71</ele>
						<time>2024-05-30T13:36:49Z</time>
					</trkpt>
					<trkpt lat="49.110870" lon="2.430450">
						<ele>70</ele>
						<time>2024-05-30T13:36:55Z</time>
					</trkpt>
					<trkpt lat="49.110930" lon="2.430410">
						<ele>70</ele>
						<time>2024-05-30T13:36:56Z</time>
					</trkpt>
					<trkpt lat="49.110950" lon="2.430330">
						<ele>70</ele>
						<time>2024-05-30T13:36:57Z</time>
					</trkpt>
					<trkpt lat="49.110930" lon="2.430270">
						<ele>70</ele>
						<time>2024-05-30T13:36:58Z</time>
					</trkpt>
					<trkpt lat="49.110870" lon="2.430220">
						<ele>70</ele>
						<time>2024-05-30T13:36:59Z</time>
					</trkpt>
					<trkpt lat="49.110890" lon="2.430050">
						<ele>69</ele>
						<time>2024-05-30T13:37:01Z</time>
					</trkpt>
					<trkpt lat="49.111010" lon="2.429620">
						<ele>70</ele>
						<time>2024-05-30T13:37:07Z</time>
					</trkpt>
					<trkpt lat="49.111060" lon="2.429510">
						<ele>70</ele>
						<time>2024-05-30T13:37:08Z</time>
					</trkpt>
					<trkpt lat="49.111110" lon="2.429520">
						<ele>70</ele>
						<time>2024-05-30T13:37:09Z</time>
					</trkpt>
					<trkpt lat="49.111170" lon="2.429440">
						<ele>70</ele>
						<time>2024-05-30T13:37:11Z</time>
					</trkpt>
					<trkpt lat="49.111170" lon="2.429360">
						<ele>70</ele>
						<time>2024-05-30T13:37:11Z</time>
					</trkpt>
					<trkpt lat="49.111140" lon="2.429290">
						<ele>70</ele>
						<time>2024-05-30T13:37:12Z</time>
					</trkpt>
					<trkpt lat="49.111120" lon="2.429270">
						<ele>70</ele>
						<time>2024-05-30T13:37:13Z</time>
					</trkpt>
					<trkpt lat="49.111130" lon="2.429170">
						<ele>70</ele>
						<time>2024-05-30T13:37:14Z</time>
					</trkpt>
					<trkpt lat="49.111310" lon="2.428530">
						<ele>70</ele>
						<time>2024-05-30T13:37:22Z</time>
					</trkpt>
					<trkpt lat="49.111760" lon="2.427550">
						<ele>69</ele>
						<time>2024-05-30T13:37:36Z</time>
					</trkpt>
					<trkpt lat="49.112070" lon="2.427080">
						<ele>71</ele>
						<time>2024-05-30T13:37:44Z</time>
					</trkpt>
					<trkpt lat="49.112080" lon="2.427020">
						<ele>71</ele>
						<time>2024-05-30T13:37:45Z</time>
					</trkpt>
					<trkpt lat="49.112340" lon="2.426930">
						<ele>73</ele>
						<time>2024-05-30T13:37:49Z</time>
					</trkpt>
					<trkpt lat="49.112760" lon="2.426870">
						<ele>75</ele>
						<time>2024-05-30T13:37:57Z</time>
					</trkpt>
					<trkpt lat="49.113250" lon="2.426940">
						<ele>76</ele>
						<time>2024-05-30T13:38:06Z</time>
					</trkpt>
					<trkpt lat="49.113330" lon="2.426910">
						<ele>76</ele>
						<time>2024-05-30T13:38:07Z</time>
					</trkpt>
					<trkpt lat="49.113330" lon="2.424970">
						<ele>71</ele>
						<time>2024-05-30T13:38:30Z</time>
					</trkpt>
					<trkpt lat="49.113310" lon="2.424170">
						<ele>71</ele>
						<time>2024-05-30T13:38:39Z</time>
					</trkpt>
					<trkpt lat="49.113210" lon="2.423110">
						<ele>72</ele>
						<time>2024-05-30T13:38:51Z</time>
					</trkpt>
					<trkpt lat="49.113220" lon="2.422270">
						<ele>75</ele>
						<time>2024-05-30T13:39:01Z</time>
					</trkpt>
					<trkpt lat="49.112600" lon="2.422260">
						<ele>71</ele>
						<time>2024-05-30T13:39:12Z</time>
					</trkpt>
					<trkpt lat="49.112490" lon="2.422240">
						<ele>71</ele>
						<time>2024-05-30T13:39:14Z</time>
					</trkpt>
					<trkpt lat="49.112410" lon="2.422200">
						<ele>70</ele>
						<time>2024-05-30T13:39:16Z</time>
					</trkpt>
					<trkpt lat="49.112170" lon="2.422010">
						<ele>69</ele>
						<time>2024-05-30T13:39:21Z</time>
					</trkpt>
					<trkpt lat="49.112160" lon="2.421680">
						<ele>70</ele>
						<time>2024-05-30T13:39:24Z</time>
					</trkpt>
					<trkpt lat="49.112110" lon="2.421580">
						<ele>71</ele>
						<time>2024-05-30T13:39:26Z</time>
					</trkpt>
					<trkpt lat="49.111980" lon="2.421400">
						<ele>71</ele>
						<time>2024-05-30T13:39:29Z</time>
					</trkpt>
					<trkpt lat="49.111940" lon="2.421290">
						<ele>71</ele>
						<time>2024-05-30T13:39:30Z</time>
					</trkpt>
					<trkpt lat="49.111910" lon="2.421130">
						<ele>72</ele>
						<time>2024-05-30T13:39:32Z</time>
					</trkpt>
					<trkpt lat="49.111880" lon="2.420720">
						<ele>73</ele>
						<time>2024-05-30T13:39:37Z</time>
					</trkpt>
					<trkpt lat="49.111730" lon="2.420010">
						<ele>75</ele>
						<time>2024-05-30T13:39:46Z</time>
					</trkpt>
					<trkpt lat="49.111460" lon="2.419220">
						<ele>80</ele>
						<time>2024-05-30T13:39:56Z</time>
					</trkpt>
					<trkpt lat="49.111170" lon="2.418140">
						<ele>85</ele>
						<time>2024-05-30T13:40:10Z</time>
					</trkpt>
					<trkpt lat="49.111000" lon="2.417690">
						<ele>85</ele>
						<time>2024-05-30T13:40:16Z</time>
					</trkpt>
					<trkpt lat="49.110770" lon="2.417160">
						<ele>84</ele>
						<time>2024-05-30T13:40:23Z</time>
					</trkpt>
					<trkpt lat="49.110130" lon="2.416300">
						<ele>78</ele>
						<time>2024-05-30T13:40:38Z</time>
					</trkpt>
					<trkpt lat="49.109970" lon="2.415880">
						<ele>75</ele>
						<time>2024-05-30T13:40:44Z</time>
					</trkpt>
					<trkpt lat="49.109890" lon="2.415540">
						<ele>75</ele>
						<time>2024-05-30T13:40:48Z</time>
					</trkpt>
					<trkpt lat="49.109750" lon="2.414510">
						<ele>75</ele>
						<time>2024-05-30T13:41:01Z</time>
					</trkpt>
					<trkpt lat="49.109600" lon="2.413760">
						<ele>77</ele>
						<time>2024-05-30T13:41:10Z</time>
					</trkpt>
					<trkpt lat="49.109440" lon="2.413110">
						<ele>78</ele>
						<time>2024-05-30T13:41:18Z</time>
					</trkpt>
					<trkpt lat="49.109370" lon="2.412720">
						<ele>78</ele>
						<time>2024-05-30T13:41:23Z</time>
					</trkpt>
					<trkpt lat="49.109340" lon="2.412320">
						<ele>78</ele>
						<time>2024-05-30T13:41:27Z</time>
					</trkpt>
					<trkpt lat="49.109390" lon="2.411300">
						<ele>79</ele>
						<time>2024-05-30T13:41:39Z</time>
					</trkpt>
					<trkpt lat="49.109470" lon="2.410710">
						<ele>79</ele>
						<time>2024-05-30T13:41:46Z</time>
					</trkpt>
					<trkpt lat="49.109800" lon="2.409310">
						<ele>79</ele>
						<time>2024-05-30T13:42:03Z</time>
					</trkpt>
					<trkpt lat="49.110110" lon="2.407490">
						<ele>83</ele>
						<time>2024-05-30T13:42:25Z</time>
					</trkpt>
					<trkpt lat="49.110110" lon="2.406740">
						<ele>85</ele>
						<time>2024-05-30T13:42:34Z</time>
					</trkpt>
					<trkpt lat="49.110250" lon="2.405340">
						<ele>88</ele>
						<time>2024-05-30T13:42:51Z</time>
					</trkpt>
					<trkpt lat="49.110320" lon="2.404880">
						<ele>89</ele>
						<time>2024-05-30T13:42:56Z</time>
					</trkpt>
					<trkpt lat="49.110440" lon="2.404480">
						<ele>91</ele>
						<time>2024-05-30T13:43:01Z</time>
					</trkpt>
					<trkpt lat="49.110820" lon="2.403560">
						<ele>93</ele>
						<time>2024-05-30T13:43:14Z</time>
					</trkpt>
					<trkpt lat="49.111160" lon="2.402900">
						<ele>100</ele>
						<time>2024-05-30T13:43:24Z</time>
					</trkpt>
					<trkpt lat="49.111790" lon="2.401860">
						<ele>104</ele>
						<time>2024-05-30T13:43:40Z</time>
					</trkpt>
					<trkpt lat="49.112060" lon="2.401310">
						<ele>105</ele>
						<time>2024-05-30T13:43:48Z</time>
					</trkpt>
					<trkpt lat="49.112350" lon="2.400460">
						<ele>105</ele>
						<time>2024-05-30T13:43:59Z</time>
					</trkpt>
					<trkpt lat="49.112350" lon="2.399770">
						<ele>107</ele>
						<time>2024-05-30T13:44:07Z</time>
					</trkpt>
					<trkpt lat="49.112290" lon="2.399010">
						<ele>108</ele>
						<time>2024-05-30T13:44:16Z</time>
					</trkpt>
					<trkpt lat="49.111820" lon="2.396560">
						<ele>110</ele>
						<time>2024-05-30T13:44:46Z</time>
					</trkpt>
					<trkpt lat="49.111740" lon="2.396240">
						<ele>110</ele>
						<time>2024-05-30T13:44:50Z</time>
					</trkpt>
					<trkpt lat="49.111540" lon="2.395530">
						<ele>112</ele>
						<time>2024-05-30T13:44:59Z</time>
					</trkpt>
					<trkpt lat="49.111400" lon="2.395130">
						<ele>113</ele>
						<time>2024-05-30T13:45:04Z</time>
					</trkpt>
					<trkpt lat="49.111370" lon="2.394810">
						<ele>113</ele>
						<time>2024-05-30T13:45:08Z</time>
					</trkpt>
					<trkpt lat="49.111430" lon="2.394050">
						<ele>113</ele>
						<time>2024-05-30T13:45:17Z</time>
					</trkpt>
					<trkpt lat="49.111500" lon="2.393950">
						<ele>113</ele>
						<time>2024-05-30T13:45:19Z</time>
					</trkpt>
					<trkpt lat="49.111570" lon="2.393940">
						<ele>113</ele>
						<time>2024-05-30T13:45:20Z</time>
					</trkpt>
					<trkpt lat="49.111720" lon="2.393920">
						<ele>112</ele>
						<time>2024-05-30T13:45:23Z</time>
					</trkpt>
					<trkpt lat="49.111800" lon="2.393820">
						<ele>113</ele>
						<time>2024-05-30T13:45:24Z</time>
					</trkpt>
					<trkpt lat="49.111940" lon="2.393750">
						<ele>113</ele>
						<time>2024-05-30T13:45:27Z</time>
					</trkpt>
					<trkpt lat="49.112340" lon="2.393860">
						<ele>115</ele>
						<time>2024-05-30T13:45:34Z</time>
					</trkpt>
					<trkpt lat="49.112470" lon="2.393860">
						<ele>116</ele>
						<time>2024-05-30T13:45:37Z</time>
					</trkpt>
					<trkpt lat="49.112640" lon="2.393800">
						<ele>117</ele>
						<time>2024-05-30T13:45:40Z</time>
					</trkpt>
					<trkpt lat="49.112710" lon="2.393730">
						<ele>118</ele>
						<time>2024-05-30T13:45:41Z</time>
					</trkpt>
					<trkpt lat="49.112760" lon="2.393600">
						<ele>119</ele>
						<time>2024-05-30T13:45:43Z</time>
					</trkpt>
					<trkpt lat="49.112800" lon="2.393360">
						<ele>120</ele>
						<time>2024-05-30T13:45:46Z</time>
					</trkpt>
					<trkpt lat="49.112800" lon="2.393230">
						<ele>121</ele>
						<time>2024-05-30T13:45:47Z</time>
					</trkpt>
					<trkpt lat="49.112780" lon="2.393040">
						<ele>122</ele>
						<time>2024-05-30T13:45:50Z</time>
					</trkpt>
					<trkpt lat="49.112720" lon="2.392850">
						<ele>123</ele>
						<time>2024-05-30T13:45:52Z</time>
					</trkpt>
					<trkpt lat="49.112620" lon="2.392720">
						<ele>123</ele>
						<time>2024-05-30T13:45:54Z</time>
					</trkpt>
					<trkpt lat="49.112370" lon="2.392510">
						<ele>122</ele>
						<time>2024-05-30T13:46:00Z</time>
					</trkpt>
					<trkpt lat="49.112230" lon="2.392380">
						<ele>121</ele>
						<time>2024-05-30T13:46:02Z</time>
					</trkpt>
					<trkpt lat="49.112080" lon="2.392090">
						<ele>121</ele>
						<time>2024-05-30T13:46:07Z</time>
					</trkpt>
					<trkpt lat="49.112010" lon="2.391860">
						<ele>122</ele>
						<time>2024-05-30T13:46:10Z</time>
					</trkpt>
					<trkpt lat="49.111870" lon="2.390810">
						<ele>125</ele>
						<time>2024-05-30T13:46:22Z</time>
					</trkpt>
					<trkpt lat="49.111820" lon="2.390420">
						<ele>125</ele>
						<time>2024-05-30T13:46:27Z</time>
					</trkpt>
					<trkpt lat="49.111630" lon="2.389170">
						<ele>130</ele>
						<time>2024-05-30T13:46:42Z</time>
					</trkpt>
					<trkpt lat="49.111380" lon="2.387790">
						<ele>132</ele>
						<time>2024-05-30T13:46:58Z</time>
					</trkpt>
					<trkpt lat="49.111150" lon="2.386640">
						<ele>135</ele>
						<time>2024-05-30T13:47:12Z</time>
					</trkpt>
					<trkpt lat="49.111010" lon="2.386000">
						<ele>135</ele>
						<time>2024-05-30T13:47:20Z</time>
					</trkpt>
					<trkpt lat="49.110790" lon="2.385170">
						<ele>136</ele>
						<time>2024-05-30T13:47:31Z</time>
					</trkpt>
					<trkpt lat="49.110120" lon="2.382840">
						<ele>136</ele>
						<time>2024-05-30T13:48:00Z</time>
					</trkpt>
					<trkpt lat="49.109450" lon="2.380350">
						<ele>140</ele>
						<time>2024-05-30T13:48:32Z</time>
					</trkpt>
					<trkpt lat="49.108700" lon="2.377910">
						<ele>140</ele>
						<time>2024-05-30T13:49:03Z</time>
					</trkpt>
					<trkpt lat="49.106840" lon="2.371480">
						<ele>150</ele>
						<time>2024-05-30T13:50:25Z</time>
					</trkpt>
					<trkpt lat="49.105940" lon="2.368450">
						<ele>149</ele>
						<time>2024-05-30T13:51:04Z</time>
					</trkpt>
					<trkpt lat="49.105640" lon="2.367670">
						<ele>147</ele>
						<time>2024-05-30T13:51:14Z</time>
					</trkpt>
					<trkpt lat="49.105370" lon="2.366910">
						<ele>146</ele>
						<time>2024-05-30T13:51:24Z</time>
					</trkpt>
					<trkpt lat="49.105320" lon="2.366750">
						<ele>146</ele>
						<time>2024-05-30T13:51:26Z</time>
					</trkpt>
					<trkpt lat="49.105310" lon="2.366580">
						<ele>146</ele>
						<time>2024-05-30T13:51:28Z</time>
					</trkpt>
					<trkpt lat="49.105350" lon="2.366430">
						<ele>147</ele>
						<time>2024-05-30T13:51:30Z</time>
					</trkpt>
					<trkpt lat="49.105350" lon="2.366320">
						<ele>147</ele>
						<time>2024-05-30T13:51:32Z</time>
					</trkpt>
					<trkpt lat="49.105330" lon="2.366210">
						<ele>147</ele>
						<time>2024-05-30T13:51:33Z</time>
					</trkpt>
					<trkpt lat="49.105290" lon="2.366110">
						<ele>147</ele>
						<time>2024-05-30T13:51:34Z</time>
					</trkpt>
					<trkpt lat="49.105230" lon="2.366020">
						<ele>147</ele>
						<time>2024-05-30T13:51:36Z</time>
					</trkpt>
					<trkpt lat="49.105170" lon="2.365970">
						<ele>147</ele>
						<time>2024-05-30T13:51:37Z</time>
					</trkpt>
					<trkpt lat="49.105030" lon="2.365960">
						<ele>148</ele>
						<time>2024-05-30T13:51:39Z</time>
					</trkpt>
					<trkpt lat="49.104930" lon="2.366020">
						<ele>148</ele>
						<time>2024-05-30T13:51:41Z</time>
					</trkpt>
					<trkpt lat="49.104820" lon="2.366040">
						<ele>148</ele>
						<time>2024-05-30T13:51:43Z</time>
					</trkpt>
					<trkpt lat="49.104720" lon="2.365990">
						<ele>148</ele>
						<time>2024-05-30T13:51:45Z</time>
					</trkpt>
					<trkpt lat="49.103800" lon="2.365260">
						<ele>148</ele>
						<time>2024-05-30T13:52:04Z</time>
					</trkpt>
					<trkpt lat="49.103250" lon="2.364930">
						<ele>148</ele>
						<time>2024-05-30T13:52:14Z</time>
					</trkpt>
					<trkpt lat="49.102880" lon="2.364700">
						<ele>146</ele>
						<time>2024-05-30T13:52:21Z</time>
					</trkpt>
					<trkpt lat="49.101570" lon="2.364090">
						<ele>143</ele>
						<time>2024-05-30T13:52:46Z</time>
					</trkpt>
					<trkpt lat="49.101660" lon="2.363740">
						<ele>144</ele>
						<time>2024-05-30T13:52:50Z</time>
					</trkpt>
					<trkpt lat="49.101750" lon="2.363440">
						<ele>144</ele>
						<time>2024-05-30T13:52:54Z</time>
					</trkpt>
					<trkpt lat="49.101770" lon="2.363220">
						<ele>145</ele>
						<time>2024-05-30T13:52:56Z</time>
					</trkpt>
					<trkpt lat="49.101760" lon="2.363080">
						<ele>145</ele>
						<time>2024-05-30T13:52:58Z</time>
					</trkpt>
					<trkpt lat="49.101460" lon="2.361710">
						<ele>146</ele>
						<time>2024-05-30T13:53:15Z</time>
					</trkpt>
					<trkpt lat="49.101410" lon="2.361290">
						<ele>146</ele>
						<time>2024-05-30T13:53:20Z</time>
					</trkpt>
					<trkpt lat="49.101420" lon="2.361110">
						<ele>146</ele>
						<time>2024-05-30T13:53:22Z</time>
					</trkpt>
					<trkpt lat="49.101470" lon="2.360920">
						<ele>146</ele>
						<time>2024-05-30T13:53:24Z</time>
					</trkpt>
					<trkpt lat="49.102880" lon="2.357280">
						<ele>154</ele>
						<time>2024-05-30T13:54:14Z</time>
					</trkpt>
					<trkpt lat="49.103150" lon="2.356570">
						<ele>156</ele>
						<time>2024-05-30T13:54:23Z</time>
					</trkpt>
					<trkpt lat="49.103870" lon="2.354410">
						<ele>168</ele>
						<time>2024-05-30T13:54:51Z</time>
					</trkpt>
					<trkpt lat="49.104100" lon="2.353800">
						<ele>168</ele>
						<time>2024-05-30T13:55:00Z</time>
					</trkpt>
					<trkpt lat="49.104270" lon="2.353550">
						<ele>170</ele>
						<time>2024-05-30T13:55:04Z</time>
					</trkpt>
					<trkpt lat="49.105200" lon="2.352420">
						<ele>180</ele>
						<time>2024-05-30T13:55:25Z</time>
					</trkpt>
					<trkpt lat="49.105840" lon="2.351520">
						<ele>184</ele>
						<time>2024-05-30T13:55:41Z</time>
					</trkpt>
					<trkpt lat="49.106030" lon="2.351290">
						<ele>184</ele>
						<time>2024-05-30T13:55:45Z</time>
					</trkpt>
					<trkpt lat="49.106560" lon="2.350880">
						<ele>185</ele>
						<time>2024-05-30T13:55:55Z</time>
					</trkpt>
					<trkpt lat="49.106660" lon="2.350840">
						<ele>185</ele>
						<time>2024-05-30T13:55:57Z</time>
					</trkpt>
					<trkpt lat="49.106870" lon="2.350650">
						<ele>184</ele>
						<time>2024-05-30T13:56:02Z</time>
					</trkpt>
					<trkpt lat="49.107110" lon="2.350370">
						<ele>183</ele>
						<time>2024-05-30T13:56:07Z</time>
					</trkpt>
					<trkpt lat="49.107280" lon="2.350110">
						<ele>182</ele>
						<time>2024-05-30T13:56:11Z</time>
					</trkpt>
					<trkpt lat="49.107510" lon="2.349690">
						<ele>182</ele>
						<time>2024-05-30T13:56:18Z</time>
					</trkpt>
					<trkpt lat="49.108110" lon="2.348480">
						<ele>182</ele>
						<time>2024-05-30T13:56:35Z</time>
					</trkpt>
					<trkpt lat="49.108250" lon="2.348220">
						<ele>182</ele>
						<time>2024-05-30T13:56:39Z</time>
					</trkpt>
					<trkpt lat="49.108260" lon="2.348140">
						<ele>182</ele>
						<time>2024-05-30T13:56:40Z</time>
					</trkpt>
					<trkpt lat="49.108360" lon="2.347970">
						<ele>182</ele>
						<time>2024-05-30T13:56:43Z</time>
					</trkpt>
					<trkpt lat="49.108460" lon="2.347840">
						<ele>183</ele>
						<time>2024-05-30T13:56:45Z</time>
					</trkpt>
					<trkpt lat="49.108620" lon="2.347550">
						<ele>184</ele>
						<time>2024-05-30T13:56:50Z</time>
					</trkpt>
					<trkpt lat="49.108730" lon="2.347290">
						<ele>186</ele>
						<time>2024-05-30T13:56:53Z</time>
					</trkpt>
					<trkpt lat="49.108990" lon="2.346490">
						<ele>190</ele>
						<time>2024-05-30T13:57:04Z</time>
					</trkpt>
					<trkpt lat="49.109460" lon="2.344550">
						<ele>197</ele>
						<time>2024-05-30T13:57:28Z</time>
					</trkpt>
					<trkpt lat="49.109600" lon="2.344060">
						<ele>197</ele>
						<time>2024-05-30T13:57:34Z</time>
					</trkpt>
					<trkpt lat="49.109710" lon="2.343810">
						<ele>198</ele>
						<time>2024-05-30T13:57:37Z</time>
					</trkpt>
					<trkpt lat="49.109850" lon="2.343560">
						<ele>198</ele>
						<time>2024-05-30T13:57:41Z</time>
					</trkpt>
					<trkpt lat="49.109910" lon="2.343570">
						<ele>199</ele>
						<time>2024-05-30T13:57:42Z</time>
					</trkpt>
					<trkpt lat="49.109950" lon="2.343530">
						<ele>199</ele>
						<time>2024-05-30T13:57:43Z</time>
					</trkpt>
					<trkpt lat="49.109970" lon="2.343450">
						<ele>199</ele>
						<time>2024-05-30T13:57:44Z</time>
					</trkpt>
					<trkpt lat="49.109940" lon="2.343370">
						<ele>199</ele>
						<time>2024-05-30T13:57:45Z</time>
					</trkpt>
					<trkpt lat="49.109970" lon="2.343320">
						<ele>199</ele>
						<time>2024-05-30T13:57:46Z</time>
					</trkpt>
					<trkpt lat="49.110930" lon="2.341280">
						<ele>209</ele>
						<time>2024-05-30T13:58:15Z</time>
					</trkpt>
					<trkpt lat="49.113530" lon="2.335530">
						<ele>211</ele>
						<time>2024-05-30T13:59:37Z</time>
					</trkpt>
					<trkpt lat="49.113630" lon="2.335370">
						<ele>210</ele>
						<time>2024-05-30T13:59:39Z</time>
					</trkpt>
					<trkpt lat="49.113790" lon="2.335170">
						<ele>209</ele>
						<time>2024-05-30T13:59:43Z</time>
					</trkpt>
					<trkpt lat="49.116270" lon="2.333170">
						<ele>210</ele>
						<time>2024-05-30T14:00:33Z</time>
					</trkpt>
					<trkpt lat="49.116470" lon="2.333030">
						<ele>210</ele>
						<time>2024-05-30T14:00:37Z</time>
					</trkpt>
					<trkpt lat="49.116670" lon="2.332950">
						<ele>210</ele>
						<time>2024-05-30T14:00:40Z</time>
					</trkpt>
					<trkpt lat="49.116740" lon="2.332940">
						<ele>210</ele>
						<time>2024-05-30T14:00:42Z</time>
					</trkpt>
					<trkpt lat="49.117130" lon="2.332960">
						<ele>210</ele>
						<time>2024-05-30T14:00:49Z</time>
					</trkpt>
					<trkpt lat="49.117910" lon="2.333120">
						<ele>210</ele>
						<time>2024-05-30T14:01:03Z</time>
					</trkpt>
					<trkpt lat="49.119190" lon="2.333590">
						<ele>216</ele>
						<time>2024-05-30T14:01:26Z</time>
					</trkpt>
					<trkpt lat="49.119350" lon="2.333580">
						<ele>216</ele>
						<time>2024-05-30T14:01:29Z</time>
					</trkpt>
					<trkpt lat="49.119480" lon="2.333510">
						<ele>216</ele>
						<time>2024-05-30T14:01:31Z</time>
					</trkpt>
					<trkpt lat="49.119520" lon="2.333450">
						<ele>216</ele>
						<time>2024-05-30T14:01:32Z</time>
					</trkpt>
					<trkpt lat="49.119610" lon="2.333230">
						<ele>215</ele>
						<time>2024-05-30T14:01:35Z</time>
					</trkpt>
					<trkpt lat="49.119780" lon="2.332570">
						<ele>211</ele>
						<time>2024-05-30T14:01:44Z</time>
					</trkpt>
					<trkpt lat="49.120060" lon="2.331940">
						<ele>210</ele>
						<time>2024-05-30T14:01:53Z</time>
					</trkpt>
					<trkpt lat="49.120180" lon="2.331600">
						<ele>210</ele>
						<time>2024-05-30T14:01:57Z</time>
					</trkpt>
					<trkpt lat="49.120250" lon="2.330960">
						<ele>210</ele>
						<time>2024-05-30T14:02:05Z</time>
					</trkpt>
					<trkpt lat="49.120290" lon="2.330720">
						<ele>211</ele>
						<time>2024-05-30T14:02:07Z</time>
					</trkpt>
					<trkpt lat="49.120380" lon="2.330390">
						<ele>211</ele>
						<time>2024-05-30T14:02:12Z</time>
					</trkpt>
					<trkpt lat="49.121090" lon="2.328850">
						<ele>213</ele>
						<time>2024-05-30T14:02:34Z</time>
					</trkpt>
					<trkpt lat="49.121550" lon="2.327410">
						<ele>213</ele>
						<time>2024-05-30T14:02:52Z</time>
					</trkpt>
					<trkpt lat="49.122110" lon="2.325740">
						<ele>214</ele>
						<time>2024-05-30T14:03:14Z</time>
					</trkpt>
					<trkpt lat="49.122180" lon="2.325480">
						<ele>213</ele>
						<time>2024-05-30T14:03:17Z</time>
					</trkpt>
					<trkpt lat="49.122220" lon="2.325220">
						<ele>213</ele>
						<time>2024-05-30T14:03:20Z</time>
					</trkpt>
					<trkpt lat="49.122280" lon="2.324220">
						<ele>213</ele>
						<time>2024-05-30T14:03:32Z</time>
					</trkpt>
					<trkpt lat="49.122270" lon="2.323940">
						<ele>213</ele>
						<time>2024-05-30T14:03:35Z</time>
					</trkpt>
					<trkpt lat="49.122110" lon="2.323060">
						<ele>211</ele>
						<time>2024-05-30T14:03:46Z</time>
					</trkpt>
					<trkpt lat="49.122100" lon="2.322800">
						<ele>211</ele>
						<time>2024-05-30T14:03:49Z</time>
					</trkpt>
					<trkpt lat="49.122100" lon="2.322610">
						<ele>210</ele>
						<time>2024-05-30T14:03:51Z</time>
					</trkpt>
					<trkpt lat="49.122280" lon="2.320950">
						<ele>206</ele>
						<time>2024-05-30T14:04:11Z</time>
					</trkpt>
					<trkpt lat="49.122300" lon="2.320420">
						<ele>206</ele>
						<time>2024-05-30T14:04:17Z</time>
					</trkpt>
					<trkpt lat="49.122290" lon="2.320160">
						<ele>206</ele>
						<time>2024-05-30T14:04:20Z</time>
					</trkpt>
					<trkpt lat="49.122140" lon="2.319500">
						<ele>204</ele>
						<time>2024-05-30T14:04:28Z</time>
					</trkpt>
					<trkpt lat="49.121780" lon="2.318280">
						<ele>200</ele>
						<time>2024-05-30T14:04:44Z</time>
					</trkpt>
					<trkpt lat="49.121690" lon="2.318040">
						<ele>199</ele>
						<time>2024-05-30T14:04:47Z</time>
					</trkpt>
					<trkpt lat="49.121500" lon="2.317660">
						<ele>198</ele>
						<time>2024-05-30T14:04:53Z</time>
					</trkpt>
					<trkpt lat="49.121160" lon="2.317100">
						<ele>195</ele>
						<time>2024-05-30T14:05:01Z</time>
					</trkpt>
					<trkpt lat="49.120470" lon="2.315550">
						<ele>191</ele>
						<time>2024-05-30T14:05:23Z</time>
					</trkpt>
					<trkpt lat="49.120410" lon="2.315790">
						<ele>190</ele>
						<time>2024-05-30T14:05:26Z</time>
					</trkpt>
					<trkpt lat="49.120310" lon="2.315910">
						<ele>189</ele>
						<time>2024-05-30T14:05:29Z</time>
					</trkpt>
					<trkpt lat="49.117610" lon="2.318670">
						<ele>164</ele>
						<time>2024-05-30T14:06:26Z</time>
					</trkpt>
					<trkpt lat="49.117550" lon="2.318650">
						<ele>164</ele>
						<time>2024-05-30T14:06:27Z</time>
					</trkpt>
					<trkpt lat="49.117530" lon="2.318660">
						<ele>164</ele>
						<time>2024-05-30T14:06:28Z</time>
					</trkpt>
					<trkpt lat="49.117500" lon="2.318750">
						<ele>164</ele>
						<time>2024-05-30T14:06:29Z</time>
					</trkpt>
					<trkpt lat="49.117500" lon="2.318780">
						<ele>164</ele>
						<time>2024-05-30T14:06:29Z</time>
					</trkpt>
					<trkpt lat="49.113980" lon="2.322470">
						<ele>159</ele>
						<time>2024-05-30T14:07:45Z</time>
					</trkpt>
					<trkpt lat="49.112070" lon="2.324300">
						<ele>156</ele>
						<time>2024-05-30T14:08:25Z</time>
					</trkpt>
					<trkpt lat="49.107450" lon="2.315510">
						<ele>140</ele>
						<time>2024-05-30T14:10:37Z</time>
					</trkpt>
					<trkpt lat="49.106680" lon="2.314060">
						<ele>126</ele>
						<time>2024-05-30T14:10:58Z</time>
					</trkpt>
					<trkpt lat="49.105640" lon="2.312200">
						<ele>111</ele>
						<time>2024-05-30T14:11:27Z</time>
					</trkpt>
					<trkpt lat="49.105060" lon="2.311070">
						<ele>102</ele>
						<time>2024-05-30T14:11:44Z</time>
					</trkpt>
					<trkpt lat="49.104570" lon="2.310360">
						<ele>93</ele>
						<time>2024-05-30T14:11:56Z</time>
					</trkpt>
					<trkpt lat="49.104050" lon="2.309940">
						<ele>86</ele>
						<time>2024-05-30T14:12:06Z</time>
					</trkpt>
					<trkpt lat="49.103200" lon="2.309520">
						<ele>80</ele>
						<time>2024-05-30T14:12:22Z</time>
					</trkpt>
					<trkpt lat="49.102470" lon="2.308790">
						<ele>69</ele>
						<time>2024-05-30T14:12:38Z</time>
					</trkpt>
					<trkpt lat="49.102360" lon="2.308710">
						<ele>67</ele>
						<time>2024-05-30T14:12:40Z</time>
					</trkpt>
					<trkpt lat="49.101570" lon="2.307660">
						<ele>58</ele>
						<time>2024-05-30T14:12:58Z</time>
					</trkpt>
					<trkpt lat="49.100490" lon="2.306300">
						<ele>62</ele>
						<time>2024-05-30T14:13:23Z</time>
					</trkpt>
					<trkpt lat="49.100370" lon="2.306070">
						<ele>64</ele>
						<time>2024-05-30T14:13:27Z</time>
					</trkpt>
					<trkpt lat="49.100360" lon="2.306010">
						<ele>64</ele>
						<time>2024-05-30T14:13:27Z</time>
					</trkpt>
					<trkpt lat="49.100390" lon="2.305870">
						<ele>64</ele>
						<time>2024-05-30T14:13:29Z</time>
					</trkpt>
					<trkpt lat="49.100500" lon="2.305710">
						<ele>64</ele>
						<time>2024-05-30T14:13:32Z</time>
					</trkpt>
					<trkpt lat="49.100580" lon="2.305530">
						<ele>66</ele>
						<time>2024-05-30T14:13:34Z</time>
					</trkpt>
					<trkpt lat="49.100580" lon="2.305450">
						<ele>67</ele>
						<time>2024-05-30T14:13:35Z</time>
					</trkpt>
					<trkpt lat="49.100550" lon="2.305390">
						<ele>68</ele>
						<time>2024-05-30T14:13:36Z</time>
					</trkpt>
					<trkpt lat="49.099350" lon="2.306800">
						<ele>71</ele>
						<time>2024-05-30T14:14:03Z</time>
					</trkpt>
					<trkpt lat="49.099210" lon="2.306930">
						<ele>72</ele>
						<time>2024-05-30T14:14:06Z</time>
					</trkpt>
					<trkpt lat="49.098050" lon="2.307800">
						<ele>81</ele>
						<time>2024-05-30T14:14:29Z</time>
					</trkpt>
					<trkpt lat="49.097880" lon="2.307990">
						<ele>82</ele>
						<time>2024-05-30T14:14:33Z</time>
					</trkpt>
					<trkpt lat="49.097570" lon="2.308530">
						<ele>83</ele>
						<time>2024-05-30T14:14:41Z</time>
					</trkpt>
					<trkpt lat="49.097450" lon="2.308880">
						<ele>85</ele>
						<time>2024-05-30T14:14:46Z</time>
					</trkpt>
					<trkpt lat="49.096980" lon="2.310830">
						<ele>87</ele>
						<time>2024-05-30T14:15:10Z</time>
					</trkpt>
					<trkpt lat="49.096930" lon="2.310970">
						<ele>88</ele>
						<time>2024-05-30T14:15:12Z</time>
					</trkpt>
					<trkpt lat="49.096820" lon="2.311150">
						<ele>89</ele>
						<time>2024-05-30T14:15:15Z</time>
					</trkpt>
					<trkpt lat="49.096540" lon="2.311380">
						<ele>92</ele>
						<time>2024-05-30T14:15:20Z</time>
					</trkpt>
					<trkpt lat="49.096460" lon="2.311510">
						<ele>92</ele>
						<time>2024-05-30T14:15:22Z</time>
					</trkpt>
					<trkpt lat="49.096240" lon="2.312240">
						<ele>89</ele>
						<time>2024-05-30T14:15:32Z</time>
					</trkpt>
					<trkpt lat="49.096160" lon="2.312440">
						<ele>88</ele>
						<time>2024-05-30T14:15:35Z</time>
					</trkpt>
					<trkpt lat="49.095560" lon="2.313790">
						<ele>90</ele>
						<time>2024-05-30T14:15:54Z</time>
					</trkpt>
					<trkpt lat="49.095310" lon="2.314220">
						<ele>91</ele>
						<time>2024-05-30T14:16:00Z</time>
					</trkpt>
					<trkpt lat="49.095150" lon="2.314440">
						<ele>92</ele>
						<time>2024-05-30T14:16:04Z</time>
					</trkpt>
					<trkpt lat="49.094840" lon="2.314770">
						<ele>95</ele>
						<time>2024-05-30T14:16:11Z</time>
					</trkpt>
					<trkpt lat="49.094600" lon="2.314990">
						<ele>97</ele>
						<time>2024-05-30T14:16:16Z</time>
					</trkpt>
					<trkpt lat="49.094350" lon="2.315160">
						<ele>98</ele>
						<time>2024-05-30T14:16:21Z</time>
					</trkpt>
					<trkpt lat="49.094180" lon="2.315230">
						<ele>99</ele>
						<time>2024-05-30T14:16:24Z</time>
					</trkpt>
					<trkpt lat="49.093970" lon="2.315260">
						<ele>99</ele>
						<time>2024-05-30T14:16:28Z</time>
					</trkpt>
					<trkpt lat="49.093800" lon="2.315230">
						<ele>99</ele>
						<time>2024-05-30T14:16:31Z</time>
					</trkpt>
					<trkpt lat="49.093620" lon="2.315160">
						<ele>100</ele>
						<time>2024-05-30T14:16:34Z</time>
					</trkpt>
					<trkpt lat="49.093460" lon="2.315060">
						<ele>101</ele>
						<time>2024-05-30T14:16:37Z</time>
					</trkpt>
					<trkpt lat="49.093320" lon="2.314930">
						<ele>101</ele>
						<time>2024-05-30T14:16:40Z</time>
					</trkpt>
					<trkpt lat="49.092580" lon="2.314160">
						<ele>105</ele>
						<time>2024-05-30T14:16:56Z</time>
					</trkpt>
					<trkpt lat="49.092230" lon="2.313830">
						<ele>107</ele>
						<time>2024-05-30T14:17:03Z</time>
					</trkpt>
					<trkpt lat="49.092000" lon="2.313680">
						<ele>107</ele>
						<time>2024-05-30T14:17:08Z</time>
					</trkpt>
					<trkpt lat="49.091770" lon="2.313610">
						<ele>107</ele>
						<time>2024-05-30T14:17:12Z</time>
					</trkpt>
					<trkpt lat="49.091420" lon="2.313550">
						<ele>107</ele>
						<time>2024-05-30T14:17:18Z</time>
					</trkpt>
					<trkpt lat="49.088160" lon="2.313150">
						<ele>117</ele>
						<time>2024-05-30T14:18:16Z</time>
					</trkpt>
					<trkpt lat="49.087860" lon="2.313110">
						<ele>119</ele>
						<time>2024-05-30T14:18:22Z</time>
					</trkpt>
					<trkpt lat="49.086860" lon="2.312980">
						<ele>123</ele>
						<time>2024-05-30T14:18:39Z</time>
					</trkpt>
					<trkpt lat="49.085890" lon="2.312920">
						<ele>125</ele>
						<time>2024-05-30T14:18:57Z</time>
					</trkpt>
					<trkpt lat="49.085710" lon="2.312860">
						<ele>126</ele>
						<time>2024-05-30T14:19:00Z</time>
					</trkpt>
					<trkpt lat="49.085560" lon="2.312740">
						<ele>126</ele>
						<time>2024-05-30T14:19:03Z</time>
					</trkpt>
					<trkpt lat="49.085510" lon="2.312720">
						<ele>126</ele>
						<time>2024-05-30T14:19:04Z</time>
					</trkpt>
					<trkpt lat="49.085460" lon="2.312740">
						<ele>126</ele>
						<time>2024-05-30T14:19:05Z</time>
					</trkpt>
					<trkpt lat="49.084880" lon="2.313200">
						<ele>126</ele>
						<time>2024-05-30T14:19:16Z</time>
					</trkpt>
					<trkpt lat="49.083700" lon="2.314230">
						<ele>128</ele>
						<time>2024-05-30T14:19:41Z</time>
					</trkpt>
					<trkpt lat="49.083650" lon="2.314140">
						<ele>129</ele>
						<time>2024-05-30T14:19:42Z</time>
					</trkpt>
					<trkpt lat="49.083300" lon="2.313670">
						<ele>129</ele>
						<time>2024-05-30T14:19:50Z</time>
					</trkpt>
					<trkpt lat="49.083200" lon="2.313590">
						<ele>129</ele>
						<time>2024-05-30T14:19:52Z</time>
					</trkpt>
					<trkpt lat="49.083020" lon="2.313570">
						<ele>130</ele>
						<time>2024-05-30T14:19:56Z</time>
					</trkpt>
					<trkpt lat="49.082130" lon="2.313620">
						<ele>131</ele>
						<time>2024-05-30T14:20:11Z</time>
					</trkpt>
					<trkpt lat="49.081930" lon="2.313580">
						<ele>131</ele>
						<time>2024-05-30T14:20:15Z</time>
					</trkpt>
					<trkpt lat="49.081570" lon="2.313460">
						<ele>131</ele>
						<time>2024-05-30T14:20:22Z</time>
					</trkpt>
					<trkpt lat="49.081140" lon="2.313230">
						<ele>131</ele>
						<time>2024-05-30T14:20:30Z</time>
					</trkpt>
					<trkpt lat="49.080380" lon="2.312700">
						<ele>132</ele>
						<time>2024-05-30T14:20:45Z</time>
					</trkpt>
					<trkpt lat="49.079990" lon="2.312300">
						<ele>133</ele>
						<time>2024-05-30T14:20:53Z</time>
					</trkpt>
					<trkpt lat="49.079750" lon="2.311980">
						<ele>134</ele>
						<time>2024-05-30T14:20:59Z</time>
					</trkpt>
					<trkpt lat="49.079080" lon="2.310830">
						<ele>140</ele>
						<time>2024-05-30T14:21:16Z</time>
					</trkpt>
					<trkpt lat="49.078600" lon="2.309660">
						<ele>146</ele>
						<time>2024-05-30T14:21:33Z</time>
					</trkpt>
					<trkpt lat="49.078420" lon="2.309350">
						<ele>148</ele>
						<time>2024-05-30T14:21:37Z</time>
					</trkpt>
					<trkpt lat="49.078330" lon="2.309400">
						<ele>148</ele>
						<time>2024-05-30T14:21:39Z</time>
					</trkpt>
					<trkpt lat="49.077750" lon="2.309950">
						<ele>146</ele>
						<time>2024-05-30T14:21:51Z</time>
					</trkpt>
					<trkpt lat="49.077600" lon="2.309260">
						<ele>148</ele>
						<time>2024-05-30T14:22:00Z</time>
					</trkpt>
					<trkpt lat="49.077490" lon="2.308940">
						<ele>148</ele>
						<time>2024-05-30T14:22:04Z</time>
					</trkpt>
					<trkpt lat="49.077400" lon="2.308780">
						<ele>149</ele>
						<time>2024-05-30T14:22:06Z</time>
					</trkpt>
					<trkpt lat="49.077150" lon="2.308420">
						<ele>151</ele>
						<time>2024-05-30T14:22:13Z</time>
					</trkpt>
					<trkpt lat="49.077080" lon="2.308080">
						<ele>152</ele>
						<time>2024-05-30T14:22:17Z</time>
					</trkpt>
					<trkpt lat="49.077070" lon="2.307520">
						<ele>153</ele>
						<time>2024-05-30T14:22:23Z</time>
					</trkpt>
					<trkpt lat="49.076800" lon="2.307660">
						<ele>154</ele>
						<time>2024-05-30T14:22:28Z</time>
					</trkpt>
					<trkpt lat="49.076240" lon="2.308070">
						<ele>152</ele>
						<time>2024-05-30T14:22:39Z</time>
					</trkpt>
					<trkpt lat="49.075300" lon="2.308880">
						<ele>155</ele>
						<time>2024-05-30T14:22:59Z</time>
					</trkpt>
					<trkpt lat="49.075090" lon="2.309100">
						<ele>156</ele>
						<time>2024-05-30T14:23:03Z</time>
					</trkpt>
					<trkpt lat="49.074980" lon="2.309160">
						<ele>156</ele>
						<time>2024-05-30T14:23:05Z</time>
					</trkpt>
					<trkpt lat="49.074590" lon="2.309320">
						<ele>160</ele>
						<time>2024-05-30T14:23:12Z</time>
					</trkpt>
					<trkpt lat="49.074450" lon="2.309330">
						<ele>162</ele>
						<time>2024-05-30T14:23:15Z</time>
					</trkpt>
					<trkpt lat="49.073710" lon="2.309540">
						<ele>169</ele>
						<time>2024-05-30T14:23:28Z</time>
					</trkpt>
					<trkpt lat="49.073500" lon="2.309570">
						<ele>170</ele>
						<time>2024-05-30T14:23:32Z</time>
					</trkpt>
					<trkpt lat="49.073520" lon="2.311190">
						<ele>174</ele>
						<time>2024-05-30T14:23:51Z</time>
					</trkpt>
					<trkpt lat="49.073040" lon="2.311860">
						<ele>169</ele>
						<time>2024-05-30T14:24:02Z</time>
					</trkpt>
					<trkpt lat="49.072740" lon="2.312280">
						<ele>164</ele>
						<time>2024-05-30T14:24:10Z</time>
					</trkpt>
					<trkpt lat="49.072350" lon="2.312640">
						<ele>159</ele>
						<time>2024-05-30T14:24:18Z</time>
					</trkpt>
					<trkpt lat="49.071990" lon="2.312870">
						<ele>154</ele>
						<time>2024-05-30T14:24:25Z</time>
					</trkpt>
					<trkpt lat="49.071790" lon="2.313020">
						<ele>152</ele>
						<time>2024-05-30T14:24:29Z</time>
					</trkpt>
					<trkpt lat="49.071720" lon="2.313150">
						<ele>151</ele>
						<time>2024-05-30T14:24:31Z</time>
					</trkpt>
					<trkpt lat="49.071570" lon="2.313490">
						<ele>148</ele>
						<time>2024-05-30T14:24:35Z</time>
					</trkpt>
					<trkpt lat="49.071520" lon="2.313540">
						<ele>147</ele>
						<time>2024-05-30T14:24:36Z</time>
					</trkpt>
					<trkpt lat="49.070520" lon="2.314010">
						<ele>137</ele>
						<time>2024-05-30T14:24:55Z</time>
					</trkpt>
					<trkpt lat="49.070050" lon="2.314950">
						<ele>131</ele>
						<time>2024-05-30T14:25:09Z</time>
					</trkpt>
					<trkpt lat="49.066940" lon="2.320750">
						<ele>114</ele>
						<time>2024-05-30T14:26:36Z</time>
					</trkpt>
					<trkpt lat="49.065540" lon="2.320140">
						<ele>110</ele>
						<time>2024-05-30T14:27:02Z</time>
					</trkpt>
					<trkpt lat="49.065420" lon="2.320200">
						<ele>110</ele>
						<time>2024-05-30T14:27:04Z</time>
					</trkpt>
					<trkpt lat="49.065180" lon="2.320250">
						<ele>109</ele>
						<time>2024-05-30T14:27:09Z</time>
					</trkpt>
					<trkpt lat="49.065020" lon="2.320310">
						<ele>108</ele>
						<time>2024-05-30T14:27:12Z</time>
					</trkpt>
					<trkpt lat="49.064930" lon="2.320370">
						<ele>108</ele>
						<time>2024-05-30T14:27:13Z</time>
					</trkpt>
					<trkpt lat="49.064740" lon="2.320670">
						<ele>108</ele>
						<time>2024-05-30T14:27:18Z</time>
					</trkpt>
					<trkpt lat="49.064340" lon="2.320350">
						<ele>106</ele>
						<time>2024-05-30T14:27:26Z</time>
					</trkpt>
					<trkpt lat="49.064240" lon="2.320370">
						<ele>106</ele>
						<time>2024-05-30T14:27:28Z</time>
					</trkpt>
					<trkpt lat="49.064200" lon="2.320410">
						<ele>106</ele>
						<time>2024-05-30T14:27:29Z</time>
					</trkpt>
					<trkpt lat="49.064060" lon="2.322470">
						<ele>107</ele>
						<time>2024-05-30T14:27:53Z</time>
					</trkpt>
					<trkpt lat="49.063920" lon="2.323490">
						<ele>105</ele>
						<time>2024-05-30T14:28:05Z</time>
					</trkpt>
					<trkpt lat="49.063870" lon="2.323540">
						<ele>105</ele>
						<time>2024-05-30T14:28:06Z</time>
					</trkpt>
					<trkpt lat="49.063840" lon="2.323630">
						<ele>105</ele>
						<time>2024-05-30T14:28:07Z</time>
					</trkpt>
					<trkpt lat="49.063330" lon="2.323580">
						<ele>103</ele>
						<time>2024-05-30T14:28:17Z</time>
					</trkpt>
					<trkpt lat="49.063050" lon="2.323530">
						<ele>102</ele>
						<time>2024-05-30T14:28:22Z</time>
					</trkpt>
					<trkpt lat="49.062990" lon="2.323490">
						<ele>102</ele>
						<time>2024-05-30T14:28:23Z</time>
					</trkpt>
					<trkpt lat="49.062910" lon="2.323350">
						<ele>102</ele>
						<time>2024-05-30T14:28:25Z</time>
					</trkpt>
					<trkpt lat="49.062750" lon="2.322180">
						<ele>103</ele>
						<time>2024-05-30T14:28:39Z</time>
					</trkpt>
					<trkpt lat="49.062640" lon="2.322210">
						<ele>103</ele>
						<time>2024-05-30T14:28:41Z</time>
					</trkpt>
					<trkpt lat="49.062430" lon="2.322440">
						<ele>102</ele>
						<time>2024-05-30T14:28:45Z</time>
					</trkpt>
					<trkpt lat="49.062330" lon="2.322470">
						<ele>102</ele>
						<time>2024-05-30T14:28:47Z</time>
					</trkpt>
					<trkpt lat="49.061870" lon="2.322560">
						<ele>103</ele>
						<time>2024-05-30T14:28:55Z</time>
					</trkpt>
					<trkpt lat="49.061620" lon="2.322600">
						<ele>103</ele>
						<time>2024-05-30T14:29:00Z</time>
					</trkpt>
					<trkpt lat="49.061750" lon="2.320560">
						<ele>105</ele>
						<time>2024-05-30T14:29:24Z</time>
					</trkpt>
					<trkpt lat="49.061760" lon="2.319160">
						<ele>107</ele>
						<time>2024-05-30T14:29:40Z</time>
					</trkpt>
					<trkpt lat="49.061650" lon="2.316390">
						<ele>108</ele>
						<time>2024-05-30T14:30:13Z</time>
					</trkpt>
					<trkpt lat="49.061590" lon="2.315320">
						<ele>109</ele>
						<time>2024-05-30T14:30:25Z</time>
					</trkpt>
					<trkpt lat="49.061480" lon="2.314270">
						<ele>110</ele>
						<time>2024-05-30T14:30:37Z</time>
					</trkpt>
					<trkpt lat="49.061320" lon="2.313180">
						<ele>111</ele>
						<time>2024-05-30T14:30:50Z</time>
					</trkpt>
					<trkpt lat="49.061130" lon="2.312090">
						<ele>110</ele>
						<time>2024-05-30T14:31:04Z</time>
					</trkpt>
					<trkpt lat="49.060940" lon="2.311230">
						<ele>108</ele>
						<time>2024-05-30T14:31:14Z</time>
					</trkpt>
					<trkpt lat="49.060830" lon="2.310890">
						<ele>108</ele>
						<time>2024-05-30T14:31:19Z</time>
					</trkpt>
					<trkpt lat="49.060390" lon="2.309700">
						<ele>104</ele>
						<time>2024-05-30T14:31:35Z</time>
					</trkpt>
					<trkpt lat="49.060270" lon="2.309020">
						<ele>104</ele>
						<time>2024-05-30T14:31:43Z</time>
					</trkpt>
					<trkpt lat="49.060070" lon="2.308190">
						<ele>103</ele>
						<time>2024-05-30T14:31:53Z</time>
					</trkpt>
					<trkpt lat="49.058890" lon="2.303870">
						<ele>99</ele>
						<time>2024-05-30T14:32:48Z</time>
					</trkpt>
					<trkpt lat="49.058580" lon="2.302780">
						<ele>99</ele>
						<time>2024-05-30T14:33:02Z</time>
					</trkpt>
					<trkpt lat="49.058260" lon="2.301760">
						<ele>99</ele>
						<time>2024-05-30T14:33:15Z</time>
					</trkpt>
					<trkpt lat="49.058110" lon="2.301090">
						<ele>100</ele>
						<time>2024-05-30T14:33:23Z</time>
					</trkpt>
					<trkpt lat="49.057650" lon="2.299420">
						<ele>101</ele>
						<time>2024-05-30T14:33:44Z</time>
					</trkpt>
					<trkpt lat="49.057530" lon="2.298930">
						<ele>100</ele>
						<time>2024-05-30T14:33:50Z</time>
					</trkpt>
					<trkpt lat="49.057190" lon="2.297170">
						<ele>103</ele>
						<time>2024-05-30T14:34:12Z</time>
					</trkpt>
					<trkpt lat="49.057150" lon="2.297070">
						<ele>103</ele>
						<time>2024-05-30T14:34:13Z</time>
					</trkpt>
					<trkpt lat="49.057070" lon="2.297140">
						<ele>103</ele>
						<time>2024-05-30T14:34:15Z</time>
					</trkpt>
					<trkpt lat="49.056850" lon="2.297150">
						<ele>103</ele>
						<time>2024-05-30T14:34:18Z</time>
					</trkpt>
					<trkpt lat="49.056430" lon="2.297150">
						<ele>103</ele>
						<time>2024-05-30T14:34:26Z</time>
					</trkpt>
					<trkpt lat="49.054480" lon="2.297070">
						<ele>105</ele>
						<time>2024-05-30T14:35:01Z</time>
					</trkpt>
					<trkpt lat="49.054220" lon="2.297090">
						<ele>104</ele>
						<time>2024-05-30T14:35:05Z</time>
					</trkpt>
					<trkpt lat="49.054090" lon="2.297130">
						<ele>104</ele>
						<time>2024-05-30T14:35:08Z</time>
					</trkpt>
					<trkpt lat="49.052890" lon="2.297980">
						<ele>103</ele>
						<time>2024-05-30T14:35:31Z</time>
					</trkpt>
					<trkpt lat="49.052000" lon="2.298620">
						<ele>105</ele>
						<time>2024-05-30T14:35:49Z</time>
					</trkpt>
					<trkpt lat="49.051200" lon="2.299460">
						<ele>105</ele>
						<time>2024-05-30T14:36:06Z</time>
					</trkpt>
					<trkpt lat="49.051030" lon="2.299580">
						<ele>105</ele>
						<time>2024-05-30T14:36:09Z</time>
					</trkpt>
					<trkpt lat="49.050300" lon="2.299880">
						<ele>107</ele>
						<time>2024-05-30T14:36:23Z</time>
					</trkpt>
					<trkpt lat="49.048780" lon="2.300790">
						<ele>113</ele>
						<time>2024-05-30T14:36:52Z</time>
					</trkpt>
					<trkpt lat="49.048720" lon="2.300800">
						<ele>113</ele>
						<time>2024-05-30T14:36:53Z</time>
					</trkpt>
					<trkpt lat="49.048580" lon="2.300720">
						<ele>115</ele>
						<time>2024-05-30T14:36:56Z</time>
					</trkpt>
					<trkpt lat="49.048470" lon="2.300580">
						<ele>116</ele>
						<time>2024-05-30T14:36:58Z</time>
					</trkpt>
					<trkpt lat="49.046600" lon="2.298150">
						<ele>117</ele>
						<time>2024-05-30T14:37:42Z</time>
					</trkpt>
					<trkpt lat="49.045810" lon="2.297450">
						<ele>121</ele>
						<time>2024-05-30T14:37:58Z</time>
					</trkpt>
					<trkpt lat="49.045770" lon="2.297530">
						<ele>121</ele>
						<time>2024-05-30T14:37:59Z</time>
					</trkpt>
					<trkpt lat="49.045730" lon="2.297540">
						<ele>121</ele>
						<time>2024-05-30T14:38:00Z</time>
					</trkpt>
					<trkpt lat="49.045390" lon="2.298070">
						<ele>119</ele>
						<time>2024-05-30T14:38:09Z</time>
					</trkpt>
					<trkpt lat="49.045920" lon="2.298600">
						<ele>117</ele>
						<time>2024-05-30T14:38:20Z</time>
					</trkpt>
					<trkpt lat="49.045940" lon="2.298650">
						<ele>117</ele>
						<time>2024-05-30T14:38:21Z</time>
					</trkpt>
					<trkpt lat="49.045940" lon="2.298720">
						<ele>116</ele>
						<time>2024-05-30T14:38:21Z</time>
					</trkpt>
					<trkpt lat="49.045360" lon="2.299920">
						<ele>113</ele>
						<time>2024-05-30T14:38:39Z</time>
					</trkpt>
					<trkpt lat="49.045290" lon="2.300010">
						<ele>113</ele>
						<time>2024-05-30T14:38:40Z</time>
					</trkpt>
					<trkpt lat="49.045170" lon="2.300100">
						<ele>113</ele>
						<time>2024-05-30T14:38:43Z</time>
					</trkpt>
					<trkpt lat="49.044930" lon="2.300230">
						<ele>113</ele>
						<time>2024-05-30T14:38:47Z</time>
					</trkpt>
					<trkpt lat="49.044820" lon="2.300320">
						<ele>113</ele>
						<time>2024-05-30T14:38:50Z</time>
					</trkpt>
					<trkpt lat="49.044570" lon="2.300600">
						<ele>114</ele>
						<time>2024-05-30T14:38:55Z</time>
					</trkpt>
					<trkpt lat="49.044440" lon="2.300760">
						<ele>115</ele>
						<time>2024-05-30T14:38:58Z</time>
					</trkpt>
					<trkpt lat="49.044360" lon="2.301000">
						<ele>115</ele>
						<time>2024-05-30T14:39:01Z</time>
					</trkpt>
					<trkpt lat="49.044180" lon="2.301730">
						<ele>115</ele>
						<time>2024-05-30T14:39:10Z</time>
					</trkpt>
					<trkpt lat="49.044140" lon="2.301850">
						<ele>115</ele>
						<time>2024-05-30T14:39:12Z</time>
					</trkpt>
					<trkpt lat="49.043590" lon="2.302680">
						<ele>112</ele>
						<time>2024-05-30T14:39:26Z</time>
					</trkpt>
					<trkpt lat="49.043400" lon="2.302950">
						<ele>111</ele>
						<time>2024-05-30T14:39:30Z</time>
					</trkpt>
					<trkpt lat="49.043220" lon="2.302500">
						<ele>113</ele>
						<time>2024-05-30T14:39:36Z</time>
					</trkpt>
					<trkpt lat="49.043030" lon="2.302130">
						<ele>115</ele>
						<time>2024-05-30T14:39:42Z</time>
					</trkpt>
					<trkpt lat="49.042840" lon="2.301820">
						<ele>116</ele>
						<time>2024-05-30T14:39:47Z</time>
					</trkpt>
					<trkpt lat="49.042760" lon="2.302890">
						<ele>115</ele>
						<time>2024-05-30T14:39:59Z</time>
					</trkpt>
					<trkpt lat="49.042690" lon="2.303320">
						<ele>114</ele>
						<time>2024-05-30T14:40:05Z</time>
					</trkpt>
					<trkpt lat="49.042480" lon="2.304090">
						<ele>114</ele>
						<time>2024-05-30T14:40:14Z</time>
					</trkpt>
					<trkpt lat="49.042450" lon="2.304260">
						<ele>115</ele>
						<time>2024-05-30T14:40:16Z</time>
					</trkpt>
					<trkpt lat="49.042320" lon="2.304670">
						<ele>116</ele>
						<time>2024-05-30T14:40:22Z</time>
					</trkpt>
					<trkpt lat="49.041950" lon="2.306000">
						<ele>121</ele>
						<time>2024-05-30T14:40:38Z</time>
					</trkpt>
					<trkpt lat="49.041890" lon="2.306370">
						<ele>121</ele>
						<time>2024-05-30T14:40:43Z</time>
					</trkpt>
					<trkpt lat="49.041850" lon="2.306460">
						<ele>121</ele>
						<time>2024-05-30T14:40:44Z</time>
					</trkpt>
					<trkpt lat="49.041330" lon="2.307360">
						<ele>120</ele>
						<time>2024-05-30T14:40:58Z</time>
					</trkpt>
					<trkpt lat="49.041240" lon="2.307550">
						<ele>119</ele>
						<time>2024-05-30T14:41:01Z</time>
					</trkpt>
					<trkpt lat="49.041100" lon="2.307920">
						<ele>117</ele>
						<time>2024-05-30T14:41:06Z</time>
					</trkpt>
					<trkpt lat="49.040650" lon="2.309240">
						<ele>114</ele>
						<time>2024-05-30T14:41:23Z</time>
					</trkpt>
					<trkpt lat="49.040540" lon="2.309520">
						<ele>114</ele>
						<time>2024-05-30T14:41:27Z</time>
					</trkpt>
					<trkpt lat="49.040370" lon="2.309870">
						<ele>114</ele>
						<time>2024-05-30T14:41:32Z</time>
					</trkpt>
					<trkpt lat="49.040280" lon="2.309990">
						<ele>115</ele>
						<time>2024-05-30T14:41:34Z</time>
					</trkpt>
					<trkpt lat="49.040000" lon="2.310250">
						<ele>115</ele>
						<time>2024-05-30T14:41:40Z</time>
					</trkpt>
					<trkpt lat="49.039350" lon="2.310670">
						<ele>113</ele>
						<time>2024-05-30T14:41:53Z</time>
					</trkpt>
					<trkpt lat="49.038810" lon="2.311070">
						<ele>114</ele>
						<time>2024-05-30T14:42:03Z</time>
					</trkpt>
					<trkpt lat="49.038490" lon="2.311320">
						<ele>115</ele>
						<time>2024-05-30T14:42:10Z</time>
					</trkpt>
					<trkpt lat="49.037770" lon="2.311960">
						<ele>114</ele>
						<time>2024-05-30T14:42:25Z</time>
					</trkpt>
					<trkpt lat="49.037420" lon="2.312230">
						<ele>114</ele>
						<time>2024-05-30T14:42:32Z</time>
					</trkpt>
					<trkpt lat="49.037150" lon="2.312060">
						<ele>115</ele>
						<time>2024-05-30T14:42:37Z</time>
					</trkpt>
					<trkpt lat="49.036890" lon="2.311960">
						<ele>116</ele>
						<time>2024-05-30T14:42:42Z</time>
					</trkpt>
					<trkpt lat="49.033670" lon="2.310930">
						<ele>131</ele>
						<time>2024-05-30T14:43:40Z</time>
					</trkpt>
					<trkpt lat="49.033220" lon="2.310670">
						<ele>136</ele>
						<time>2024-05-30T14:43:49Z</time>
					</trkpt>
					<trkpt lat="49.033090" lon="2.310580">
						<ele>138</ele>
						<time>2024-05-30T14:43:51Z</time>
					</trkpt>
					<trkpt lat="49.032710" lon="2.310200">
						<ele>143</ele>
						<time>2024-05-30T14:43:59Z</time>
					</trkpt>
					<trkpt lat="49.032450" lon="2.309900">
						<ele>146</ele>
						<time>2024-05-30T14:44:05Z</time>
					</trkpt>
					<trkpt lat="49.031520" lon="2.308470">
						<ele>153</ele>
						<time>2024-05-30T14:44:29Z</time>
					</trkpt>
					<trkpt lat="49.031360" lon="2.308330">
						<ele>153</ele>
						<time>2024-05-30T14:44:32Z</time>
					</trkpt>
					<trkpt lat="49.031200" lon="2.308220">
						<ele>154</ele>
						<time>2024-05-30T14:44:35Z</time>
					</trkpt>
					<trkpt lat="49.031070" lon="2.308170">
						<ele>155</ele>
						<time>2024-05-30T14:44:37Z</time>
					</trkpt>
					<trkpt lat="49.030870" lon="2.308160">
						<ele>155</ele>
						<time>2024-05-30T14:44:41Z</time>
					</trkpt>
					<trkpt lat="49.030680" lon="2.308190">
						<ele>156</ele>
						<time>2024-05-30T14:44:44Z</time>
					</trkpt>
					<trkpt lat="49.030530" lon="2.308270">
						<ele>156</ele>
						<time>2024-05-30T14:44:47Z</time>
					</trkpt>
					<trkpt lat="49.029580" lon="2.309300">
						<ele>159</ele>
						<time>2024-05-30T14:45:08Z</time>
					</trkpt>
					<trkpt lat="49.029170" lon="2.309830">
						<ele>158</ele>
						<time>2024-05-30T14:45:17Z</time>
					</trkpt>
					<trkpt lat="49.028820" lon="2.310130">
						<ele>158</ele>
						<time>2024-05-30T14:45:25Z</time>
					</trkpt>
					<trkpt lat="49.028640" lon="2.310300">
						<ele>158</ele>
						<time>2024-05-30T14:45:28Z</time>
					</trkpt>
					<trkpt lat="49.028480" lon="2.310550">
						<ele>157</ele>
						<time>2024-05-30T14:45:32Z</time>
					</trkpt>
					<trkpt lat="49.028200" lon="2.311230">
						<ele>156</ele>
						<time>2024-05-30T14:45:42Z</time>
					</trkpt>
					<trkpt lat="49.028100" lon="2.311420">
						<ele>156</ele>
						<time>2024-05-30T14:45:45Z</time>
					</trkpt>
					<trkpt lat="49.027870" lon="2.311710">
						<ele>154</ele>
						<time>2024-05-30T14:45:50Z</time>
					</trkpt>
					<trkpt lat="49.027730" lon="2.311820">
						<ele>154</ele>
						<time>2024-05-30T14:45:53Z</time>
					</trkpt>
					<trkpt lat="49.027520" lon="2.311940">
						<ele>154</ele>
						<time>2024-05-30T14:45:57Z</time>
					</trkpt>
					<trkpt lat="49.027380" lon="2.311980">
						<ele>153</ele>
						<time>2024-05-30T14:45:59Z</time>
					</trkpt>
					<trkpt lat="49.027140" lon="2.311990">
						<ele>153</ele>
						<time>2024-05-30T14:46:04Z</time>
					</trkpt>
					<trkpt lat="49.026860" lon="2.311950">
						<ele>152</ele>
						<time>2024-05-30T14:46:09Z</time>
					</trkpt>
					<trkpt lat="49.026610" lon="2.311860">
						<ele>151</ele>
						<time>2024-05-30T14:46:13Z</time>
					</trkpt>
					<trkpt lat="49.026330" lon="2.311540">
						<ele>149</ele>
						<time>2024-05-30T14:46:19Z</time>
					</trkpt>
					<trkpt lat="49.026220" lon="2.311440">
						<ele>148</ele>
						<time>2024-05-30T14:46:22Z</time>
					</trkpt>
					<trkpt lat="49.026170" lon="2.311350">
						<ele>148</ele>
						<time>2024-05-30T14:46:23Z</time>
					</trkpt>
					<trkpt lat="49.026110" lon="2.311300">
						<ele>147</ele>
						<time>2024-05-30T14:46:24Z</time>
					</trkpt>
					<trkpt lat="49.026060" lon="2.311340">
						<ele>147</ele>
						<time>2024-05-30T14:46:25Z</time>
					</trkpt>
					<trkpt lat="49.025930" lon="2.311590">
						<ele>146</ele>
						<time>2024-05-30T14:46:29Z</time>
					</trkpt>
					<trkpt lat="49.025700" lon="2.312320">
						<ele>148</ele>
						<time>2024-05-30T14:46:38Z</time>
					</trkpt>
					<trkpt lat="49.025580" lon="2.312770">
						<ele>148</ele>
						<time>2024-05-30T14:46:44Z</time>
					</trkpt>
					<trkpt lat="49.025300" lon="2.314030">
						<ele>151</ele>
						<time>2024-05-30T14:47:00Z</time>
					</trkpt>
					<trkpt lat="49.025220" lon="2.314560">
						<ele>152</ele>
						<time>2024-05-30T14:47:06Z</time>
					</trkpt>
					<trkpt lat="49.025170" lon="2.315090">
						<ele>153</ele>
						<time>2024-05-30T14:47:12Z</time>
					</trkpt>
					<trkpt lat="49.025140" lon="2.316380">
						<ele>153</ele>
						<time>2024-05-30T14:47:27Z</time>
					</trkpt>
					<trkpt lat="49.025050" lon="2.316920">
						<ele>153</ele>
						<time>2024-05-30T14:47:34Z</time>
					</trkpt>
					<trkpt lat="49.025030" lon="2.317300">
						<ele>153</ele>
						<time>2024-05-30T14:47:38Z</time>
					</trkpt>
					<trkpt lat="49.025050" lon="2.318630">
						<ele>149</ele>
						<time>2024-05-30T14:47:54Z</time>
					</trkpt>
					<trkpt lat="49.025040" lon="2.319000">
						<ele>148</ele>
						<time>2024-05-30T14:47:58Z</time>
					</trkpt>
					<trkpt lat="49.024920" lon="2.319810">
						<ele>144</ele>
						<time>2024-05-30T14:48:08Z</time>
					</trkpt>
					<trkpt lat="49.024900" lon="2.320010">
						<ele>143</ele>
						<time>2024-05-30T14:48:10Z</time>
					</trkpt>
					<trkpt lat="49.024910" lon="2.320280">
						<ele>143</ele>
						<time>2024-05-30T14:48:13Z</time>
					</trkpt>
					<trkpt lat="49.025080" lon="2.321100">
						<ele>140</ele>
						<time>2024-05-30T14:48:23Z</time>
					</trkpt>
					<trkpt lat="49.025120" lon="2.321180">
						<ele>140</ele>
						<time>2024-05-30T14:48:24Z</time>
					</trkpt>
					<trkpt lat="49.025140" lon="2.321380">
						<ele>139</ele>
						<time>2024-05-30T14:48:27Z</time>
					</trkpt>
					<trkpt lat="49.025180" lon="2.321500">
						<ele>139</ele>
						<time>2024-05-30T14:48:28Z</time>
					</trkpt>
					<trkpt lat="49.025180" lon="2.321600">
						<ele>139</ele>
						<time>2024-05-30T14:48:29Z</time>
					</trkpt>
					<trkpt lat="49.025260" lon="2.322090">
						<ele>139</ele>
						<time>2024-05-30T14:48:35Z</time>
					</trkpt>
					<trkpt lat="49.025290" lon="2.322460">
						<ele>140</ele>
						<time>2024-05-30T14:48:40Z</time>
					</trkpt>
					<trkpt lat="49.025290" lon="2.323130">
						<ele>142</ele>
						<time>2024-05-30T14:48:48Z</time>
					</trkpt>
					<trkpt lat="49.025280" lon="2.323260">
						<ele>143</ele>
						<time>2024-05-30T14:48:49Z</time>
					</trkpt>
					<trkpt lat="49.025020" lon="2.324490">
						<ele>149</ele>
						<time>2024-05-30T14:49:04Z</time>
					</trkpt>
					<trkpt lat="49.024960" lon="2.324700">
						<ele>151</ele>
						<time>2024-05-30T14:49:07Z</time>
					</trkpt>
					<trkpt lat="49.024740" lon="2.325640">
						<ele>153</ele>
						<time>2024-05-30T14:49:18Z</time>
					</trkpt>
					<trkpt lat="49.023840" lon="2.324540">
						<ele>160</ele>
						<time>2024-05-30T14:49:39Z</time>
					</trkpt>
					<trkpt lat="49.023460" lon="2.324170">
						<ele>165</ele>
						<time>2024-05-30T14:49:47Z</time>
					</trkpt>
					<trkpt lat="49.023350" lon="2.324130">
						<ele>166</ele>
						<time>2024-05-30T14:49:49Z</time>
					</trkpt>
					<trkpt lat="49.023350" lon="2.324080">
						<ele>166</ele>
						<time>2024-05-30T14:49:50Z</time>
					</trkpt>
					<trkpt lat="49.023320" lon="2.324000">
						<ele>166</ele>
						<time>2024-05-30T14:49:51Z</time>
					</trkpt>
					<trkpt lat="49.023290" lon="2.323980">
						<ele>167</ele>
						<time>2024-05-30T14:49:51Z</time>
					</trkpt>
					<trkpt lat="49.023230" lon="2.323970">
						<ele>167</ele>
						<time>2024-05-30T14:49:52Z</time>
					</trkpt>
					<trkpt lat="49.023110" lon="2.323910">
						<ele>168</ele>
						<time>2024-05-30T14:49:55Z</time>
					</trkpt>
					<trkpt lat="49.022750" lon="2.323560">
						<ele>171</ele>
						<time>2024-05-30T14:50:02Z</time>
					</trkpt>
					<trkpt lat="49.022460" lon="2.323230">
						<ele>174</ele>
						<time>2024-05-30T14:50:09Z</time>
					</trkpt>
					<trkpt lat="49.021870" lon="2.322420">
						<ele>178</ele>
						<time>2024-05-30T14:50:23Z</time>
					</trkpt>
					<trkpt lat="49.020770" lon="2.321170">
						<ele>182</ele>
						<time>2024-05-30T14:50:47Z</time>
					</trkpt>
					<trkpt lat="49.020640" lon="2.320990">
						<ele>182</ele>
						<time>2024-05-30T14:50:50Z</time>
					</trkpt>
					<trkpt lat="49.020060" lon="2.319230">
						<ele>187</ele>
						<time>2024-05-30T14:51:13Z</time>
					</trkpt>
					<trkpt lat="49.019440" lon="2.317970">
						<ele>183</ele>
						<time>2024-05-30T14:51:32Z</time>
					</trkpt>
					<trkpt lat="49.018900" lon="2.316960">
						<ele>183</ele>
						<time>2024-05-30T14:51:47Z</time>
					</trkpt>
					<trkpt lat="49.018260" lon="2.315410">
						<ele>184</ele>
						<time>2024-05-30T14:52:08Z</time>
					</trkpt>
					<trkpt lat="49.017910" lon="2.314640">
						<ele>184</ele>
						<time>2024-05-30T14:52:19Z</time>
					</trkpt>
					<trkpt lat="49.017630" lon="2.314130">
						<ele>184</ele>
						<time>2024-05-30T14:52:27Z</time>
					</trkpt>
					<trkpt lat="49.017500" lon="2.313960">
						<ele>183</ele>
						<time>2024-05-30T14:52:30Z</time>
					</trkpt>
					<trkpt lat="49.017060" lon="2.313500">
						<ele>181</ele>
						<time>2024-05-30T14:52:39Z</time>
					</trkpt>
					<trkpt lat="49.016770" lon="2.313230">
						<ele>180</ele>
						<time>2024-05-30T14:52:46Z</time>
					</trkpt>
					<trkpt lat="49.016530" lon="2.313030">
						<ele>179</ele>
						<time>2024-05-30T14:52:50Z</time>
					</trkpt>
					<trkpt lat="49.016300" lon="2.312890">
						<ele>178</ele>
						<time>2024-05-30T14:52:55Z</time>
					</trkpt>
					<trkpt lat="49.016000" lon="2.312770">
						<ele>177</ele>
						<time>2024-05-30T14:53:00Z</time>
					</trkpt>
					<trkpt lat="49.015810" lon="2.312740">
						<ele>176</ele>
						<time>2024-05-30T14:53:04Z</time>
					</trkpt>
					<trkpt lat="49.015390" lon="2.312710">
						<ele>175</ele>
						<time>2024-05-30T14:53:11Z</time>
					</trkpt>
					<trkpt lat="49.014700" lon="2.312750">
						<ele>175</ele>
						<time>2024-05-30T14:53:23Z</time>
					</trkpt>
					<trkpt lat="49.014470" lon="2.312700">
						<ele>176</ele>
						<time>2024-05-30T14:53:28Z</time>
					</trkpt>
					<trkpt lat="49.014060" lon="2.312470">
						<ele>176</ele>
						<time>2024-05-30T14:53:35Z</time>
					</trkpt>
					<trkpt lat="49.013280" lon="2.311860">
						<ele>173</ele>
						<time>2024-05-30T14:53:51Z</time>
					</trkpt>
					<trkpt lat="49.012870" lon="2.311630">
						<ele>173</ele>
						<time>2024-05-30T14:53:59Z</time>
					</trkpt>
					<trkpt lat="49.012020" lon="2.311400">
						<ele>170</ele>
						<time>2024-05-30T14:54:14Z</time>
					</trkpt>
					<trkpt lat="49.011800" lon="2.311410">
						<ele>169</ele>
						<time>2024-05-30T14:54:18Z</time>
					</trkpt>
					<trkpt lat="49.011580" lon="2.311530">
						<ele>168</ele>
						<time>2024-05-30T14:54:22Z</time>
					</trkpt>
					<trkpt lat="49.011240" lon="2.311900">
						<ele>166</ele>
						<time>2024-05-30T14:54:30Z</time>
					</trkpt>
					<trkpt lat="49.011040" lon="2.312030">
						<ele>165</ele>
						<time>2024-05-30T14:54:33Z</time>
					</trkpt>
					<trkpt lat="49.010370" lon="2.312210">
						<ele>165</ele>
						<time>2024-05-30T14:54:46Z</time>
					</trkpt>
					<trkpt lat="49.009940" lon="2.312240">
						<ele>165</ele>
						<time>2024-05-30T14:54:53Z</time>
					</trkpt>
					<trkpt lat="49.009720" lon="2.312300">
						<ele>165</ele>
						<time>2024-05-30T14:54:57Z</time>
					</trkpt>
					<trkpt lat="49.009550" lon="2.312450">
						<ele>165</ele>
						<time>2024-05-30T14:55:01Z</time>
					</trkpt>
					<trkpt lat="49.009430" lon="2.312590">
						<ele>165</ele>
						<time>2024-05-30T14:55:03Z</time>
					</trkpt>
					<trkpt lat="49.008900" lon="2.313270">
						<ele>166</ele>
						<time>2024-05-30T14:55:16Z</time>
					</trkpt>
					<trkpt lat="49.008730" lon="2.313420">
						<ele>166</ele>
						<time>2024-05-30T14:55:19Z</time>
					</trkpt>
					<trkpt lat="49.007840" lon="2.314030">
						<ele>167</ele>
						<time>2024-05-30T14:55:37Z</time>
					</trkpt>
					<trkpt lat="49.007290" lon="2.314630">
						<ele>167</ele>
						<time>2024-05-30T14:55:49Z</time>
					</trkpt>
					<trkpt lat="49.007190" lon="2.314780">
						<ele>167</ele>
						<time>2024-05-30T14:55:51Z</time>
					</trkpt>
					<trkpt lat="49.007090" lon="2.314870">
						<ele>167</ele>
						<time>2024-05-30T14:55:53Z</time>
					</trkpt>
					<trkpt lat="49.007020" lon="2.314920">
						<ele>167</ele>
						<time>2024-05-30T14:55:55Z</time>
					</trkpt>
					<trkpt lat="49.006890" lon="2.315070">
						<ele>167</ele>
						<time>2024-05-30T14:55:57Z</time>
					</trkpt>
					<trkpt lat="49.006860" lon="2.315140">
						<ele>167</ele>
						<time>2024-05-30T14:55:58Z</time>
					</trkpt>
					<trkpt lat="49.006120" lon="2.315960">
						<ele>167</ele>
						<time>2024-05-30T14:56:15Z</time>
					</trkpt>
					<trkpt lat="49.005220" lon="2.317240">
						<ele>168</ele>
						<time>2024-05-30T14:56:37Z</time>
					</trkpt>
					<trkpt lat="49.004960" lon="2.317530">
						<ele>168</ele>
						<time>2024-05-30T14:56:42Z</time>
					</trkpt>
					<trkpt lat="49.003880" lon="2.318390">
						<ele>168</ele>
						<time>2024-05-30T14:57:04Z</time>
					</trkpt>
					<trkpt lat="49.003310" lon="2.318820">
						<ele>169</ele>
						<time>2024-05-30T14:57:15Z</time>
					</trkpt>
					<trkpt lat="49.003010" lon="2.318970">
						<ele>168</ele>
						<time>2024-05-30T14:57:21Z</time>
					</trkpt>
					<trkpt lat="49.002250" lon="2.319090">
						<ele>168</ele>
						<time>2024-05-30T14:57:35Z</time>
					</trkpt>
					<trkpt lat="49.002010" lon="2.319180">
						<ele>168</ele>
						<time>2024-05-30T14:57:39Z</time>
					</trkpt>
					<trkpt lat="49.001800" lon="2.319290">
						<ele>168</ele>
						<time>2024-05-30T14:57:43Z</time>
					</trkpt>
					<trkpt lat="49.001080" lon="2.319940">
						<ele>168</ele>
						<time>2024-05-30T14:57:58Z</time>
					</trkpt>
					<trkpt lat="49.000950" lon="2.320060">
						<ele>168</ele>
						<time>2024-05-30T14:58:00Z</time>
					</trkpt>
					<trkpt lat="49.000830" lon="2.320230">
						<ele>169</ele>
						<time>2024-05-30T14:58:03Z</time>
					</trkpt>
					<trkpt lat="49.000770" lon="2.320260">
						<ele>169</ele>
						<time>2024-05-30T14:58:05Z</time>
					</trkpt>
					<trkpt lat="49.000710" lon="2.320290">
						<ele>169</ele>
						<time>2024-05-30T14:58:06Z</time>
					</trkpt>
					<trkpt lat="49.000600" lon="2.320490">
						<ele>170</ele>
						<time>2024-05-30T14:58:09Z</time>
					</trkpt>
					<trkpt lat="49.000060" lon="2.321250">
						<ele>172</ele>
						<time>2024-05-30T14:58:22Z</time>
					</trkpt>
					<trkpt lat="48.999860" lon="2.321560">
						<ele>172</ele>
						<time>2024-05-30T14:58:27Z</time>
					</trkpt>
					<trkpt lat="48.999790" lon="2.321660">
						<ele>172</ele>
						<time>2024-05-30T14:58:29Z</time>
					</trkpt>
					<trkpt lat="48.999750" lon="2.321690">
						<ele>172</ele>
						<time>2024-05-30T14:58:29Z</time>
					</trkpt>
					<trkpt lat="48.999610" lon="2.321850">
						<ele>172</ele>
						<time>2024-05-30T14:58:32Z</time>
					</trkpt>
					<trkpt lat="48.999310" lon="2.321960">
						<ele>172</ele>
						<time>2024-05-30T14:58:38Z</time>
					</trkpt>
					<trkpt lat="48.998390" lon="2.322110">
						<ele>172</ele>
						<time>2024-05-30T14:58:54Z</time>
					</trkpt>
					<trkpt lat="48.998230" lon="2.322110">
						<ele>171</ele>
						<time>2024-05-30T14:58:57Z</time>
					</trkpt>
					<trkpt lat="48.998070" lon="2.322190">
						<ele>170</ele>
						<time>2024-05-30T14:59:00Z</time>
					</trkpt>
					<trkpt lat="48.997960" lon="2.322350">
						<ele>170</ele>
						<time>2024-05-30T14:59:03Z</time>
					</trkpt>
					<trkpt lat="48.997890" lon="2.322520">
						<ele>169</ele>
						<time>2024-05-30T14:59:05Z</time>
					</trkpt>
					<trkpt lat="48.997290" lon="2.323590">
						<ele>163</ele>
						<time>2024-05-30T14:59:22Z</time>
					</trkpt>
					<trkpt lat="48.996850" lon="2.324220">
						<ele>161</ele>
						<time>2024-05-30T14:59:32Z</time>
					</trkpt>
					<trkpt lat="48.996460" lon="2.324650">
						<ele>159</ele>
						<time>2024-05-30T14:59:41Z</time>
					</trkpt>
					<trkpt lat="48.996300" lon="2.324890">
						<ele>157</ele>
						<time>2024-05-30T14:59:45Z</time>
					</trkpt>
					<trkpt lat="48.995910" lon="2.325570">
						<ele>153</ele>
						<time>2024-05-30T14:59:56Z</time>
					</trkpt>
					<trkpt lat="48.995760" lon="2.325860">
						<ele>152</ele>
						<time>2024-05-30T15:00:00Z</time>
					</trkpt>
					<trkpt lat="48.995690" lon="2.326150">
						<ele>151</ele>
						<time>2024-05-30T15:00:04Z</time>
					</trkpt>
					<trkpt lat="48.995680" lon="2.326360">
						<ele>152</ele>
						<time>2024-05-30T15:00:06Z</time>
					</trkpt>
					<trkpt lat="48.995680" lon="2.326860">
						<ele>153</ele>
						<time>2024-05-30T15:00:12Z</time>
					</trkpt>
					<trkpt lat="48.995660" lon="2.327030">
						<ele>153</ele>
						<time>2024-05-30T15:00:14Z</time>
					</trkpt>
					<trkpt lat="48.995620" lon="2.327110">
						<ele>152</ele>
						<time>2024-05-30T15:00:15Z</time>
					</trkpt>
					<trkpt lat="48.995550" lon="2.327150">
						<ele>151</ele>
						<time>2024-05-30T15:00:16Z</time>
					</trkpt>
					<trkpt lat="48.995450" lon="2.327140">
						<ele>150</ele>
						<time>2024-05-30T15:00:18Z</time>
					</trkpt>
					<trkpt lat="48.995390" lon="2.327080">
						<ele>149</ele>
						<time>2024-05-30T15:00:19Z</time>
					</trkpt>
					<trkpt lat="48.995350" lon="2.326990">
						<ele>148</ele>
						<time>2024-05-30T15:00:21Z</time>
					</trkpt>
					<trkpt lat="48.995340" lon="2.326830">
						<ele>147</ele>
						<time>2024-05-30T15:00:23Z</time>
					</trkpt>
					<trkpt lat="48.995410" lon="2.326550">
						<ele>147</ele>
						<time>2024-05-30T15:00:26Z</time>
					</trkpt>
					<trkpt lat="48.995440" lon="2.326370">
						<ele>148</ele>
						<time>2024-05-30T15:00:28Z</time>
					</trkpt>
					<trkpt lat="48.995440" lon="2.326240">
						<ele>147</ele>
						<time>2024-05-30T15:00:30Z</time>
					</trkpt>
					<trkpt lat="48.995410" lon="2.326100">
						<ele>147</ele>
						<time>2024-05-30T15:00:31Z</time>
					</trkpt>
					<trkpt lat="48.995370" lon="2.325980">
						<ele>146</ele>
						<time>2024-05-30T15:00:33Z</time>
					</trkpt>
					<trkpt lat="48.995090" lon="2.325490">
						<ele>142</ele>
						<time>2024-05-30T15:00:41Z</time>
					</trkpt>
					<trkpt lat="48.995010" lon="2.325310">
						<ele>142</ele>
						<time>2024-05-30T15:00:43Z</time>
					</trkpt>
					<trkpt lat="48.994950" lon="2.325090">
						<ele>142</ele>
						<time>2024-05-30T15:00:46Z</time>
					</trkpt>
					<trkpt lat="48.994800" lon="2.324490">
						<ele>140</ele>
						<time>2024-05-30T15:00:53Z</time>
					</trkpt>
					<trkpt lat="48.994760" lon="2.324410">
						<ele>139</ele>
						<time>2024-05-30T15:00:55Z</time>
					</trkpt>
					<trkpt lat="48.994630" lon="2.324340">
						<ele>138</ele>
						<time>2024-05-30T15:00:57Z</time>
					</trkpt>
					<trkpt lat="48.994490" lon="2.324300">
						<ele>137</ele>
						<time>2024-05-30T15:01:00Z</time>
					</trkpt>
					<trkpt lat="48.994210" lon="2.324150">
						<ele>135</ele>
						<time>2024-05-30T15:01:05Z</time>
					</trkpt>
					<trkpt lat="48.993960" lon="2.323980">
						<ele>134</ele>
						<time>2024-05-30T15:01:10Z</time>
					</trkpt>
					<trkpt lat="48.993250" lon="2.323450">
						<ele>132</ele>
						<time>2024-05-30T15:01:24Z</time>
					</trkpt>
					<trkpt lat="48.992420" lon="2.322520">
						<ele>132</ele>
						<time>2024-05-30T15:01:42Z</time>
					</trkpt>
					<trkpt lat="48.991810" lon="2.321940">
						<ele>130</ele>
						<time>2024-05-30T15:01:55Z</time>
					</trkpt>
					<trkpt lat="48.991650" lon="2.321800">
						<ele>130</ele>
						<time>2024-05-30T15:01:58Z</time>
					</trkpt>
					<trkpt lat="48.990860" lon="2.321340">
						<ele>131</ele>
						<time>2024-05-30T15:02:13Z</time>
					</trkpt>
					<trkpt lat="48.990780" lon="2.321310">
						<ele>131</ele>
						<time>2024-05-30T15:02:15Z</time>
					</trkpt>
					<trkpt lat="48.990510" lon="2.321300">
						<ele>130</ele>
						<time>2024-05-30T15:02:20Z</time>
					</trkpt>
					<trkpt lat="48.990460" lon="2.321350">
						<ele>130</ele>
						<time>2024-05-30T15:02:21Z</time>
					</trkpt>
					<trkpt lat="48.990410" lon="2.321470">
						<ele>130</ele>
						<time>2024-05-30T15:02:22Z</time>
					</trkpt>
					<trkpt lat="48.989940" lon="2.322820">
						<ele>126</ele>
						<time>2024-05-30T15:02:40Z</time>
					</trkpt>
					<trkpt lat="48.989940" lon="2.323000">
						<ele>125</ele>
						<time>2024-05-30T15:02:42Z</time>
					</trkpt>
					<trkpt lat="48.990030" lon="2.323700">
						<ele>124</ele>
						<time>2024-05-30T15:02:51Z</time>
					</trkpt>
					<trkpt lat="48.990050" lon="2.323910">
						<ele>125</ele>
						<time>2024-05-30T15:02:53Z</time>
					</trkpt>
					<trkpt lat="48.990020" lon="2.324160">
						<ele>125</ele>
						<time>2024-05-30T15:02:56Z</time>
					</trkpt>
					<trkpt lat="48.989460" lon="2.326920">
						<ele>125</ele>
						<time>2024-05-30T15:03:30Z</time>
					</trkpt>
					<trkpt lat="48.989300" lon="2.327220">
						<ele>125</ele>
						<time>2024-05-30T15:03:34Z</time>
					</trkpt>
					<trkpt lat="48.989230" lon="2.327320">
						<ele>126</ele>
						<time>2024-05-30T15:03:36Z</time>
					</trkpt>
					<trkpt lat="48.989100" lon="2.327440">
						<ele>126</ele>
						<time>2024-05-30T15:03:39Z</time>
					</trkpt>
					<trkpt lat="48.987330" lon="2.328360">
						<ele>124</ele>
						<time>2024-05-30T15:04:12Z</time>
					</trkpt>
					<trkpt lat="48.987130" lon="2.328420">
						<ele>124</ele>
						<time>2024-05-30T15:04:16Z</time>
					</trkpt>
					<trkpt lat="48.986210" lon="2.328500">
						<ele>122</ele>
						<time>2024-05-30T15:04:32Z</time>
					</trkpt>
					<trkpt lat="48.985820" lon="2.328510">
						<ele>121</ele>
						<time>2024-05-30T15:04:39Z</time>
					</trkpt>
					<trkpt lat="48.984710" lon="2.328470">
						<ele>120</ele>
						<time>2024-05-30T15:04:59Z</time>
					</trkpt>
					<trkpt lat="48.984450" lon="2.328430">
						<ele>120</ele>
						<time>2024-05-30T15:05:03Z</time>
					</trkpt>
					<trkpt lat="48.984330" lon="2.328370">
						<ele>119</ele>
						<time>2024-05-30T15:05:05Z</time>
					</trkpt>
					<trkpt lat="48.984220" lon="2.328260">
						<ele>119</ele>
						<time>2024-05-30T15:05:08Z</time>
					</trkpt>
					<trkpt lat="48.984040" lon="2.327940">
						<ele>119</ele>
						<time>2024-05-30T15:05:13Z</time>
					</trkpt>
					<trkpt lat="48.981900" lon="2.321740">
						<ele>100</ele>
						<time>2024-05-30T15:06:35Z</time>
					</trkpt>
					<trkpt lat="48.981740" lon="2.321460">
						<ele>99</ele>
						<time>2024-05-30T15:06:39Z</time>
					</trkpt>
					<trkpt lat="48.981570" lon="2.321240">
						<ele>97</ele>
						<time>2024-05-30T15:06:43Z</time>
					</trkpt>
					<trkpt lat="48.981510" lon="2.321170">
						<ele>96</ele>
						<time>2024-05-30T15:06:44Z</time>
					</trkpt>
					<trkpt lat="48.981480" lon="2.321050">
						<ele>96</ele>
						<time>2024-05-30T15:06:46Z</time>
					</trkpt>
					<trkpt lat="48.981460" lon="2.320940">
						<ele>95</ele>
						<time>2024-05-30T15:06:47Z</time>
					</trkpt>
					<trkpt lat="48.981350" lon="2.320790">
						<ele>94</ele>
						<time>2024-05-30T15:06:50Z</time>
					</trkpt>
					<trkpt lat="48.981310" lon="2.320770">
						<ele>94</ele>
						<time>2024-05-30T15:06:50Z</time>
					</trkpt>
					<trkpt lat="48.981220" lon="2.320800">
						<ele>93</ele>
						<time>2024-05-30T15:06:52Z</time>
					</trkpt>
					<trkpt lat="48.981200" lon="2.320860">
						<ele>93</ele>
						<time>2024-05-30T15:06:53Z</time>
					</trkpt>
					<trkpt lat="48.981210" lon="2.320980">
						<ele>94</ele>
						<time>2024-05-30T15:06:54Z</time>
					</trkpt>
					<trkpt lat="48.981360" lon="2.321180">
						<ele>95</ele>
						<time>2024-05-30T15:06:58Z</time>
					</trkpt>
					<trkpt lat="48.981490" lon="2.321190">
						<ele>96</ele>
						<time>2024-05-30T15:07:00Z</time>
					</trkpt>
					<trkpt lat="48.981570" lon="2.321240">
						<ele>97</ele>
						<time>2024-05-30T15:07:02Z</time>
					</trkpt>
					<trkpt lat="48.981510" lon="2.321170">
						<ele>96</ele>
						<time>2024-05-30T15:07:03Z</time>
					</trkpt>
					<trkpt lat="48.981480" lon="2.321050">
						<ele>96</ele>
						<time>2024-05-30T15:07:05Z</time>
					</trkpt>
					<trkpt lat="48.981460" lon="2.320940">
						<ele>95</ele>
						<time>2024-05-30T15:07:06Z</time>
					</trkpt>
					<trkpt lat="48.981350" lon="2.320790">
						<ele>94</ele>
						<time>2024-05-30T15:07:08Z</time>
					</trkpt>
					<trkpt lat="48.981200" lon="2.320720">
						<ele>93</ele>
						<time>2024-05-30T15:07:11Z</time>
					</trkpt>
					<trkpt lat="48.981150" lon="2.320640">
						<ele>92</ele>
						<time>2024-05-30T15:07:13Z</time>
					</trkpt>
					<trkpt lat="48.981010" lon="2.320240">
						<ele>90</ele>
						<time>2024-05-30T15:07:18Z</time>
					</trkpt>
					<trkpt lat="48.980860" lon="2.319470">
						<ele>88</ele>
						<time>2024-05-30T15:07:27Z</time>
					</trkpt>
					<trkpt lat="48.980750" lon="2.319130">
						<ele>87</ele>
						<time>2024-05-30T15:07:32Z</time>
					</trkpt>
					<trkpt lat="48.979700" lon="2.316920">
						<ele>76</ele>
						<time>2024-05-30T15:08:04Z</time>
					</trkpt>
					<trkpt lat="48.979690" lon="2.316850">
						<ele>76</ele>
						<time>2024-05-30T15:08:04Z</time>
					</trkpt>
					<trkpt lat="48.979700" lon="2.316750">
						<ele>76</ele>
						<time>2024-05-30T15:08:06Z</time>
					</trkpt>
					<trkpt lat="48.979720" lon="2.316680">
						<ele>76</ele>
						<time>2024-05-30T15:08:06Z</time>
					</trkpt>
					<trkpt lat="48.979710" lon="2.316630">
						<ele>76</ele>
						<time>2024-05-30T15:08:07Z</time>
					</trkpt>
					<trkpt lat="48.979540" lon="2.316400">
						<ele>75</ele>
						<time>2024-05-30T15:08:11Z</time>
					</trkpt>
					<trkpt lat="48.978680" lon="2.315080">
						<ele>71</ele>
						<time>2024-05-30T15:08:33Z</time>
					</trkpt>
					<trkpt lat="48.978210" lon="2.314260">
						<ele>68</ele>
						<time>2024-05-30T15:08:46Z</time>
					</trkpt>
					<trkpt lat="48.978060" lon="2.314060">
						<ele>67</ele>
						<time>2024-05-30T15:08:49Z</time>
					</trkpt>
					<trkpt lat="48.977630" lon="2.313790">
						<ele>65</ele>
						<time>2024-05-30T15:08:57Z</time>
					</trkpt>
					<trkpt lat="48.977450" lon="2.313630">
						<ele>64</ele>
						<time>2024-05-30T15:09:01Z</time>
					</trkpt>
					<trkpt lat="48.977320" lon="2.313550">
						<ele>63</ele>
						<time>2024-05-30T15:09:04Z</time>
					</trkpt>
					<trkpt lat="48.977130" lon="2.313450">
						<ele>61</ele>
						<time>2024-05-30T15:09:07Z</time>
					</trkpt>
					<trkpt lat="48.976940" lon="2.313370">
						<ele>60</ele>
						<time>2024-05-30T15:09:11Z</time>
					</trkpt>
					<trkpt lat="48.975920" lon="2.312770">
						<ele>56</ele>
						<time>2024-05-30T15:09:30Z</time>
					</trkpt>
					<trkpt lat="48.975910" lon="2.312610">
						<ele>56</ele>
						<time>2024-05-30T15:09:32Z</time>
					</trkpt>
					<trkpt lat="48.975860" lon="2.312460">
						<ele>56</ele>
						<time>2024-05-30T15:09:34Z</time>
					</trkpt>
					<trkpt lat="48.975780" lon="2.312310">
						<ele>56</ele>
						<time>2024-05-30T15:09:36Z</time>
					</trkpt>
					<trkpt lat="48.975640" lon="2.312140">
						<ele>56</ele>
						<time>2024-05-30T15:09:39Z</time>
					</trkpt>
					<trkpt lat="48.975220" lon="2.311770">
						<ele>55</ele>
						<time>2024-05-30T15:09:48Z</time>
					</trkpt>
					<trkpt lat="48.974790" lon="2.311570">
						<ele>54</ele>
						<time>2024-05-30T15:09:56Z</time>
					</trkpt>
					<trkpt lat="48.974310" lon="2.311380">
						<ele>53</ele>
						<time>2024-05-30T15:10:05Z</time>
					</trkpt>
					<trkpt lat="48.973830" lon="2.311080">
						<ele>52</ele>
						<time>2024-05-30T15:10:14Z</time>
					</trkpt>
					<trkpt lat="48.973310" lon="2.310680">
						<ele>52</ele>
						<time>2024-05-30T15:10:24Z</time>
					</trkpt>
					<trkpt lat="48.972760" lon="2.310150">
						<ele>53</ele>
						<time>2024-05-30T15:10:36Z</time>
					</trkpt>
					<trkpt lat="48.972410" lon="2.309630">
						<ele>53</ele>
						<time>2024-05-30T15:10:45Z</time>
					</trkpt>
					<trkpt lat="48.971990" lon="2.308960">
						<ele>52</ele>
						<time>2024-05-30T15:10:56Z</time>
					</trkpt>
					<trkpt lat="48.971920" lon="2.308780">
						<ele>52</ele>
						<time>2024-05-30T15:10:58Z</time>
					</trkpt>
					<trkpt lat="48.971910" lon="2.308630">
						<ele>52</ele>
						<time>2024-05-30T15:11:00Z</time>
					</trkpt>
					<trkpt lat="48.971890" lon="2.308540">
						<ele>52</ele>
						<time>2024-05-30T15:11:01Z</time>
					</trkpt>
					<trkpt lat="48.971730" lon="2.308270">
						<ele>52</ele>
						<time>2024-05-30T15:11:05Z</time>
					</trkpt>
					<trkpt lat="48.971870" lon="2.308020">
						<ele>52</ele>
						<time>2024-05-30T15:11:09Z</time>
					</trkpt>
					<trkpt lat="48.972670" lon="2.306870">
						<ele>50</ele>
						<time>2024-05-30T15:11:28Z</time>
					</trkpt>
					<trkpt lat="48.972840" lon="2.306570">
						<ele>49</ele>
						<time>2024-05-30T15:11:33Z</time>
					</trkpt>
					<trkpt lat="48.972270" lon="2.305770">
						<ele>48</ele>
						<time>2024-05-30T15:11:47Z</time>
					</trkpt>
					<trkpt lat="48.972150" lon="2.305670">
						<ele>48</ele>
						<time>2024-05-30T15:11:49Z</time>
					</trkpt>
					<trkpt lat="48.972020" lon="2.305420">
						<ele>47</ele>
						<time>2024-05-30T15:11:53Z</time>
					</trkpt>
					<trkpt lat="48.971730" lon="2.304990">
						<ele>46</ele>
						<time>2024-05-30T15:12:00Z</time>
					</trkpt>
					<trkpt lat="48.970720" lon="2.303540">
						<ele>44</ele>
						<time>2024-05-30T15:12:25Z</time>
					</trkpt>
					<trkpt lat="48.970640" lon="2.303360">
						<ele>43</ele>
						<time>2024-05-30T15:12:27Z</time>
					</trkpt>
					<trkpt lat="48.970630" lon="2.303260">
						<ele>43</ele>
						<time>2024-05-30T15:12:29Z</time>
					</trkpt>
					<trkpt lat="48.970580" lon="2.303220">
						<ele>42</ele>
						<time>2024-05-30T15:12:30Z</time>
					</trkpt>
					<trkpt lat="48.970480" lon="2.303260">
						<ele>43</ele>
						<time>2024-05-30T15:12:32Z</time>
					</trkpt>
					<trkpt lat="48.970420" lon="2.303280">
						<ele>43</ele>
						<time>2024-05-30T15:12:33Z</time>
					</trkpt>
					<trkpt lat="48.970350" lon="2.303350">
						<ele>43</ele>
						<time>2024-05-30T15:12:34Z</time>
					</trkpt>
					<trkpt lat="48.970160" lon="2.303420">
						<ele>43</ele>
						<time>2024-05-30T15:12:38Z</time>
					</trkpt>
					<trkpt lat="48.969900" lon="2.303640">
						<ele>43</ele>
						<time>2024-05-30T15:12:43Z</time>
					</trkpt>
					<trkpt lat="48.969720" lon="2.303840">
						<ele>43</ele>
						<time>2024-05-30T15:12:47Z</time>
					</trkpt>
					<trkpt lat="48.969190" lon="2.304830">
						<ele>46</ele>
						<time>2024-05-30T15:13:02Z</time>
					</trkpt>
					<trkpt lat="48.969070" lon="2.304910">
						<ele>46</ele>
						<time>2024-05-30T15:13:04Z</time>
					</trkpt>
					<trkpt lat="48.968950" lon="2.304890">
						<ele>45</ele>
						<time>2024-05-30T15:13:06Z</time>
					</trkpt>
					<trkpt lat="48.967660" lon="2.303470">
						<ele>39</ele>
						<time>2024-05-30T15:13:35Z</time>
					</trkpt>
					<trkpt lat="48.967130" lon="2.302730">
						<ele>38</ele>
						<time>2024-05-30T15:13:47Z</time>
					</trkpt>
					<trkpt lat="48.967020" lon="2.302530">
						<ele>38</ele>
						<time>2024-05-30T15:13:50Z</time>
					</trkpt>
					<trkpt lat="48.966440" lon="2.301500">
						<ele>41</ele>
						<time>2024-05-30T15:14:06Z</time>
					</trkpt>
					<trkpt lat="48.966110" lon="2.300860">
						<ele>42</ele>
						<time>2024-05-30T15:14:16Z</time>
					</trkpt>
					<trkpt lat="48.965940" lon="2.300690">
						<ele>43</ele>
						<time>2024-05-30T15:14:19Z</time>
					</trkpt>
					<trkpt lat="48.965840" lon="2.300570">
						<ele>43</ele>
						<time>2024-05-30T15:14:22Z</time>
					</trkpt>
					<trkpt lat="48.965690" lon="2.300600">
						<ele>44</ele>
						<time>2024-05-30T15:14:24Z</time>
					</trkpt>
					<trkpt lat="48.965360" lon="2.301360">
						<ele>45</ele>
						<time>2024-05-30T15:14:35Z</time>
					</trkpt>
					<trkpt lat="48.964950" lon="2.301920">
						<ele>45</ele>
						<time>2024-05-30T15:14:45Z</time>
					</trkpt>
					<trkpt lat="48.964390" lon="2.302620">
						<ele>44</ele>
						<time>2024-05-30T15:14:58Z</time>
					</trkpt>
					<trkpt lat="48.963870" lon="2.303300">
						<ele>42</ele>
						<time>2024-05-30T15:15:10Z</time>
					</trkpt>
					<trkpt lat="48.960570" lon="2.306830">
						<ele>40</ele>
						<time>2024-05-30T15:16:22Z</time>
					</trkpt>
					<trkpt lat="48.958990" lon="2.308380">
						<ele>35</ele>
						<time>2024-05-30T15:16:55Z</time>
					</trkpt>
					<trkpt lat="48.958680" lon="2.308630">
						<ele>35</ele>
						<time>2024-05-30T15:17:01Z</time>
					</trkpt>
					<trkpt lat="48.958560" lon="2.308650">
						<ele>35</ele>
						<time>2024-05-30T15:17:03Z</time>
					</trkpt>
					<trkpt lat="48.958440" lon="2.308550">
						<ele>35</ele>
						<time>2024-05-30T15:17:06Z</time>
					</trkpt>
					<trkpt lat="48.958330" lon="2.308550">
						<ele>35</ele>
						<time>2024-05-30T15:17:08Z</time>
					</trkpt>
					<trkpt lat="48.958180" lon="2.308970">
						<ele>35</ele>
						<time>2024-05-30T15:17:13Z</time>
					</trkpt>
					<trkpt lat="48.958090" lon="2.309130">
						<ele>35</ele>
						<time>2024-05-30T15:17:16Z</time>
					</trkpt>
					<trkpt lat="48.957500" lon="2.309740">
						<ele>37</ele>
						<time>2024-05-30T15:17:29Z</time>
					</trkpt>
					<trkpt lat="48.957390" lon="2.309870">
						<ele>37</ele>
						<time>2024-05-30T15:17:31Z</time>
					</trkpt>
					<trkpt lat="48.957300" lon="2.309920">
						<ele>38</ele>
						<time>2024-05-30T15:17:33Z</time>
					</trkpt>
					<trkpt lat="48.957160" lon="2.310050">
						<ele>38</ele>
						<time>2024-05-30T15:17:36Z</time>
					</trkpt>
					<trkpt lat="48.957110" lon="2.309930">
						<ele>39</ele>
						<time>2024-05-30T15:17:37Z</time>
					</trkpt>
					<trkpt lat="48.957150" lon="2.309890">
						<ele>39</ele>
						<time>2024-05-30T15:17:38Z</time>
					</trkpt>
					<trkpt lat="48.957170" lon="2.309830">
						<ele>38</ele>
						<time>2024-05-30T15:17:39Z</time>
					</trkpt>
					<trkpt lat="48.957060" lon="2.309600">
						<ele>39</ele>
						<time>2024-05-30T15:17:42Z</time>
					</trkpt>
					<trkpt lat="48.956840" lon="2.309300">
						<ele>39</ele>
						<time>2024-05-30T15:17:48Z</time>
					</trkpt>
					<trkpt lat="48.956450" lon="2.308930">
						<ele>40</ele>
						<time>2024-05-30T15:17:56Z</time>
					</trkpt>
					<trkpt lat="48.956410" lon="2.308860">
						<ele>40</ele>
						<time>2024-05-30T15:17:57Z</time>
					</trkpt>
					<trkpt lat="48.956240" lon="2.308720">
						<ele>40</ele>
						<time>2024-05-30T15:18:00Z</time>
					</trkpt>
					<trkpt lat="48.955690" lon="2.308400">
						<ele>41</ele>
						<time>2024-05-30T15:18:11Z</time>
					</trkpt>
					<trkpt lat="48.955540" lon="2.308340">
						<ele>41</ele>
						<time>2024-05-30T15:18:13Z</time>
					</trkpt>
					<trkpt lat="48.954870" lon="2.308120">
						<ele>42</ele>
						<time>2024-05-30T15:18:26Z</time>
					</trkpt>
					<trkpt lat="48.954890" lon="2.307900">
						<ele>42</ele>
						<time>2024-05-30T15:18:28Z</time>
					</trkpt>
					<trkpt lat="48.954750" lon="2.307850">
						<ele>42</ele>
						<time>2024-05-30T15:18:31Z</time>
					</trkpt>
					<trkpt lat="48.954620" lon="2.307870">
						<ele>42</ele>
						<time>2024-05-30T15:18:33Z</time>
					</trkpt>
					<trkpt lat="48.952030" lon="2.307160">
						<ele>33</ele>
						<time>2024-05-30T15:19:20Z</time>
					</trkpt>
					<trkpt lat="48.951820" lon="2.307100">
						<ele>31</ele>
						<time>2024-05-30T15:19:24Z</time>
					</trkpt>
					<trkpt lat="48.951710" lon="2.307120">
						<ele>30</ele>
						<time>2024-05-30T15:19:26Z</time>
					</trkpt>
					<trkpt lat="48.951070" lon="2.306940">
						<ele>31</ele>
						<time>2024-05-30T15:19:37Z</time>
					</trkpt>
					<trkpt lat="48.951000" lon="2.306860">
						<ele>31</ele>
						<time>2024-05-30T15:19:39Z</time>
					</trkpt>
					<trkpt lat="48.950700" lon="2.306760">
						<ele>32</ele>
						<time>2024-05-30T15:19:44Z</time>
					</trkpt>
					<trkpt lat="48.950500" lon="2.306710">
						<ele>31</ele>
						<time>2024-05-30T15:19:48Z</time>
					</trkpt>
					<trkpt lat="48.950490" lon="2.306840">
						<ele>31</ele>
						<time>2024-05-30T15:19:49Z</time>
					</trkpt>
					<trkpt lat="48.950500" lon="2.307610">
						<ele>31</ele>
						<time>2024-05-30T15:19:58Z</time>
					</trkpt>
					<trkpt lat="48.950490" lon="2.308020">
						<ele>31</ele>
						<time>2024-05-30T15:20:03Z</time>
					</trkpt>
					<trkpt lat="48.950450" lon="2.308490">
						<ele>31</ele>
						<time>2024-05-30T15:20:09Z</time>
					</trkpt>
					<trkpt lat="48.949940" lon="2.312060">
						<ele>31</ele>
						<time>2024-05-30T15:20:51Z</time>
					</trkpt>
					<trkpt lat="48.949910" lon="2.312160">
						<ele>31</ele>
						<time>2024-05-30T15:20:53Z</time>
					</trkpt>
					<trkpt lat="48.949700" lon="2.312510">
						<ele>30</ele>
						<time>2024-05-30T15:20:58Z</time>
					</trkpt>
					<trkpt lat="48.949680" lon="2.312580">
						<ele>30</ele>
						<time>2024-05-30T15:20:59Z</time>
					</trkpt>
					<trkpt lat="48.949550" lon="2.313300">
						<ele>31</ele>
						<time>2024-05-30T15:21:08Z</time>
					</trkpt>
					<trkpt lat="48.949550" lon="2.313420">
						<ele>31</ele>
						<time>2024-05-30T15:21:09Z</time>
					</trkpt>
					<trkpt lat="48.949610" lon="2.313720">
						<ele>32</ele>
						<time>2024-05-30T15:21:13Z</time>
					</trkpt>
					<trkpt lat="48.949630" lon="2.313860">
						<ele>32</ele>
						<time>2024-05-30T15:21:15Z</time>
					</trkpt>
					<trkpt lat="48.948570" lon="2.319060">
						<ele>37</ele>
						<time>2024-05-30T15:22:18Z</time>
					</trkpt>
					<trkpt lat="48.947870" lon="2.322180">
						<ele>33</ele>
						<time>2024-05-30T15:22:57Z</time>
					</trkpt>
					<trkpt lat="48.947350" lon="2.324490">
						<ele>31</ele>
						<time>2024-05-30T15:23:25Z</time>
					</trkpt>
					<trkpt lat="48.946670" lon="2.327070">
						<ele>31</ele>
						<time>2024-05-30T15:23:58Z</time>
					</trkpt>
					<trkpt lat="48.945730" lon="2.330730">
						<ele>29</ele>
						<time>2024-05-30T15:24:44Z</time>
					</trkpt>
					<trkpt lat="48.945050" lon="2.333090">
						<ele>27</ele>
						<time>2024-05-30T15:25:14Z</time>
					</trkpt>
					<trkpt lat="48.944570" lon="2.334260">
						<ele>27</ele>
						<time>2024-05-30T15:25:30Z</time>
					</trkpt>
					<trkpt lat="48.944200" lon="2.334940">
						<ele>27</ele>
						<time>2024-05-30T15:25:40Z</time>
					</trkpt>
					<trkpt lat="48.943710" lon="2.335780">
						<ele>29</ele>
						<time>2024-05-30T15:25:53Z</time>
					</trkpt>
					<trkpt lat="48.943230" lon="2.336470">
						<ele>29</ele>
						<time>2024-05-30T15:26:05Z</time>
					</trkpt>
					<trkpt lat="48.942710" lon="2.337120">
						<ele>28</ele>
						<time>2024-05-30T15:26:17Z</time>
					</trkpt>
					<trkpt lat="48.942380" lon="2.337470">
						<ele>28</ele>
						<time>2024-05-30T15:26:24Z</time>
					</trkpt>
					<trkpt lat="48.940540" lon="2.338850">
						<ele>26</ele>
						<time>2024-05-30T15:27:01Z</time>
					</trkpt>
					<trkpt lat="48.939190" lon="2.339670">
						<ele>27</ele>
						<time>2024-05-30T15:27:27Z</time>
					</trkpt>
					<trkpt lat="48.938460" lon="2.339990">
						<ele>26</ele>
						<time>2024-05-30T15:27:40Z</time>
					</trkpt>
					<trkpt lat="48.935910" lon="2.340860">
						<ele>28</ele>
						<time>2024-05-30T15:28:27Z</time>
					</trkpt>
					<trkpt lat="48.935850" lon="2.340840">
						<ele>28</ele>
						<time>2024-05-30T15:28:28Z</time>
					</trkpt>
					<trkpt lat="48.935840" lon="2.340780">
						<ele>28</ele>
						<time>2024-05-30T15:28:29Z</time>
					</trkpt>
					<trkpt lat="48.935810" lon="2.340750">
						<ele>28</ele>
						<time>2024-05-30T15:28:29Z</time>
					</trkpt>
					<trkpt lat="48.935780" lon="2.340760">
						<ele>28</ele>
						<time>2024-05-30T15:28:30Z</time>
					</trkpt>
					<trkpt lat="48.935750" lon="2.340790">
						<ele>28</ele>
						<time>2024-05-30T15:28:30Z</time>
					</trkpt>
					<trkpt lat="48.935740" lon="2.340840">
						<ele>28</ele>
						<time>2024-05-30T15:28:31Z</time>
					</trkpt>
					<trkpt lat="48.935440" lon="2.340930">
						<ele>28</ele>
						<time>2024-05-30T15:28:36Z</time>
					</trkpt>
					<trkpt lat="48.935050" lon="2.341010">
						<ele>28</ele>
						<time>2024-05-30T15:28:43Z</time>
					</trkpt>
					<trkpt lat="48.934900" lon="2.341010">
						<ele>29</ele>
						<time>2024-05-30T15:28:46Z</time>
					</trkpt>
					<trkpt lat="48.934290" lon="2.340940">
						<ele>28</ele>
						<time>2024-05-30T15:28:57Z</time>
					</trkpt>
					<trkpt lat="48.933240" lon="2.340790">
						<ele>29</ele>
						<time>2024-05-30T15:29:16Z</time>
					</trkpt>
					<trkpt lat="48.932060" lon="2.340270">
						<ele>28</ele>
						<time>2024-05-30T15:29:38Z</time>
					</trkpt>
					<trkpt lat="48.931640" lon="2.340040">
						<ele>27</ele>
						<time>2024-05-30T15:29:46Z</time>
					</trkpt>
					<trkpt lat="48.931110" lon="2.339830">
						<ele>27</ele>
						<time>2024-05-30T15:29:55Z</time>
					</trkpt>
					<trkpt lat="48.930780" lon="2.339590">
						<ele>28</ele>
						<time>2024-05-30T15:30:02Z</time>
					</trkpt>
					<trkpt lat="48.929700" lon="2.338470">
						<ele>28</ele>
						<time>2024-05-30T15:30:25Z</time>
					</trkpt>
					<trkpt lat="48.929010" lon="2.337780">
						<ele>29</ele>
						<time>2024-05-30T15:30:40Z</time>
					</trkpt>
					<trkpt lat="48.928680" lon="2.337450">
						<ele>29</ele>
						<time>2024-05-30T15:30:47Z</time>
					</trkpt>
					<trkpt lat="48.928580" lon="2.337350">
						<ele>29</ele>
						<time>2024-05-30T15:30:49Z</time>
					</trkpt>
					<trkpt lat="48.928340" lon="2.337100">
						<ele>28</ele>
						<time>2024-05-30T15:30:54Z</time>
					</trkpt>
					<trkpt lat="48.927500" lon="2.336280">
						<ele>28</ele>
						<time>2024-05-30T15:31:12Z</time>
					</trkpt>
					<trkpt lat="48.926020" lon="2.334910">
						<ele>31</ele>
						<time>2024-05-30T15:31:43Z</time>
					</trkpt>
					<trkpt lat="48.925500" lon="2.334460">
						<ele>30</ele>
						<time>2024-05-30T15:31:53Z</time>
					</trkpt>
					<trkpt lat="48.923570" lon="2.332610">
						<ele>33</ele>
						<time>2024-05-30T15:32:34Z</time>
					</trkpt>
					<trkpt lat="48.920570" lon="2.329810">
						<ele>32</ele>
						<time>2024-05-30T15:33:36Z</time>
					</trkpt>
					<trkpt lat="48.920250" lon="2.329550">
						<ele>33</ele>
						<time>2024-05-30T15:33:43Z</time>
					</trkpt>
					<trkpt lat="48.919910" lon="2.329160">
						<ele>33</ele>
						<time>2024-05-30T15:33:50Z</time>
					</trkpt>
					<trkpt lat="48.919170" lon="2.328020">
						<ele>32</ele>
						<time>2024-05-30T15:34:09Z</time>
					</trkpt>
					<trkpt lat="48.918240" lon="2.329410">
						<ele>33</ele>
						<time>2024-05-30T15:34:32Z</time>
					</trkpt>
					<trkpt lat="48.918210" lon="2.329450">
						<ele>33</ele>
						<time>2024-05-30T15:34:33Z</time>
					</trkpt>
					<trkpt lat="48.918030" lon="2.329470">
						<ele>35</ele>
						<time>2024-05-30T15:34:36Z</time>
					</trkpt>
					<trkpt lat="48.917920" lon="2.329540">
						<ele>36</ele>
						<time>2024-05-30T15:34:38Z</time>
					</trkpt>
					<trkpt lat="48.917820" lon="2.329610">
						<ele>36</ele>
						<time>2024-05-30T15:34:40Z</time>
					</trkpt>
					<trkpt lat="48.917760" lon="2.329680">
						<ele>37</ele>
						<time>2024-05-30T15:34:42Z</time>
					</trkpt>
					<trkpt lat="48.916730" lon="2.330170">
						<ele>38</ele>
						<time>2024-05-30T15:35:01Z</time>
					</trkpt>
					<trkpt lat="48.916380" lon="2.330350">
						<ele>39</ele>
						<time>2024-05-30T15:35:08Z</time>
					</trkpt>
					<trkpt lat="48.915310" lon="2.331330">
						<ele>38</ele>
						<time>2024-05-30T15:35:30Z</time>
					</trkpt>
					<trkpt lat="48.915110" lon="2.330880">
						<ele>35</ele>
						<time>2024-05-30T15:35:36Z</time>
					</trkpt>
					<trkpt lat="48.913550" lon="2.327560">
						<ele>33</ele>
						<time>2024-05-30T15:36:24Z</time>
					</trkpt>
					</trkseg>
				</trk>
			</gpx>